<?xml version="1.0" encoding="UTF-8" standalone="no" ?>
<gpx xmlns="http://www.topografix.com/GPX/1/1" xmlns:xsi="http://www.w3.org/2001/XMLSchema-instance" xsi:schemaLocation="http://www.topografix.com/GPX/1/1 http://www.topografix.com/GPX/1/1/gpx.xsd" version="1.1" creator="VisuGPX - https://www.visugpx.com">
  <metadata>
    <name>28 octobre 2010 chuyer</name>
    <desc><![CDATA[28 octobre 2010 chuyer]]></desc>
  </metadata>
  <wpt lat="45.45868" lon="4.69498">
    <ele>449</ele>
  </wpt>
  <wpt lat="45.45862" lon="4.69499">
    <ele>448</ele>
  </wpt>
  <trk>
    <name><![CDATA[28 octobre 2010 chuyer_1]]></name>
    <trkseg>
      <trkpt lat="45.45868" lon="4.69498">
        <ele>449</ele>
        <time>2010-10-28T06:51:12Z</time>
      </trkpt>
      <trkpt lat="45.45861" lon="4.69506">
        <ele>446</ele>
        <time>2010-10-28T06:53:02Z</time>
      </trkpt>
      <trkpt lat="45.4587" lon="4.69501">
        <ele>446</ele>
        <time>2010-10-28T06:54:09Z</time>
      </trkpt>
      <trkpt lat="45.45868" lon="4.69514">
        <ele>446</ele>
        <time>2010-10-28T06:55:01Z</time>
      </trkpt>
      <trkpt lat="45.45866" lon="4.69529">
        <ele>446</ele>
        <time>2010-10-28T06:55:12Z</time>
      </trkpt>
      <trkpt lat="45.4587" lon="4.69541">
        <ele>446</ele>
        <time>2010-10-28T06:55:24Z</time>
      </trkpt>
      <trkpt lat="45.4587" lon="4.69528">
        <ele>446</ele>
        <time>2010-10-28T06:55:34Z</time>
      </trkpt>
      <trkpt lat="45.45866" lon="4.69514">
        <ele>446</ele>
        <time>2010-10-28T06:55:46Z</time>
      </trkpt>
      <trkpt lat="45.45866" lon="4.69501">
        <ele>446</ele>
        <time>2010-10-28T06:56:00Z</time>
      </trkpt>
      <trkpt lat="45.45875" lon="4.69507">
        <ele>446</ele>
        <time>2010-10-28T06:57:31Z</time>
      </trkpt>
      <trkpt lat="45.45867" lon="4.69499">
        <ele>449</ele>
        <time>2010-10-28T07:09:04Z</time>
      </trkpt>
      <trkpt lat="45.45875" lon="4.69508">
        <ele>446</ele>
        <time>2010-10-28T07:09:37Z</time>
      </trkpt>
      <trkpt lat="45.45874" lon="4.69522">
        <ele>446</ele>
        <time>2010-10-28T07:09:47Z</time>
      </trkpt>
      <trkpt lat="45.45872" lon="4.69536">
        <ele>446</ele>
        <time>2010-10-28T07:09:56Z</time>
      </trkpt>
      <trkpt lat="45.45873" lon="4.6955">
        <ele>446</ele>
        <time>2010-10-28T07:10:05Z</time>
      </trkpt>
      <trkpt lat="45.45874" lon="4.69565">
        <ele>445</ele>
        <time>2010-10-28T07:10:14Z</time>
      </trkpt>
      <trkpt lat="45.45873" lon="4.69579">
        <ele>445</ele>
        <time>2010-10-28T07:10:23Z</time>
      </trkpt>
      <trkpt lat="45.45875" lon="4.69593">
        <ele>443</ele>
        <time>2010-10-28T07:10:31Z</time>
      </trkpt>
      <trkpt lat="45.45879" lon="4.69605">
        <ele>443</ele>
        <time>2010-10-28T07:10:38Z</time>
      </trkpt>
      <trkpt lat="45.45883" lon="4.69619">
        <ele>443</ele>
        <time>2010-10-28T07:10:46Z</time>
      </trkpt>
      <trkpt lat="45.45885" lon="4.69631">
        <ele>443</ele>
        <time>2010-10-28T07:10:54Z</time>
      </trkpt>
      <trkpt lat="45.45888" lon="4.69645">
        <ele>443</ele>
        <time>2010-10-28T07:11:02Z</time>
      </trkpt>
      <trkpt lat="45.45894" lon="4.69655">
        <ele>443</ele>
        <time>2010-10-28T07:11:10Z</time>
      </trkpt>
      <trkpt lat="45.459" lon="4.69667">
        <ele>442</ele>
        <time>2010-10-28T07:11:18Z</time>
      </trkpt>
      <trkpt lat="45.45904" lon="4.69682">
        <ele>442</ele>
        <time>2010-10-28T07:11:26Z</time>
      </trkpt>
      <trkpt lat="45.4591" lon="4.69691">
        <ele>441</ele>
        <time>2010-10-28T07:11:33Z</time>
      </trkpt>
      <trkpt lat="45.45915" lon="4.69703">
        <ele>441</ele>
        <time>2010-10-28T07:11:39Z</time>
      </trkpt>
      <trkpt lat="45.45921" lon="4.69714">
        <ele>445</ele>
        <time>2010-10-28T07:11:46Z</time>
      </trkpt>
      <trkpt lat="45.45927" lon="4.69726">
        <ele>444</ele>
        <time>2010-10-28T07:11:54Z</time>
      </trkpt>
      <trkpt lat="45.45932" lon="4.69739">
        <ele>444</ele>
        <time>2010-10-28T07:12:03Z</time>
      </trkpt>
      <trkpt lat="45.45937" lon="4.69752">
        <ele>442</ele>
        <time>2010-10-28T07:12:11Z</time>
      </trkpt>
      <trkpt lat="45.45945" lon="4.69761">
        <ele>443</ele>
        <time>2010-10-28T07:12:18Z</time>
      </trkpt>
      <trkpt lat="45.45954" lon="4.69768">
        <ele>443</ele>
        <time>2010-10-28T07:12:25Z</time>
      </trkpt>
      <trkpt lat="45.45963" lon="4.69773">
        <ele>444</ele>
        <time>2010-10-28T07:12:35Z</time>
      </trkpt>
      <trkpt lat="45.45972" lon="4.69779">
        <ele>444</ele>
        <time>2010-10-28T07:12:43Z</time>
      </trkpt>
      <trkpt lat="45.45982" lon="4.69786">
        <ele>444</ele>
        <time>2010-10-28T07:12:51Z</time>
      </trkpt>
      <trkpt lat="45.45991" lon="4.69791">
        <ele>444</ele>
        <time>2010-10-28T07:13:00Z</time>
      </trkpt>
      <trkpt lat="45.45999" lon="4.69799">
        <ele>444</ele>
        <time>2010-10-28T07:13:07Z</time>
      </trkpt>
      <trkpt lat="45.46007" lon="4.69808">
        <ele>449</ele>
        <time>2010-10-28T07:13:16Z</time>
      </trkpt>
      <trkpt lat="45.46015" lon="4.69818">
        <ele>449</ele>
        <time>2010-10-28T07:13:24Z</time>
      </trkpt>
      <trkpt lat="45.46022" lon="4.69827">
        <ele>449</ele>
        <time>2010-10-28T07:13:30Z</time>
      </trkpt>
      <trkpt lat="45.46028" lon="4.69838">
        <ele>446</ele>
        <time>2010-10-28T07:13:37Z</time>
      </trkpt>
      <trkpt lat="45.46033" lon="4.69849">
        <ele>447</ele>
        <time>2010-10-28T07:13:44Z</time>
      </trkpt>
      <trkpt lat="45.46035" lon="4.69863">
        <ele>446</ele>
        <time>2010-10-28T07:13:52Z</time>
      </trkpt>
      <trkpt lat="45.4604" lon="4.69875">
        <ele>446</ele>
        <time>2010-10-28T07:13:59Z</time>
      </trkpt>
      <trkpt lat="45.46043" lon="4.69888">
        <ele>446</ele>
        <time>2010-10-28T07:14:06Z</time>
      </trkpt>
      <trkpt lat="45.46045" lon="4.69902">
        <ele>446</ele>
        <time>2010-10-28T07:14:42Z</time>
      </trkpt>
      <trkpt lat="45.46048" lon="4.69914">
        <ele>446</ele>
        <time>2010-10-28T07:14:50Z</time>
      </trkpt>
      <trkpt lat="45.46049" lon="4.69929">
        <ele>442</ele>
        <time>2010-10-28T07:14:57Z</time>
      </trkpt>
      <trkpt lat="45.4605" lon="4.69942">
        <ele>441</ele>
        <time>2010-10-28T07:15:04Z</time>
      </trkpt>
      <trkpt lat="45.46051" lon="4.69956">
        <ele>441</ele>
        <time>2010-10-28T07:15:11Z</time>
      </trkpt>
      <trkpt lat="45.46055" lon="4.69969">
        <ele>441</ele>
        <time>2010-10-28T07:15:19Z</time>
      </trkpt>
      <trkpt lat="45.46057" lon="4.69982">
        <ele>441</ele>
        <time>2010-10-28T07:15:26Z</time>
      </trkpt>
      <trkpt lat="45.46059" lon="4.69996">
        <ele>441</ele>
        <time>2010-10-28T07:15:33Z</time>
      </trkpt>
      <trkpt lat="45.46062" lon="4.70008">
        <ele>438</ele>
        <time>2010-10-28T07:15:40Z</time>
      </trkpt>
      <trkpt lat="45.46064" lon="4.70022">
        <ele>437</ele>
        <time>2010-10-28T07:15:48Z</time>
      </trkpt>
      <trkpt lat="45.46064" lon="4.70036">
        <ele>436</ele>
        <time>2010-10-28T07:15:56Z</time>
      </trkpt>
      <trkpt lat="45.46069" lon="4.70048">
        <ele>436</ele>
        <time>2010-10-28T07:16:02Z</time>
      </trkpt>
      <trkpt lat="45.46072" lon="4.70061">
        <ele>436</ele>
        <time>2010-10-28T07:16:08Z</time>
      </trkpt>
      <trkpt lat="45.46079" lon="4.70072">
        <ele>436</ele>
        <time>2010-10-28T07:16:16Z</time>
      </trkpt>
      <trkpt lat="45.46085" lon="4.70084">
        <ele>437</ele>
        <time>2010-10-28T07:16:24Z</time>
      </trkpt>
      <trkpt lat="45.4609" lon="4.70097">
        <ele>438</ele>
        <time>2010-10-28T07:16:32Z</time>
      </trkpt>
      <trkpt lat="45.46095" lon="4.7011">
        <ele>439</ele>
        <time>2010-10-28T07:16:40Z</time>
      </trkpt>
      <trkpt lat="45.461" lon="4.70121">
        <ele>439</ele>
        <time>2010-10-28T07:16:46Z</time>
      </trkpt>
      <trkpt lat="45.46107" lon="4.70132">
        <ele>439</ele>
        <time>2010-10-28T07:16:53Z</time>
      </trkpt>
      <trkpt lat="45.46113" lon="4.70143">
        <ele>439</ele>
        <time>2010-10-28T07:17:00Z</time>
      </trkpt>
      <trkpt lat="45.46119" lon="4.70155">
        <ele>439</ele>
        <time>2010-10-28T07:17:08Z</time>
      </trkpt>
      <trkpt lat="45.46125" lon="4.70167">
        <ele>437</ele>
        <time>2010-10-28T07:17:17Z</time>
      </trkpt>
      <trkpt lat="45.46131" lon="4.70178">
        <ele>437</ele>
        <time>2010-10-28T07:17:24Z</time>
      </trkpt>
      <trkpt lat="45.46136" lon="4.7019">
        <ele>437</ele>
        <time>2010-10-28T07:17:32Z</time>
      </trkpt>
      <trkpt lat="45.46142" lon="4.70201">
        <ele>437</ele>
        <time>2010-10-28T07:17:39Z</time>
      </trkpt>
      <trkpt lat="45.4615" lon="4.70212">
        <ele>437</ele>
        <time>2010-10-28T07:17:46Z</time>
      </trkpt>
      <trkpt lat="45.46156" lon="4.70221">
        <ele>437</ele>
        <time>2010-10-28T07:17:53Z</time>
      </trkpt>
      <trkpt lat="45.46162" lon="4.70231">
        <ele>437</ele>
        <time>2010-10-28T07:18:00Z</time>
      </trkpt>
      <trkpt lat="45.46169" lon="4.70244">
        <ele>439</ele>
        <time>2010-10-28T07:18:08Z</time>
      </trkpt>
      <trkpt lat="45.46174" lon="4.70256">
        <ele>438</ele>
        <time>2010-10-28T07:18:15Z</time>
      </trkpt>
      <trkpt lat="45.46179" lon="4.70269">
        <ele>439</ele>
        <time>2010-10-28T07:18:23Z</time>
      </trkpt>
      <trkpt lat="45.46182" lon="4.70283">
        <ele>439</ele>
        <time>2010-10-28T07:18:31Z</time>
      </trkpt>
      <trkpt lat="45.46186" lon="4.70297">
        <ele>439</ele>
        <time>2010-10-28T07:18:38Z</time>
      </trkpt>
      <trkpt lat="45.4619" lon="4.70311">
        <ele>438</ele>
        <time>2010-10-28T07:18:46Z</time>
      </trkpt>
      <trkpt lat="45.46194" lon="4.70324">
        <ele>438</ele>
        <time>2010-10-28T07:18:54Z</time>
      </trkpt>
      <trkpt lat="45.46197" lon="4.70338">
        <ele>435</ele>
        <time>2010-10-28T07:19:02Z</time>
      </trkpt>
      <trkpt lat="45.46199" lon="4.70352">
        <ele>435</ele>
        <time>2010-10-28T07:19:08Z</time>
      </trkpt>
      <trkpt lat="45.46202" lon="4.70364">
        <ele>435</ele>
        <time>2010-10-28T07:19:16Z</time>
      </trkpt>
      <trkpt lat="45.46205" lon="4.70377">
        <ele>435</ele>
        <time>2010-10-28T07:19:23Z</time>
      </trkpt>
      <trkpt lat="45.46208" lon="4.70391">
        <ele>435</ele>
        <time>2010-10-28T07:19:30Z</time>
      </trkpt>
      <trkpt lat="45.46212" lon="4.70404">
        <ele>435</ele>
        <time>2010-10-28T07:19:38Z</time>
      </trkpt>
      <trkpt lat="45.46216" lon="4.70416">
        <ele>435</ele>
        <time>2010-10-28T07:19:46Z</time>
      </trkpt>
      <trkpt lat="45.46222" lon="4.70428">
        <ele>433</ele>
        <time>2010-10-28T07:19:54Z</time>
      </trkpt>
      <trkpt lat="45.46227" lon="4.70441">
        <ele>432</ele>
        <time>2010-10-28T07:20:01Z</time>
      </trkpt>
      <trkpt lat="45.46231" lon="4.70452">
        <ele>432</ele>
        <time>2010-10-28T07:20:08Z</time>
      </trkpt>
      <trkpt lat="45.46239" lon="4.70462">
        <ele>432</ele>
        <time>2010-10-28T07:20:15Z</time>
      </trkpt>
      <trkpt lat="45.46244" lon="4.70473">
        <ele>432</ele>
        <time>2010-10-28T07:20:22Z</time>
      </trkpt>
      <trkpt lat="45.4625" lon="4.70485">
        <ele>432</ele>
        <time>2010-10-28T07:20:30Z</time>
      </trkpt>
      <trkpt lat="45.46253" lon="4.70498">
        <ele>433</ele>
        <time>2010-10-28T07:20:37Z</time>
      </trkpt>
      <trkpt lat="45.46255" lon="4.70512">
        <ele>434</ele>
        <time>2010-10-28T07:20:44Z</time>
      </trkpt>
      <trkpt lat="45.46258" lon="4.70526">
        <ele>434</ele>
        <time>2010-10-28T07:20:51Z</time>
      </trkpt>
      <trkpt lat="45.46261" lon="4.70538">
        <ele>434</ele>
        <time>2010-10-28T07:20:58Z</time>
      </trkpt>
      <trkpt lat="45.46262" lon="4.70552">
        <ele>434</ele>
        <time>2010-10-28T07:21:05Z</time>
      </trkpt>
      <trkpt lat="45.46263" lon="4.70566">
        <ele>433</ele>
        <time>2010-10-28T07:21:13Z</time>
      </trkpt>
      <trkpt lat="45.46264" lon="4.70582">
        <ele>432</ele>
        <time>2010-10-28T07:21:21Z</time>
      </trkpt>
      <trkpt lat="45.46265" lon="4.70595">
        <ele>431</ele>
        <time>2010-10-28T07:21:28Z</time>
      </trkpt>
      <trkpt lat="45.46267" lon="4.70609">
        <ele>432</ele>
        <time>2010-10-28T07:21:35Z</time>
      </trkpt>
      <trkpt lat="45.46269" lon="4.70622">
        <ele>432</ele>
        <time>2010-10-28T07:21:43Z</time>
      </trkpt>
      <trkpt lat="45.4627" lon="4.70636">
        <ele>432</ele>
        <time>2010-10-28T07:21:50Z</time>
      </trkpt>
      <trkpt lat="45.46273" lon="4.70648">
        <ele>432</ele>
        <time>2010-10-28T07:21:57Z</time>
      </trkpt>
      <trkpt lat="45.46277" lon="4.70661">
        <ele>432</ele>
        <time>2010-10-28T07:22:05Z</time>
      </trkpt>
      <trkpt lat="45.4628" lon="4.70673">
        <ele>431</ele>
        <time>2010-10-28T07:22:12Z</time>
      </trkpt>
      <trkpt lat="45.46281" lon="4.70687">
        <ele>431</ele>
        <time>2010-10-28T07:22:19Z</time>
      </trkpt>
      <trkpt lat="45.46284" lon="4.707">
        <ele>431</ele>
        <time>2010-10-28T07:22:27Z</time>
      </trkpt>
      <trkpt lat="45.46286" lon="4.70714">
        <ele>431</ele>
        <time>2010-10-28T07:22:34Z</time>
      </trkpt>
      <trkpt lat="45.46287" lon="4.70727">
        <ele>431</ele>
        <time>2010-10-28T07:22:41Z</time>
      </trkpt>
      <trkpt lat="45.46289" lon="4.70741">
        <ele>431</ele>
        <time>2010-10-28T07:22:49Z</time>
      </trkpt>
      <trkpt lat="45.46289" lon="4.70755">
        <ele>429</ele>
        <time>2010-10-28T07:22:57Z</time>
      </trkpt>
      <trkpt lat="45.46289" lon="4.70768">
        <ele>429</ele>
        <time>2010-10-28T07:23:04Z</time>
      </trkpt>
      <trkpt lat="45.46291" lon="4.70783">
        <ele>429</ele>
        <time>2010-10-28T07:23:12Z</time>
      </trkpt>
      <trkpt lat="45.4629" lon="4.70796">
        <ele>429</ele>
        <time>2010-10-28T07:23:19Z</time>
      </trkpt>
      <trkpt lat="45.46291" lon="4.7081">
        <ele>428</ele>
        <time>2010-10-28T07:23:26Z</time>
      </trkpt>
      <trkpt lat="45.46293" lon="4.70824">
        <ele>428</ele>
        <time>2010-10-28T07:23:34Z</time>
      </trkpt>
      <trkpt lat="45.46294" lon="4.70839">
        <ele>427</ele>
        <time>2010-10-28T07:23:43Z</time>
      </trkpt>
      <trkpt lat="45.46295" lon="4.70853">
        <ele>427</ele>
        <time>2010-10-28T07:23:51Z</time>
      </trkpt>
      <trkpt lat="45.46298" lon="4.70866">
        <ele>427</ele>
        <time>2010-10-28T07:23:59Z</time>
      </trkpt>
      <trkpt lat="45.46299" lon="4.7088">
        <ele>426</ele>
        <time>2010-10-28T07:24:06Z</time>
      </trkpt>
      <trkpt lat="45.46299" lon="4.70894">
        <ele>426</ele>
        <time>2010-10-28T07:24:15Z</time>
      </trkpt>
      <trkpt lat="45.463" lon="4.70909">
        <ele>426</ele>
        <time>2010-10-28T07:24:22Z</time>
      </trkpt>
      <trkpt lat="45.46303" lon="4.70921">
        <ele>425</ele>
        <time>2010-10-28T07:24:29Z</time>
      </trkpt>
      <trkpt lat="45.46304" lon="4.70936">
        <ele>425</ele>
        <time>2010-10-28T07:24:37Z</time>
      </trkpt>
      <trkpt lat="45.46306" lon="4.70951">
        <ele>425</ele>
        <time>2010-10-28T07:24:46Z</time>
      </trkpt>
      <trkpt lat="45.46308" lon="4.70964">
        <ele>425</ele>
        <time>2010-10-28T07:24:53Z</time>
      </trkpt>
      <trkpt lat="45.46308" lon="4.70979">
        <ele>425</ele>
        <time>2010-10-28T07:25:00Z</time>
      </trkpt>
      <trkpt lat="45.46308" lon="4.70992">
        <ele>425</ele>
        <time>2010-10-28T07:25:06Z</time>
      </trkpt>
      <trkpt lat="45.4631" lon="4.71006">
        <ele>425</ele>
        <time>2010-10-28T07:25:14Z</time>
      </trkpt>
      <trkpt lat="45.46312" lon="4.71019">
        <ele>425</ele>
        <time>2010-10-28T07:25:22Z</time>
      </trkpt>
      <trkpt lat="45.46312" lon="4.71033">
        <ele>424</ele>
        <time>2010-10-28T07:25:28Z</time>
      </trkpt>
      <trkpt lat="45.46313" lon="4.71047">
        <ele>425</ele>
        <time>2010-10-28T07:25:36Z</time>
      </trkpt>
      <trkpt lat="45.46311" lon="4.7106">
        <ele>425</ele>
        <time>2010-10-28T07:25:46Z</time>
      </trkpt>
      <trkpt lat="45.46311" lon="4.71075">
        <ele>426</ele>
        <time>2010-10-28T07:25:56Z</time>
      </trkpt>
      <trkpt lat="45.46308" lon="4.71088">
        <ele>425</ele>
        <time>2010-10-28T07:26:03Z</time>
      </trkpt>
      <trkpt lat="45.46305" lon="4.71101">
        <ele>424</ele>
        <time>2010-10-28T07:26:11Z</time>
      </trkpt>
      <trkpt lat="45.46301" lon="4.71114">
        <ele>423</ele>
        <time>2010-10-28T07:26:19Z</time>
      </trkpt>
      <trkpt lat="45.46299" lon="4.71129">
        <ele>423</ele>
        <time>2010-10-28T07:26:28Z</time>
      </trkpt>
      <trkpt lat="45.46299" lon="4.71142">
        <ele>423</ele>
        <time>2010-10-28T07:26:36Z</time>
      </trkpt>
      <trkpt lat="45.46298" lon="4.71156">
        <ele>423</ele>
        <time>2010-10-28T07:26:43Z</time>
      </trkpt>
      <trkpt lat="45.46298" lon="4.7117">
        <ele>421</ele>
        <time>2010-10-28T07:26:51Z</time>
      </trkpt>
      <trkpt lat="45.46298" lon="4.71183">
        <ele>421</ele>
        <time>2010-10-28T07:26:58Z</time>
      </trkpt>
      <trkpt lat="45.46296" lon="4.71197">
        <ele>420</ele>
        <time>2010-10-28T07:27:05Z</time>
      </trkpt>
      <trkpt lat="45.46296" lon="4.71211">
        <ele>420</ele>
        <time>2010-10-28T07:27:13Z</time>
      </trkpt>
      <trkpt lat="45.46296" lon="4.71226">
        <ele>419</ele>
        <time>2010-10-28T07:27:20Z</time>
      </trkpt>
      <trkpt lat="45.46296" lon="4.7124">
        <ele>419</ele>
        <time>2010-10-28T07:27:28Z</time>
      </trkpt>
      <trkpt lat="45.46294" lon="4.71254">
        <ele>417</ele>
        <time>2010-10-28T07:27:36Z</time>
      </trkpt>
      <trkpt lat="45.46294" lon="4.71268">
        <ele>417</ele>
        <time>2010-10-28T07:27:44Z</time>
      </trkpt>
      <trkpt lat="45.46294" lon="4.71282">
        <ele>417</ele>
        <time>2010-10-28T07:27:52Z</time>
      </trkpt>
      <trkpt lat="45.46293" lon="4.71296">
        <ele>416</ele>
        <time>2010-10-28T07:27:59Z</time>
      </trkpt>
      <trkpt lat="45.46292" lon="4.7131">
        <ele>416</ele>
        <time>2010-10-28T07:28:07Z</time>
      </trkpt>
      <trkpt lat="45.46291" lon="4.71325">
        <ele>416</ele>
        <time>2010-10-28T07:28:14Z</time>
      </trkpt>
      <trkpt lat="45.46291" lon="4.71338">
        <ele>414</ele>
        <time>2010-10-28T07:28:24Z</time>
      </trkpt>
      <trkpt lat="45.46291" lon="4.71351">
        <ele>414</ele>
        <time>2010-10-28T07:28:32Z</time>
      </trkpt>
      <trkpt lat="45.46291" lon="4.71366">
        <ele>414</ele>
        <time>2010-10-28T07:28:40Z</time>
      </trkpt>
      <trkpt lat="45.46292" lon="4.71379">
        <ele>414</ele>
        <time>2010-10-28T07:28:49Z</time>
      </trkpt>
      <trkpt lat="45.46293" lon="4.71393">
        <ele>414</ele>
        <time>2010-10-28T07:28:56Z</time>
      </trkpt>
      <trkpt lat="45.46292" lon="4.71406">
        <ele>414</ele>
        <time>2010-10-28T07:29:03Z</time>
      </trkpt>
      <trkpt lat="45.46294" lon="4.71419">
        <ele>413</ele>
        <time>2010-10-28T07:29:11Z</time>
      </trkpt>
      <trkpt lat="45.46298" lon="4.71431">
        <ele>413</ele>
        <time>2010-10-28T07:29:18Z</time>
      </trkpt>
      <trkpt lat="45.46299" lon="4.71445">
        <ele>413</ele>
        <time>2010-10-28T07:29:26Z</time>
      </trkpt>
      <trkpt lat="45.46302" lon="4.71459">
        <ele>413</ele>
        <time>2010-10-28T07:29:34Z</time>
      </trkpt>
      <trkpt lat="45.46306" lon="4.71472">
        <ele>413</ele>
        <time>2010-10-28T07:29:41Z</time>
      </trkpt>
      <trkpt lat="45.46308" lon="4.71484">
        <ele>413</ele>
        <time>2010-10-28T07:29:48Z</time>
      </trkpt>
      <trkpt lat="45.46309" lon="4.71498">
        <ele>414</ele>
        <time>2010-10-28T07:29:55Z</time>
      </trkpt>
      <trkpt lat="45.46308" lon="4.71512">
        <ele>412</ele>
        <time>2010-10-28T07:30:03Z</time>
      </trkpt>
      <trkpt lat="45.46306" lon="4.71527">
        <ele>411</ele>
        <time>2010-10-28T07:30:11Z</time>
      </trkpt>
      <trkpt lat="45.46307" lon="4.71541">
        <ele>411</ele>
        <time>2010-10-28T07:30:20Z</time>
      </trkpt>
      <trkpt lat="45.46305" lon="4.71555">
        <ele>411</ele>
        <time>2010-10-28T07:30:28Z</time>
      </trkpt>
      <trkpt lat="45.46301" lon="4.71568">
        <ele>411</ele>
        <time>2010-10-28T07:30:35Z</time>
      </trkpt>
      <trkpt lat="45.46301" lon="4.71581">
        <ele>411</ele>
        <time>2010-10-28T07:30:42Z</time>
      </trkpt>
      <trkpt lat="45.46299" lon="4.71595">
        <ele>408</ele>
        <time>2010-10-28T07:30:50Z</time>
      </trkpt>
      <trkpt lat="45.46298" lon="4.71609">
        <ele>408</ele>
        <time>2010-10-28T07:30:57Z</time>
      </trkpt>
      <trkpt lat="45.46298" lon="4.71623">
        <ele>407</ele>
        <time>2010-10-28T07:31:04Z</time>
      </trkpt>
      <trkpt lat="45.46299" lon="4.71637">
        <ele>407</ele>
        <time>2010-10-28T07:31:12Z</time>
      </trkpt>
      <trkpt lat="45.46301" lon="4.71651">
        <ele>407</ele>
        <time>2010-10-28T07:31:18Z</time>
      </trkpt>
      <trkpt lat="45.46303" lon="4.71663">
        <ele>406</ele>
        <time>2010-10-28T07:31:25Z</time>
      </trkpt>
      <trkpt lat="45.46304" lon="4.71677">
        <ele>405</ele>
        <time>2010-10-28T07:31:32Z</time>
      </trkpt>
      <trkpt lat="45.46306" lon="4.7169">
        <ele>405</ele>
        <time>2010-10-28T07:31:40Z</time>
      </trkpt>
      <trkpt lat="45.46308" lon="4.71703">
        <ele>404</ele>
        <time>2010-10-28T07:31:47Z</time>
      </trkpt>
      <trkpt lat="45.46313" lon="4.71714">
        <ele>404</ele>
        <time>2010-10-28T07:31:55Z</time>
      </trkpt>
      <trkpt lat="45.46315" lon="4.71728">
        <ele>404</ele>
        <time>2010-10-28T07:32:03Z</time>
      </trkpt>
      <trkpt lat="45.46316" lon="4.71741">
        <ele>404</ele>
        <time>2010-10-28T07:32:11Z</time>
      </trkpt>
      <trkpt lat="45.46319" lon="4.71755">
        <ele>404</ele>
        <time>2010-10-28T07:32:18Z</time>
      </trkpt>
      <trkpt lat="45.46321" lon="4.71769">
        <ele>404</ele>
        <time>2010-10-28T07:32:26Z</time>
      </trkpt>
      <trkpt lat="45.46324" lon="4.71783">
        <ele>404</ele>
        <time>2010-10-28T07:32:33Z</time>
      </trkpt>
      <trkpt lat="45.46326" lon="4.71796">
        <ele>404</ele>
        <time>2010-10-28T07:32:40Z</time>
      </trkpt>
      <trkpt lat="45.46329" lon="4.71809">
        <ele>404</ele>
        <time>2010-10-28T07:32:48Z</time>
      </trkpt>
      <trkpt lat="45.46331" lon="4.71822">
        <ele>403</ele>
        <time>2010-10-28T07:32:55Z</time>
      </trkpt>
      <trkpt lat="45.46334" lon="4.71837">
        <ele>403</ele>
        <time>2010-10-28T07:33:03Z</time>
      </trkpt>
      <trkpt lat="45.46334" lon="4.7185">
        <ele>403</ele>
        <time>2010-10-28T07:33:10Z</time>
      </trkpt>
      <trkpt lat="45.46334" lon="4.71864">
        <ele>403</ele>
        <time>2010-10-28T07:33:30Z</time>
      </trkpt>
      <trkpt lat="45.4633" lon="4.71876">
        <ele>404</ele>
        <time>2010-10-28T07:33:42Z</time>
      </trkpt>
      <trkpt lat="45.46327" lon="4.71889">
        <ele>404</ele>
        <time>2010-10-28T07:34:01Z</time>
      </trkpt>
      <trkpt lat="45.46331" lon="4.71901">
        <ele>403</ele>
        <time>2010-10-28T07:34:18Z</time>
      </trkpt>
      <trkpt lat="45.46334" lon="4.71914">
        <ele>402</ele>
        <time>2010-10-28T07:34:27Z</time>
      </trkpt>
      <trkpt lat="45.46337" lon="4.71926">
        <ele>402</ele>
        <time>2010-10-28T07:34:35Z</time>
      </trkpt>
      <trkpt lat="45.46342" lon="4.71938">
        <ele>402</ele>
        <time>2010-10-28T07:34:57Z</time>
      </trkpt>
      <trkpt lat="45.46348" lon="4.71951">
        <ele>402</ele>
        <time>2010-10-28T07:35:06Z</time>
      </trkpt>
      <trkpt lat="45.46354" lon="4.7196">
        <ele>402</ele>
        <time>2010-10-28T07:35:17Z</time>
      </trkpt>
      <trkpt lat="45.46363" lon="4.71967">
        <ele>402</ele>
        <time>2010-10-28T07:35:24Z</time>
      </trkpt>
      <trkpt lat="45.46372" lon="4.71971">
        <ele>401</ele>
        <time>2010-10-28T07:35:31Z</time>
      </trkpt>
      <trkpt lat="45.4638" lon="4.71978">
        <ele>401</ele>
        <time>2010-10-28T07:35:40Z</time>
      </trkpt>
      <trkpt lat="45.46387" lon="4.71987">
        <ele>401</ele>
        <time>2010-10-28T07:35:51Z</time>
      </trkpt>
      <trkpt lat="45.46396" lon="4.71993">
        <ele>401</ele>
        <time>2010-10-28T07:35:59Z</time>
      </trkpt>
      <trkpt lat="45.46404" lon="4.72001">
        <ele>400</ele>
        <time>2010-10-28T07:36:09Z</time>
      </trkpt>
      <trkpt lat="45.46413" lon="4.72009">
        <ele>399</ele>
        <time>2010-10-28T07:36:18Z</time>
      </trkpt>
      <trkpt lat="45.46421" lon="4.72015">
        <ele>398</ele>
        <time>2010-10-28T07:36:26Z</time>
      </trkpt>
      <trkpt lat="45.4643" lon="4.72022">
        <ele>398</ele>
        <time>2010-10-28T07:36:35Z</time>
      </trkpt>
      <trkpt lat="45.46439" lon="4.72029">
        <ele>397</ele>
        <time>2010-10-28T07:36:44Z</time>
      </trkpt>
      <trkpt lat="45.46447" lon="4.72037">
        <ele>397</ele>
        <time>2010-10-28T07:36:51Z</time>
      </trkpt>
      <trkpt lat="45.46455" lon="4.72045">
        <ele>397</ele>
        <time>2010-10-28T07:37:01Z</time>
      </trkpt>
      <trkpt lat="45.46464" lon="4.72052">
        <ele>396</ele>
        <time>2010-10-28T07:37:08Z</time>
      </trkpt>
      <trkpt lat="45.46472" lon="4.72062">
        <ele>396</ele>
        <time>2010-10-28T07:37:16Z</time>
      </trkpt>
      <trkpt lat="45.46482" lon="4.72068">
        <ele>395</ele>
        <time>2010-10-28T07:37:24Z</time>
      </trkpt>
      <trkpt lat="45.46489" lon="4.72077">
        <ele>395</ele>
        <time>2010-10-28T07:37:32Z</time>
      </trkpt>
      <trkpt lat="45.46497" lon="4.72085">
        <ele>393</ele>
        <time>2010-10-28T07:37:41Z</time>
      </trkpt>
      <trkpt lat="45.46504" lon="4.72095">
        <ele>393</ele>
        <time>2010-10-28T07:37:49Z</time>
      </trkpt>
      <trkpt lat="45.4651" lon="4.72105">
        <ele>392</ele>
        <time>2010-10-28T07:37:57Z</time>
      </trkpt>
      <trkpt lat="45.46514" lon="4.72118">
        <ele>392</ele>
        <time>2010-10-28T07:38:05Z</time>
      </trkpt>
      <trkpt lat="45.46523" lon="4.72127">
        <ele>392</ele>
        <time>2010-10-28T07:38:14Z</time>
      </trkpt>
      <trkpt lat="45.46528" lon="4.72137">
        <ele>392</ele>
        <time>2010-10-28T07:38:22Z</time>
      </trkpt>
      <trkpt lat="45.46531" lon="4.72152">
        <ele>392</ele>
        <time>2010-10-28T07:38:32Z</time>
      </trkpt>
      <trkpt lat="45.46537" lon="4.72163">
        <ele>392</ele>
        <time>2010-10-28T07:38:40Z</time>
      </trkpt>
      <trkpt lat="45.46541" lon="4.72175">
        <ele>390</ele>
        <time>2010-10-28T07:38:48Z</time>
      </trkpt>
      <trkpt lat="45.46547" lon="4.72187">
        <ele>390</ele>
        <time>2010-10-28T07:38:55Z</time>
      </trkpt>
      <trkpt lat="45.46551" lon="4.72199">
        <ele>390</ele>
        <time>2010-10-28T07:39:02Z</time>
      </trkpt>
      <trkpt lat="45.46556" lon="4.72211">
        <ele>389</ele>
        <time>2010-10-28T07:39:11Z</time>
      </trkpt>
      <trkpt lat="45.46562" lon="4.72222">
        <ele>389</ele>
        <time>2010-10-28T07:39:20Z</time>
      </trkpt>
      <trkpt lat="45.46569" lon="4.72232">
        <ele>388</ele>
        <time>2010-10-28T07:39:29Z</time>
      </trkpt>
      <trkpt lat="45.46578" lon="4.72236">
        <ele>387</ele>
        <time>2010-10-28T07:39:36Z</time>
      </trkpt>
      <trkpt lat="45.46587" lon="4.72243">
        <ele>386</ele>
        <time>2010-10-28T07:39:44Z</time>
      </trkpt>
      <trkpt lat="45.46595" lon="4.7225">
        <ele>386</ele>
        <time>2010-10-28T07:39:51Z</time>
      </trkpt>
      <trkpt lat="45.46604" lon="4.72259">
        <ele>383</ele>
        <time>2010-10-28T07:39:59Z</time>
      </trkpt>
      <trkpt lat="45.46613" lon="4.72265">
        <ele>383</ele>
        <time>2010-10-28T07:40:07Z</time>
      </trkpt>
      <trkpt lat="45.4662" lon="4.72275">
        <ele>383</ele>
        <time>2010-10-28T07:40:15Z</time>
      </trkpt>
      <trkpt lat="45.46628" lon="4.72284">
        <ele>383</ele>
        <time>2010-10-28T07:40:22Z</time>
      </trkpt>
      <trkpt lat="45.46636" lon="4.72293">
        <ele>382</ele>
        <time>2010-10-28T07:40:32Z</time>
      </trkpt>
      <trkpt lat="45.46645" lon="4.72301">
        <ele>382</ele>
        <time>2010-10-28T07:40:40Z</time>
      </trkpt>
      <trkpt lat="45.46652" lon="4.7231">
        <ele>382</ele>
        <time>2010-10-28T07:40:48Z</time>
      </trkpt>
      <trkpt lat="45.46657" lon="4.72322">
        <ele>381</ele>
        <time>2010-10-28T07:40:56Z</time>
      </trkpt>
      <trkpt lat="45.46659" lon="4.72336">
        <ele>379</ele>
        <time>2010-10-28T07:41:05Z</time>
      </trkpt>
      <trkpt lat="45.46661" lon="4.7235">
        <ele>379</ele>
        <time>2010-10-28T07:41:14Z</time>
      </trkpt>
      <trkpt lat="45.46662" lon="4.72365">
        <ele>378</ele>
        <time>2010-10-28T07:41:21Z</time>
      </trkpt>
      <trkpt lat="45.46665" lon="4.72378">
        <ele>378</ele>
        <time>2010-10-28T07:41:30Z</time>
      </trkpt>
      <trkpt lat="45.46667" lon="4.72391">
        <ele>378</ele>
        <time>2010-10-28T07:41:39Z</time>
      </trkpt>
      <trkpt lat="45.46669" lon="4.72404">
        <ele>377</ele>
        <time>2010-10-28T07:41:48Z</time>
      </trkpt>
      <trkpt lat="45.46672" lon="4.72418">
        <ele>376</ele>
        <time>2010-10-28T07:41:56Z</time>
      </trkpt>
      <trkpt lat="45.46675" lon="4.72431">
        <ele>375</ele>
        <time>2010-10-28T07:42:04Z</time>
      </trkpt>
      <trkpt lat="45.46679" lon="4.72445">
        <ele>374</ele>
        <time>2010-10-28T07:42:12Z</time>
      </trkpt>
      <trkpt lat="45.46682" lon="4.72458">
        <ele>374</ele>
        <time>2010-10-28T07:42:21Z</time>
      </trkpt>
      <trkpt lat="45.46686" lon="4.72471">
        <ele>373</ele>
        <time>2010-10-28T07:42:28Z</time>
      </trkpt>
      <trkpt lat="45.46691" lon="4.72482">
        <ele>373</ele>
        <time>2010-10-28T07:42:37Z</time>
      </trkpt>
      <trkpt lat="45.46698" lon="4.72493">
        <ele>373</ele>
        <time>2010-10-28T07:42:45Z</time>
      </trkpt>
      <trkpt lat="45.46701" lon="4.72506">
        <ele>369</ele>
        <time>2010-10-28T07:42:55Z</time>
      </trkpt>
      <trkpt lat="45.46705" lon="4.72517">
        <ele>369</ele>
        <time>2010-10-28T07:43:02Z</time>
      </trkpt>
      <trkpt lat="45.46713" lon="4.72527">
        <ele>369</ele>
        <time>2010-10-28T07:43:11Z</time>
      </trkpt>
      <trkpt lat="45.46719" lon="4.72538">
        <ele>368</ele>
        <time>2010-10-28T07:43:19Z</time>
      </trkpt>
      <trkpt lat="45.46727" lon="4.72547">
        <ele>367</ele>
        <time>2010-10-28T07:43:28Z</time>
      </trkpt>
      <trkpt lat="45.46733" lon="4.72557">
        <ele>366</ele>
        <time>2010-10-28T07:43:37Z</time>
      </trkpt>
      <trkpt lat="45.46739" lon="4.72568">
        <ele>365</ele>
        <time>2010-10-28T07:43:46Z</time>
      </trkpt>
      <trkpt lat="45.46745" lon="4.72579">
        <ele>362</ele>
        <time>2010-10-28T07:43:55Z</time>
      </trkpt>
      <trkpt lat="45.46752" lon="4.72588">
        <ele>360</ele>
        <time>2010-10-28T07:44:13Z</time>
      </trkpt>
      <trkpt lat="45.46755" lon="4.72604">
        <ele>360</ele>
        <time>2010-10-28T07:44:23Z</time>
      </trkpt>
      <trkpt lat="45.46758" lon="4.72616">
        <ele>360</ele>
        <time>2010-10-28T07:44:32Z</time>
      </trkpt>
      <trkpt lat="45.46765" lon="4.72629">
        <ele>360</ele>
        <time>2010-10-28T07:44:44Z</time>
      </trkpt>
      <trkpt lat="45.46768" lon="4.72642">
        <ele>360</ele>
        <time>2010-10-28T07:44:50Z</time>
      </trkpt>
      <trkpt lat="45.46766" lon="4.72657">
        <ele>360</ele>
        <time>2010-10-28T07:45:00Z</time>
      </trkpt>
      <trkpt lat="45.46774" lon="4.72666">
        <ele>360</ele>
        <time>2010-10-28T07:45:10Z</time>
      </trkpt>
      <trkpt lat="45.46781" lon="4.72676">
        <ele>360</ele>
        <time>2010-10-28T07:45:19Z</time>
      </trkpt>
      <trkpt lat="45.46787" lon="4.72687">
        <ele>360</ele>
        <time>2010-10-28T07:45:27Z</time>
      </trkpt>
      <trkpt lat="45.46793" lon="4.72698">
        <ele>360</ele>
        <time>2010-10-28T07:45:37Z</time>
      </trkpt>
      <trkpt lat="45.46794" lon="4.72713">
        <ele>360</ele>
        <time>2010-10-28T07:45:45Z</time>
      </trkpt>
      <trkpt lat="45.46794" lon="4.72727">
        <ele>360</ele>
        <time>2010-10-28T07:45:54Z</time>
      </trkpt>
      <trkpt lat="45.46793" lon="4.72741">
        <ele>360</ele>
        <time>2010-10-28T07:46:02Z</time>
      </trkpt>
      <trkpt lat="45.46792" lon="4.72755">
        <ele>359</ele>
        <time>2010-10-28T07:46:11Z</time>
      </trkpt>
      <trkpt lat="45.46793" lon="4.72768">
        <ele>359</ele>
        <time>2010-10-28T07:46:19Z</time>
      </trkpt>
      <trkpt lat="45.46792" lon="4.72782">
        <ele>359</ele>
        <time>2010-10-28T07:46:28Z</time>
      </trkpt>
      <trkpt lat="45.46792" lon="4.72796">
        <ele>358</ele>
        <time>2010-10-28T07:46:37Z</time>
      </trkpt>
      <trkpt lat="45.46792" lon="4.72811">
        <ele>358</ele>
        <time>2010-10-28T07:46:46Z</time>
      </trkpt>
      <trkpt lat="45.46795" lon="4.72824">
        <ele>359</ele>
        <time>2010-10-28T07:46:54Z</time>
      </trkpt>
      <trkpt lat="45.46797" lon="4.72837">
        <ele>358</ele>
        <time>2010-10-28T07:47:02Z</time>
      </trkpt>
      <trkpt lat="45.46799" lon="4.72851">
        <ele>358</ele>
        <time>2010-10-28T07:47:10Z</time>
      </trkpt>
      <trkpt lat="45.46804" lon="4.72863">
        <ele>358</ele>
        <time>2010-10-28T07:47:19Z</time>
      </trkpt>
      <trkpt lat="45.46808" lon="4.72875">
        <ele>358</ele>
        <time>2010-10-28T07:47:28Z</time>
      </trkpt>
      <trkpt lat="45.46813" lon="4.72888">
        <ele>358</ele>
        <time>2010-10-28T07:47:37Z</time>
      </trkpt>
      <trkpt lat="45.46818" lon="4.72899">
        <ele>359</ele>
        <time>2010-10-28T07:47:45Z</time>
      </trkpt>
      <trkpt lat="45.46822" lon="4.72913">
        <ele>360</ele>
        <time>2010-10-28T07:47:54Z</time>
      </trkpt>
      <trkpt lat="45.46827" lon="4.72926">
        <ele>359</ele>
        <time>2010-10-28T07:48:04Z</time>
      </trkpt>
      <trkpt lat="45.46829" lon="4.72939">
        <ele>359</ele>
        <time>2010-10-28T07:48:12Z</time>
      </trkpt>
      <trkpt lat="45.4683" lon="4.72953">
        <ele>358</ele>
        <time>2010-10-28T07:48:20Z</time>
      </trkpt>
      <trkpt lat="45.46833" lon="4.72966">
        <ele>358</ele>
        <time>2010-10-28T07:48:27Z</time>
      </trkpt>
      <trkpt lat="45.46837" lon="4.72978">
        <ele>361</ele>
        <time>2010-10-28T07:48:38Z</time>
      </trkpt>
      <trkpt lat="45.46842" lon="4.72991">
        <ele>361</ele>
        <time>2010-10-28T07:48:49Z</time>
      </trkpt>
      <trkpt lat="45.46844" lon="4.73003">
        <ele>361</ele>
        <time>2010-10-28T07:49:03Z</time>
      </trkpt>
      <trkpt lat="45.46843" lon="4.73017">
        <ele>361</ele>
        <time>2010-10-28T07:49:15Z</time>
      </trkpt>
      <trkpt lat="45.46846" lon="4.73031">
        <ele>361</ele>
        <time>2010-10-28T07:50:02Z</time>
      </trkpt>
      <trkpt lat="45.46846" lon="4.73045">
        <ele>361</ele>
        <time>2010-10-28T07:50:09Z</time>
      </trkpt>
      <trkpt lat="45.46848" lon="4.73057">
        <ele>361</ele>
        <time>2010-10-28T07:50:17Z</time>
      </trkpt>
      <trkpt lat="45.46848" lon="4.73072">
        <ele>361</ele>
        <time>2010-10-28T07:50:24Z</time>
      </trkpt>
      <trkpt lat="45.46851" lon="4.73085">
        <ele>361</ele>
        <time>2010-10-28T07:50:31Z</time>
      </trkpt>
      <trkpt lat="45.46853" lon="4.73099">
        <ele>361</ele>
        <time>2010-10-28T07:50:38Z</time>
      </trkpt>
      <trkpt lat="45.46856" lon="4.73112">
        <ele>361</ele>
        <time>2010-10-28T07:50:46Z</time>
      </trkpt>
      <trkpt lat="45.46858" lon="4.73125">
        <ele>361</ele>
        <time>2010-10-28T07:50:53Z</time>
      </trkpt>
      <trkpt lat="45.46861" lon="4.73138">
        <ele>361</ele>
        <time>2010-10-28T07:51:01Z</time>
      </trkpt>
      <trkpt lat="45.46863" lon="4.73153">
        <ele>361</ele>
        <time>2010-10-28T07:51:09Z</time>
      </trkpt>
      <trkpt lat="45.46866" lon="4.73167">
        <ele>361</ele>
        <time>2010-10-28T07:51:17Z</time>
      </trkpt>
      <trkpt lat="45.46869" lon="4.7318">
        <ele>361</ele>
        <time>2010-10-28T07:51:26Z</time>
      </trkpt>
      <trkpt lat="45.4687" lon="4.73194">
        <ele>361</ele>
        <time>2010-10-28T07:51:33Z</time>
      </trkpt>
      <trkpt lat="45.46873" lon="4.73206">
        <ele>361</ele>
        <time>2010-10-28T07:51:41Z</time>
      </trkpt>
      <trkpt lat="45.46876" lon="4.73221">
        <ele>360</ele>
        <time>2010-10-28T07:51:49Z</time>
      </trkpt>
      <trkpt lat="45.46878" lon="4.73236">
        <ele>360</ele>
        <time>2010-10-28T07:51:58Z</time>
      </trkpt>
      <trkpt lat="45.4688" lon="4.73251">
        <ele>359</ele>
        <time>2010-10-28T07:52:06Z</time>
      </trkpt>
      <trkpt lat="45.46882" lon="4.73264">
        <ele>359</ele>
        <time>2010-10-28T07:52:13Z</time>
      </trkpt>
      <trkpt lat="45.46885" lon="4.73277">
        <ele>359</ele>
        <time>2010-10-28T07:52:20Z</time>
      </trkpt>
      <trkpt lat="45.46888" lon="4.73291">
        <ele>359</ele>
        <time>2010-10-28T07:52:28Z</time>
      </trkpt>
      <trkpt lat="45.46891" lon="4.73304">
        <ele>359</ele>
        <time>2010-10-28T07:52:37Z</time>
      </trkpt>
      <trkpt lat="45.46894" lon="4.73318">
        <ele>359</ele>
        <time>2010-10-28T07:52:44Z</time>
      </trkpt>
      <trkpt lat="45.46896" lon="4.7333">
        <ele>359</ele>
        <time>2010-10-28T07:52:52Z</time>
      </trkpt>
      <trkpt lat="45.46899" lon="4.73343">
        <ele>357</ele>
        <time>2010-10-28T07:53:20Z</time>
      </trkpt>
      <trkpt lat="45.46901" lon="4.73357">
        <ele>357</ele>
        <time>2010-10-28T07:54:22Z</time>
      </trkpt>
      <trkpt lat="45.469" lon="4.7337">
        <ele>357</ele>
        <time>2010-10-28T07:54:30Z</time>
      </trkpt>
      <trkpt lat="45.46899" lon="4.73384">
        <ele>357</ele>
        <time>2010-10-28T07:54:39Z</time>
      </trkpt>
      <trkpt lat="45.46901" lon="4.73398">
        <ele>356</ele>
        <time>2010-10-28T07:54:49Z</time>
      </trkpt>
      <trkpt lat="45.46901" lon="4.73411">
        <ele>356</ele>
        <time>2010-10-28T07:55:00Z</time>
      </trkpt>
      <trkpt lat="45.469" lon="4.73425">
        <ele>354</ele>
        <time>2010-10-28T07:55:08Z</time>
      </trkpt>
      <trkpt lat="45.46898" lon="4.73439">
        <ele>354</ele>
        <time>2010-10-28T07:55:16Z</time>
      </trkpt>
      <trkpt lat="45.46898" lon="4.73454">
        <ele>353</ele>
        <time>2010-10-28T07:55:24Z</time>
      </trkpt>
      <trkpt lat="45.46897" lon="4.73467">
        <ele>353</ele>
        <time>2010-10-28T07:55:34Z</time>
      </trkpt>
      <trkpt lat="45.46895" lon="4.73481">
        <ele>352</ele>
        <time>2010-10-28T07:55:42Z</time>
      </trkpt>
      <trkpt lat="45.46894" lon="4.73495">
        <ele>352</ele>
        <time>2010-10-28T07:55:50Z</time>
      </trkpt>
      <trkpt lat="45.46892" lon="4.73508">
        <ele>349</ele>
        <time>2010-10-28T07:55:57Z</time>
      </trkpt>
      <trkpt lat="45.46892" lon="4.73523">
        <ele>348</ele>
        <time>2010-10-28T07:56:08Z</time>
      </trkpt>
      <trkpt lat="45.46891" lon="4.73536">
        <ele>348</ele>
        <time>2010-10-28T07:56:16Z</time>
      </trkpt>
      <trkpt lat="45.4689" lon="4.7355">
        <ele>347</ele>
        <time>2010-10-28T07:56:24Z</time>
      </trkpt>
      <trkpt lat="45.46889" lon="4.73563">
        <ele>347</ele>
        <time>2010-10-28T07:56:32Z</time>
      </trkpt>
      <trkpt lat="45.4689" lon="4.73578">
        <ele>346</ele>
        <time>2010-10-28T07:56:41Z</time>
      </trkpt>
      <trkpt lat="45.46889" lon="4.73593">
        <ele>344</ele>
        <time>2010-10-28T07:56:49Z</time>
      </trkpt>
      <trkpt lat="45.4689" lon="4.73606">
        <ele>344</ele>
        <time>2010-10-28T07:56:56Z</time>
      </trkpt>
      <trkpt lat="45.4689" lon="4.73621">
        <ele>344</ele>
        <time>2010-10-28T07:57:12Z</time>
      </trkpt>
      <trkpt lat="45.46891" lon="4.73635">
        <ele>344</ele>
        <time>2010-10-28T07:57:32Z</time>
      </trkpt>
      <trkpt lat="45.4689" lon="4.73649">
        <ele>344</ele>
        <time>2010-10-28T07:57:40Z</time>
      </trkpt>
      <trkpt lat="45.46887" lon="4.73663">
        <ele>344</ele>
        <time>2010-10-28T07:57:46Z</time>
      </trkpt>
      <trkpt lat="45.46886" lon="4.73676">
        <ele>343</ele>
        <time>2010-10-28T07:57:53Z</time>
      </trkpt>
      <trkpt lat="45.46887" lon="4.7369">
        <ele>343</ele>
        <time>2010-10-28T07:58:01Z</time>
      </trkpt>
      <trkpt lat="45.46885" lon="4.73703">
        <ele>343</ele>
        <time>2010-10-28T07:58:07Z</time>
      </trkpt>
      <trkpt lat="45.46886" lon="4.73717">
        <ele>343</ele>
        <time>2010-10-28T07:58:16Z</time>
      </trkpt>
      <trkpt lat="45.46883" lon="4.7373">
        <ele>342</ele>
        <time>2010-10-28T07:58:23Z</time>
      </trkpt>
      <trkpt lat="45.46879" lon="4.73744">
        <ele>342</ele>
        <time>2010-10-28T07:58:32Z</time>
      </trkpt>
      <trkpt lat="45.46876" lon="4.73757">
        <ele>341</ele>
        <time>2010-10-28T07:58:40Z</time>
      </trkpt>
      <trkpt lat="45.46871" lon="4.73769">
        <ele>341</ele>
        <time>2010-10-28T07:58:46Z</time>
      </trkpt>
      <trkpt lat="45.46869" lon="4.73783">
        <ele>341</ele>
        <time>2010-10-28T07:58:54Z</time>
      </trkpt>
      <trkpt lat="45.46866" lon="4.73797">
        <ele>341</ele>
        <time>2010-10-28T07:59:01Z</time>
      </trkpt>
      <trkpt lat="45.46864" lon="4.7381">
        <ele>341</ele>
        <time>2010-10-28T07:59:10Z</time>
      </trkpt>
      <trkpt lat="45.46863" lon="4.73824">
        <ele>341</ele>
        <time>2010-10-28T07:59:17Z</time>
      </trkpt>
      <trkpt lat="45.46861" lon="4.73837">
        <ele>340</ele>
        <time>2010-10-28T07:59:24Z</time>
      </trkpt>
      <trkpt lat="45.46862" lon="4.73851">
        <ele>340</ele>
        <time>2010-10-28T07:59:33Z</time>
      </trkpt>
      <trkpt lat="45.46864" lon="4.73866">
        <ele>340</ele>
        <time>2010-10-28T07:59:45Z</time>
      </trkpt>
      <trkpt lat="45.46865" lon="4.73881">
        <ele>340</ele>
        <time>2010-10-28T07:59:52Z</time>
      </trkpt>
      <trkpt lat="45.46866" lon="4.73895">
        <ele>340</ele>
        <time>2010-10-28T08:00:00Z</time>
      </trkpt>
      <trkpt lat="45.46866" lon="4.73908">
        <ele>340</ele>
        <time>2010-10-28T08:00:07Z</time>
      </trkpt>
      <trkpt lat="45.46866" lon="4.73922">
        <ele>340</ele>
        <time>2010-10-28T08:00:14Z</time>
      </trkpt>
      <trkpt lat="45.46865" lon="4.73937">
        <ele>339</ele>
        <time>2010-10-28T08:00:22Z</time>
      </trkpt>
      <trkpt lat="45.46865" lon="4.7395">
        <ele>339</ele>
        <time>2010-10-28T08:00:30Z</time>
      </trkpt>
      <trkpt lat="45.46862" lon="4.73963">
        <ele>339</ele>
        <time>2010-10-28T08:00:37Z</time>
      </trkpt>
      <trkpt lat="45.4686" lon="4.73976">
        <ele>339</ele>
        <time>2010-10-28T08:00:44Z</time>
      </trkpt>
      <trkpt lat="45.46858" lon="4.73989">
        <ele>339</ele>
        <time>2010-10-28T08:00:51Z</time>
      </trkpt>
      <trkpt lat="45.46856" lon="4.74003">
        <ele>338</ele>
        <time>2010-10-28T08:00:59Z</time>
      </trkpt>
      <trkpt lat="45.46854" lon="4.74017">
        <ele>338</ele>
        <time>2010-10-28T08:01:06Z</time>
      </trkpt>
      <trkpt lat="45.46854" lon="4.74031">
        <ele>337</ele>
        <time>2010-10-28T08:01:15Z</time>
      </trkpt>
      <trkpt lat="45.46854" lon="4.74046">
        <ele>337</ele>
        <time>2010-10-28T08:01:23Z</time>
      </trkpt>
      <trkpt lat="45.46854" lon="4.74059">
        <ele>337</ele>
        <time>2010-10-28T08:01:30Z</time>
      </trkpt>
      <trkpt lat="45.46853" lon="4.74072">
        <ele>337</ele>
        <time>2010-10-28T08:01:37Z</time>
      </trkpt>
      <trkpt lat="45.46852" lon="4.74088">
        <ele>336</ele>
        <time>2010-10-28T08:01:45Z</time>
      </trkpt>
      <trkpt lat="45.4685" lon="4.74102">
        <ele>336</ele>
        <time>2010-10-28T08:01:52Z</time>
      </trkpt>
      <trkpt lat="45.46848" lon="4.74116">
        <ele>336</ele>
        <time>2010-10-28T08:02:01Z</time>
      </trkpt>
      <trkpt lat="45.46845" lon="4.74128">
        <ele>335</ele>
        <time>2010-10-28T08:02:09Z</time>
      </trkpt>
      <trkpt lat="45.46842" lon="4.74142">
        <ele>335</ele>
        <time>2010-10-28T08:02:17Z</time>
      </trkpt>
      <trkpt lat="45.46839" lon="4.74156">
        <ele>335</ele>
        <time>2010-10-28T08:02:25Z</time>
      </trkpt>
      <trkpt lat="45.46835" lon="4.74169">
        <ele>334</ele>
        <time>2010-10-28T08:02:34Z</time>
      </trkpt>
      <trkpt lat="45.46832" lon="4.74183">
        <ele>331</ele>
        <time>2010-10-28T08:02:41Z</time>
      </trkpt>
      <trkpt lat="45.4683" lon="4.74196">
        <ele>330</ele>
        <time>2010-10-28T08:02:48Z</time>
      </trkpt>
      <trkpt lat="45.46827" lon="4.74209">
        <ele>330</ele>
        <time>2010-10-28T08:02:55Z</time>
      </trkpt>
      <trkpt lat="45.46822" lon="4.74222">
        <ele>329</ele>
        <time>2010-10-28T08:03:04Z</time>
      </trkpt>
      <trkpt lat="45.46818" lon="4.74236">
        <ele>329</ele>
        <time>2010-10-28T08:03:11Z</time>
      </trkpt>
      <trkpt lat="45.46815" lon="4.74249">
        <ele>329</ele>
        <time>2010-10-28T08:03:21Z</time>
      </trkpt>
      <trkpt lat="45.46813" lon="4.74263">
        <ele>327</ele>
        <time>2010-10-28T08:03:29Z</time>
      </trkpt>
      <trkpt lat="45.4681" lon="4.74275">
        <ele>327</ele>
        <time>2010-10-28T08:03:36Z</time>
      </trkpt>
      <trkpt lat="45.46806" lon="4.74287">
        <ele>326</ele>
        <time>2010-10-28T08:03:43Z</time>
      </trkpt>
      <trkpt lat="45.46801" lon="4.743">
        <ele>326</ele>
        <time>2010-10-28T08:03:50Z</time>
      </trkpt>
      <trkpt lat="45.46798" lon="4.74312">
        <ele>326</ele>
        <time>2010-10-28T08:03:57Z</time>
      </trkpt>
      <trkpt lat="45.46794" lon="4.74325">
        <ele>326</ele>
        <time>2010-10-28T08:04:05Z</time>
      </trkpt>
      <trkpt lat="45.46791" lon="4.74338">
        <ele>324</ele>
        <time>2010-10-28T08:04:12Z</time>
      </trkpt>
      <trkpt lat="45.46787" lon="4.74351">
        <ele>324</ele>
        <time>2010-10-28T08:04:19Z</time>
      </trkpt>
      <trkpt lat="45.46784" lon="4.74364">
        <ele>324</ele>
        <time>2010-10-28T08:04:27Z</time>
      </trkpt>
      <trkpt lat="45.4678" lon="4.74379">
        <ele>324</ele>
        <time>2010-10-28T08:04:33Z</time>
      </trkpt>
      <trkpt lat="45.46777" lon="4.74391">
        <ele>323</ele>
        <time>2010-10-28T08:04:41Z</time>
      </trkpt>
      <trkpt lat="45.46774" lon="4.74404">
        <ele>323</ele>
        <time>2010-10-28T08:04:49Z</time>
      </trkpt>
      <trkpt lat="45.46771" lon="4.74417">
        <ele>323</ele>
        <time>2010-10-28T08:04:55Z</time>
      </trkpt>
      <trkpt lat="45.46769" lon="4.7443">
        <ele>322</ele>
        <time>2010-10-28T08:05:02Z</time>
      </trkpt>
      <trkpt lat="45.46765" lon="4.74443">
        <ele>322</ele>
        <time>2010-10-28T08:05:09Z</time>
      </trkpt>
      <trkpt lat="45.46762" lon="4.74456">
        <ele>322</ele>
        <time>2010-10-28T08:05:17Z</time>
      </trkpt>
      <trkpt lat="45.46758" lon="4.74468">
        <ele>322</ele>
        <time>2010-10-28T08:05:26Z</time>
      </trkpt>
      <trkpt lat="45.46755" lon="4.74481">
        <ele>322</ele>
        <time>2010-10-28T08:05:33Z</time>
      </trkpt>
      <trkpt lat="45.46753" lon="4.74494">
        <ele>321</ele>
        <time>2010-10-28T08:05:40Z</time>
      </trkpt>
      <trkpt lat="45.46751" lon="4.74508">
        <ele>321</ele>
        <time>2010-10-28T08:05:47Z</time>
      </trkpt>
      <trkpt lat="45.4675" lon="4.74523">
        <ele>319</ele>
        <time>2010-10-28T08:05:55Z</time>
      </trkpt>
      <trkpt lat="45.4675" lon="4.74536">
        <ele>322</ele>
        <time>2010-10-28T08:06:02Z</time>
      </trkpt>
      <trkpt lat="45.4675" lon="4.74549">
        <ele>322</ele>
        <time>2010-10-28T08:06:09Z</time>
      </trkpt>
      <trkpt lat="45.46754" lon="4.74563">
        <ele>322</ele>
        <time>2010-10-28T08:06:17Z</time>
      </trkpt>
      <trkpt lat="45.46755" lon="4.74577">
        <ele>322</ele>
        <time>2010-10-28T08:06:24Z</time>
      </trkpt>
      <trkpt lat="45.46758" lon="4.74591">
        <ele>322</ele>
        <time>2010-10-28T08:06:32Z</time>
      </trkpt>
      <trkpt lat="45.4676" lon="4.74604">
        <ele>322</ele>
        <time>2010-10-28T08:06:40Z</time>
      </trkpt>
      <trkpt lat="45.46762" lon="4.74619">
        <ele>322</ele>
        <time>2010-10-28T08:06:47Z</time>
      </trkpt>
      <trkpt lat="45.46765" lon="4.74631">
        <ele>322</ele>
        <time>2010-10-28T08:06:54Z</time>
      </trkpt>
      <trkpt lat="45.46764" lon="4.74645">
        <ele>322</ele>
        <time>2010-10-28T08:07:03Z</time>
      </trkpt>
      <trkpt lat="45.46763" lon="4.74659">
        <ele>322</ele>
        <time>2010-10-28T08:07:12Z</time>
      </trkpt>
      <trkpt lat="45.46763" lon="4.74674">
        <ele>322</ele>
        <time>2010-10-28T08:07:22Z</time>
      </trkpt>
      <trkpt lat="45.4676" lon="4.74687">
        <ele>322</ele>
        <time>2010-10-28T08:07:30Z</time>
      </trkpt>
      <trkpt lat="45.46757" lon="4.74699">
        <ele>323</ele>
        <time>2010-10-28T08:07:37Z</time>
      </trkpt>
      <trkpt lat="45.46749" lon="4.74707">
        <ele>320</ele>
        <time>2010-10-28T08:07:48Z</time>
      </trkpt>
      <trkpt lat="45.4674" lon="4.7471">
        <ele>320</ele>
        <time>2010-10-28T08:08:33Z</time>
      </trkpt>
      <trkpt lat="45.46731" lon="4.7471">
        <ele>320</ele>
        <time>2010-10-28T08:08:41Z</time>
      </trkpt>
      <trkpt lat="45.4672" lon="4.74711">
        <ele>320</ele>
        <time>2010-10-28T08:08:50Z</time>
      </trkpt>
      <trkpt lat="45.4671" lon="4.7471">
        <ele>319</ele>
        <time>2010-10-28T08:08:58Z</time>
      </trkpt>
      <trkpt lat="45.467" lon="4.74713">
        <ele>319</ele>
        <time>2010-10-28T08:09:08Z</time>
      </trkpt>
      <trkpt lat="45.4669" lon="4.74715">
        <ele>318</ele>
        <time>2010-10-28T08:09:16Z</time>
      </trkpt>
      <trkpt lat="45.46681" lon="4.7472">
        <ele>318</ele>
        <time>2010-10-28T08:09:24Z</time>
      </trkpt>
      <trkpt lat="45.46672" lon="4.74724">
        <ele>318</ele>
        <time>2010-10-28T08:09:33Z</time>
      </trkpt>
      <trkpt lat="45.46663" lon="4.74724">
        <ele>313</ele>
        <time>2010-10-28T08:09:42Z</time>
      </trkpt>
      <trkpt lat="45.46655" lon="4.74717">
        <ele>312</ele>
        <time>2010-10-28T08:09:51Z</time>
      </trkpt>
      <trkpt lat="45.46645" lon="4.74715">
        <ele>312</ele>
        <time>2010-10-28T08:10:00Z</time>
      </trkpt>
      <trkpt lat="45.46636" lon="4.74716">
        <ele>311</ele>
        <time>2010-10-28T08:10:10Z</time>
      </trkpt>
      <trkpt lat="45.46627" lon="4.74719">
        <ele>311</ele>
        <time>2010-10-28T08:10:18Z</time>
      </trkpt>
      <trkpt lat="45.46618" lon="4.74725">
        <ele>311</ele>
        <time>2010-10-28T08:10:28Z</time>
      </trkpt>
      <trkpt lat="45.46609" lon="4.7473">
        <ele>310</ele>
        <time>2010-10-28T08:10:38Z</time>
      </trkpt>
      <trkpt lat="45.466" lon="4.74732">
        <ele>310</ele>
        <time>2010-10-28T08:10:46Z</time>
      </trkpt>
      <trkpt lat="45.46591" lon="4.74735">
        <ele>310</ele>
        <time>2010-10-28T08:10:55Z</time>
      </trkpt>
      <trkpt lat="45.46581" lon="4.74739">
        <ele>307</ele>
        <time>2010-10-28T08:11:05Z</time>
      </trkpt>
      <trkpt lat="45.46572" lon="4.74744">
        <ele>306</ele>
        <time>2010-10-28T08:11:13Z</time>
      </trkpt>
      <trkpt lat="45.46563" lon="4.74749">
        <ele>305</ele>
        <time>2010-10-28T08:11:22Z</time>
      </trkpt>
      <trkpt lat="45.46554" lon="4.7475">
        <ele>304</ele>
        <time>2010-10-28T08:11:30Z</time>
      </trkpt>
      <trkpt lat="45.46545" lon="4.74754">
        <ele>306</ele>
        <time>2010-10-28T08:11:39Z</time>
      </trkpt>
      <trkpt lat="45.46535" lon="4.74758">
        <ele>305</ele>
        <time>2010-10-28T08:11:48Z</time>
      </trkpt>
      <trkpt lat="45.46526" lon="4.74754">
        <ele>304</ele>
        <time>2010-10-28T08:12:04Z</time>
      </trkpt>
      <trkpt lat="45.46529" lon="4.74742">
        <ele>302</ele>
        <time>2010-10-28T08:12:19Z</time>
      </trkpt>
      <trkpt lat="45.46532" lon="4.74728">
        <ele>302</ele>
        <time>2010-10-28T08:12:29Z</time>
      </trkpt>
      <trkpt lat="45.46539" lon="4.74718">
        <ele>302</ele>
        <time>2010-10-28T08:12:36Z</time>
      </trkpt>
      <trkpt lat="45.46543" lon="4.74705">
        <ele>302</ele>
        <time>2010-10-28T08:12:46Z</time>
      </trkpt>
      <trkpt lat="45.46547" lon="4.74691">
        <ele>302</ele>
        <time>2010-10-28T08:12:54Z</time>
      </trkpt>
      <trkpt lat="45.46547" lon="4.74678">
        <ele>302</ele>
        <time>2010-10-28T08:13:05Z</time>
      </trkpt>
      <trkpt lat="45.46543" lon="4.74664">
        <ele>301</ele>
        <time>2010-10-28T08:13:15Z</time>
      </trkpt>
      <trkpt lat="45.46543" lon="4.7465">
        <ele>301</ele>
        <time>2010-10-28T08:13:25Z</time>
      </trkpt>
      <trkpt lat="45.46541" lon="4.74635">
        <ele>302</ele>
        <time>2010-10-28T08:13:35Z</time>
      </trkpt>
      <trkpt lat="45.46534" lon="4.74625">
        <ele>302</ele>
        <time>2010-10-28T08:13:43Z</time>
      </trkpt>
      <trkpt lat="45.46525" lon="4.74622">
        <ele>302</ele>
        <time>2010-10-28T08:13:59Z</time>
      </trkpt>
      <trkpt lat="45.46514" lon="4.7462">
        <ele>302</ele>
        <time>2010-10-28T08:14:10Z</time>
      </trkpt>
      <trkpt lat="45.46504" lon="4.7462">
        <ele>302</ele>
        <time>2010-10-28T08:14:19Z</time>
      </trkpt>
      <trkpt lat="45.46495" lon="4.74625">
        <ele>303</ele>
        <time>2010-10-28T08:14:30Z</time>
      </trkpt>
      <trkpt lat="45.46487" lon="4.74631">
        <ele>303</ele>
        <time>2010-10-28T08:14:44Z</time>
      </trkpt>
      <trkpt lat="45.46482" lon="4.74643">
        <ele>303</ele>
        <time>2010-10-28T08:14:52Z</time>
      </trkpt>
      <trkpt lat="45.46475" lon="4.74652">
        <ele>303</ele>
        <time>2010-10-28T08:15:04Z</time>
      </trkpt>
      <trkpt lat="45.46472" lon="4.74664">
        <ele>302</ele>
        <time>2010-10-28T08:15:17Z</time>
      </trkpt>
      <trkpt lat="45.46464" lon="4.74673">
        <ele>301</ele>
        <time>2010-10-28T08:15:30Z</time>
      </trkpt>
      <trkpt lat="45.46458" lon="4.74682">
        <ele>301</ele>
        <time>2010-10-28T08:15:42Z</time>
      </trkpt>
      <trkpt lat="45.46449" lon="4.74691">
        <ele>301</ele>
        <time>2010-10-28T08:15:50Z</time>
      </trkpt>
      <trkpt lat="45.4644" lon="4.74697">
        <ele>301</ele>
        <time>2010-10-28T08:16:00Z</time>
      </trkpt>
      <trkpt lat="45.46432" lon="4.74701">
        <ele>301</ele>
        <time>2010-10-28T08:16:09Z</time>
      </trkpt>
      <trkpt lat="45.46422" lon="4.74706">
        <ele>301</ele>
        <time>2010-10-28T08:16:18Z</time>
      </trkpt>
      <trkpt lat="45.46413" lon="4.74712">
        <ele>304</ele>
        <time>2010-10-28T08:16:27Z</time>
      </trkpt>
      <trkpt lat="45.46404" lon="4.74717">
        <ele>304</ele>
        <time>2010-10-28T08:16:36Z</time>
      </trkpt>
      <trkpt lat="45.46396" lon="4.74723">
        <ele>304</ele>
        <time>2010-10-28T08:16:44Z</time>
      </trkpt>
      <trkpt lat="45.46387" lon="4.74731">
        <ele>304</ele>
        <time>2010-10-28T08:16:54Z</time>
      </trkpt>
      <trkpt lat="45.46378" lon="4.74737">
        <ele>305</ele>
        <time>2010-10-28T08:17:05Z</time>
      </trkpt>
      <trkpt lat="45.46368" lon="4.74744">
        <ele>305</ele>
        <time>2010-10-28T08:17:15Z</time>
      </trkpt>
      <trkpt lat="45.4636" lon="4.74747">
        <ele>306</ele>
        <time>2010-10-28T08:17:23Z</time>
      </trkpt>
      <trkpt lat="45.46351" lon="4.74754">
        <ele>304</ele>
        <time>2010-10-28T08:17:32Z</time>
      </trkpt>
      <trkpt lat="45.46344" lon="4.74762">
        <ele>304</ele>
        <time>2010-10-28T08:17:39Z</time>
      </trkpt>
      <trkpt lat="45.46335" lon="4.74769">
        <ele>304</ele>
        <time>2010-10-28T08:17:49Z</time>
      </trkpt>
      <trkpt lat="45.46326" lon="4.74778">
        <ele>304</ele>
        <time>2010-10-28T08:17:58Z</time>
      </trkpt>
      <trkpt lat="45.46318" lon="4.74787">
        <ele>304</ele>
        <time>2010-10-28T08:18:06Z</time>
      </trkpt>
      <trkpt lat="45.46312" lon="4.74797">
        <ele>303</ele>
        <time>2010-10-28T08:18:12Z</time>
      </trkpt>
      <trkpt lat="45.46303" lon="4.74804">
        <ele>303</ele>
        <time>2010-10-28T08:18:21Z</time>
      </trkpt>
      <trkpt lat="45.46296" lon="4.74814">
        <ele>303</ele>
        <time>2010-10-28T08:18:31Z</time>
      </trkpt>
      <trkpt lat="45.46288" lon="4.74823">
        <ele>303</ele>
        <time>2010-10-28T08:18:39Z</time>
      </trkpt>
      <trkpt lat="45.46282" lon="4.74834">
        <ele>298</ele>
        <time>2010-10-28T08:18:46Z</time>
      </trkpt>
      <trkpt lat="45.46276" lon="4.74846">
        <ele>298</ele>
        <time>2010-10-28T08:18:54Z</time>
      </trkpt>
      <trkpt lat="45.4627" lon="4.74858">
        <ele>298</ele>
        <time>2010-10-28T08:19:02Z</time>
      </trkpt>
      <trkpt lat="45.46263" lon="4.74868">
        <ele>298</ele>
        <time>2010-10-28T08:19:12Z</time>
      </trkpt>
      <trkpt lat="45.46254" lon="4.74874">
        <ele>298</ele>
        <time>2010-10-28T08:19:20Z</time>
      </trkpt>
      <trkpt lat="45.46244" lon="4.74875">
        <ele>298</ele>
        <time>2010-10-28T08:19:32Z</time>
      </trkpt>
      <trkpt lat="45.46239" lon="4.74885">
        <ele>297</ele>
        <time>2010-10-28T08:19:54Z</time>
      </trkpt>
      <trkpt lat="45.46234" lon="4.74898">
        <ele>297</ele>
        <time>2010-10-28T08:20:03Z</time>
      </trkpt>
      <trkpt lat="45.46231" lon="4.74911">
        <ele>297</ele>
        <time>2010-10-28T08:20:11Z</time>
      </trkpt>
      <trkpt lat="45.46228" lon="4.74923">
        <ele>294</ele>
        <time>2010-10-28T08:20:19Z</time>
      </trkpt>
      <trkpt lat="45.46224" lon="4.74937">
        <ele>294</ele>
        <time>2010-10-28T08:20:29Z</time>
      </trkpt>
      <trkpt lat="45.46219" lon="4.74949">
        <ele>293</ele>
        <time>2010-10-28T08:20:37Z</time>
      </trkpt>
      <trkpt lat="45.46214" lon="4.74961">
        <ele>292</ele>
        <time>2010-10-28T08:20:45Z</time>
      </trkpt>
      <trkpt lat="45.46209" lon="4.74973">
        <ele>292</ele>
        <time>2010-10-28T08:20:54Z</time>
      </trkpt>
      <trkpt lat="45.46203" lon="4.74984">
        <ele>292</ele>
        <time>2010-10-28T08:21:02Z</time>
      </trkpt>
      <trkpt lat="45.46199" lon="4.74996">
        <ele>292</ele>
        <time>2010-10-28T08:21:11Z</time>
      </trkpt>
      <trkpt lat="45.46192" lon="4.75005">
        <ele>286</ele>
        <time>2010-10-28T08:21:20Z</time>
      </trkpt>
      <trkpt lat="45.46184" lon="4.75015">
        <ele>287</ele>
        <time>2010-10-28T08:21:28Z</time>
      </trkpt>
      <trkpt lat="45.46176" lon="4.75023">
        <ele>286</ele>
        <time>2010-10-28T08:21:37Z</time>
      </trkpt>
      <trkpt lat="45.46168" lon="4.7503">
        <ele>285</ele>
        <time>2010-10-28T08:21:45Z</time>
      </trkpt>
      <trkpt lat="45.4616" lon="4.75038">
        <ele>280</ele>
        <time>2010-10-28T08:21:54Z</time>
      </trkpt>
      <trkpt lat="45.46152" lon="4.75047">
        <ele>279</ele>
        <time>2010-10-28T08:22:03Z</time>
      </trkpt>
      <trkpt lat="45.46145" lon="4.75057">
        <ele>278</ele>
        <time>2010-10-28T08:22:12Z</time>
      </trkpt>
      <trkpt lat="45.46136" lon="4.75065">
        <ele>277</ele>
        <time>2010-10-28T08:22:22Z</time>
      </trkpt>
      <trkpt lat="45.46127" lon="4.75071">
        <ele>275</ele>
        <time>2010-10-28T08:22:32Z</time>
      </trkpt>
      <trkpt lat="45.46117" lon="4.75071">
        <ele>274</ele>
        <time>2010-10-28T08:22:39Z</time>
      </trkpt>
      <trkpt lat="45.46124" lon="4.75083">
        <ele>274</ele>
        <time>2010-10-28T08:25:13Z</time>
      </trkpt>
      <trkpt lat="45.46124" lon="4.75097">
        <ele>267</ele>
        <time>2010-10-28T08:25:27Z</time>
      </trkpt>
      <trkpt lat="45.46131" lon="4.75106">
        <ele>267</ele>
        <time>2010-10-28T08:25:36Z</time>
      </trkpt>
      <trkpt lat="45.46135" lon="4.75119">
        <ele>267</ele>
        <time>2010-10-28T08:25:45Z</time>
      </trkpt>
      <trkpt lat="45.46131" lon="4.75131">
        <ele>265</ele>
        <time>2010-10-28T08:25:54Z</time>
      </trkpt>
      <trkpt lat="45.46134" lon="4.75144">
        <ele>265</ele>
        <time>2010-10-28T08:26:03Z</time>
      </trkpt>
      <trkpt lat="45.46136" lon="4.75159">
        <ele>265</ele>
        <time>2010-10-28T08:26:13Z</time>
      </trkpt>
      <trkpt lat="45.46137" lon="4.75173">
        <ele>259</ele>
        <time>2010-10-28T08:26:21Z</time>
      </trkpt>
      <trkpt lat="45.46135" lon="4.75186">
        <ele>257</ele>
        <time>2010-10-28T08:26:31Z</time>
      </trkpt>
      <trkpt lat="45.46133" lon="4.75201">
        <ele>256</ele>
        <time>2010-10-28T08:26:42Z</time>
      </trkpt>
      <trkpt lat="45.46133" lon="4.75216">
        <ele>256</ele>
        <time>2010-10-28T08:26:51Z</time>
      </trkpt>
      <trkpt lat="45.46131" lon="4.75229">
        <ele>255</ele>
        <time>2010-10-28T08:27:00Z</time>
      </trkpt>
      <trkpt lat="45.46124" lon="4.75238">
        <ele>254</ele>
        <time>2010-10-28T08:27:10Z</time>
      </trkpt>
      <trkpt lat="45.46121" lon="4.75252">
        <ele>249</ele>
        <time>2010-10-28T08:27:19Z</time>
      </trkpt>
      <trkpt lat="45.46116" lon="4.75265">
        <ele>248</ele>
        <time>2010-10-28T08:27:31Z</time>
      </trkpt>
      <trkpt lat="45.46112" lon="4.75278">
        <ele>248</ele>
        <time>2010-10-28T08:27:44Z</time>
      </trkpt>
      <trkpt lat="45.46102" lon="4.75282">
        <ele>248</ele>
        <time>2010-10-28T08:28:04Z</time>
      </trkpt>
      <trkpt lat="45.46112" lon="4.75279">
        <ele>248</ele>
        <time>2010-10-28T08:42:23Z</time>
      </trkpt>
      <trkpt lat="45.46108" lon="4.75294">
        <ele>248</ele>
        <time>2010-10-28T08:43:25Z</time>
      </trkpt>
      <trkpt lat="45.46105" lon="4.75307">
        <ele>247</ele>
        <time>2010-10-28T08:43:39Z</time>
      </trkpt>
      <trkpt lat="45.46104" lon="4.75321">
        <ele>247</ele>
        <time>2010-10-28T08:43:53Z</time>
      </trkpt>
      <trkpt lat="45.46099" lon="4.75333">
        <ele>247</ele>
        <time>2010-10-28T08:44:02Z</time>
      </trkpt>
      <trkpt lat="45.46093" lon="4.75344">
        <ele>244</ele>
        <time>2010-10-28T08:44:12Z</time>
      </trkpt>
      <trkpt lat="45.46088" lon="4.75356">
        <ele>243</ele>
        <time>2010-10-28T08:44:27Z</time>
      </trkpt>
      <trkpt lat="45.4608" lon="4.75364">
        <ele>236</ele>
        <time>2010-10-28T08:44:38Z</time>
      </trkpt>
      <trkpt lat="45.46079" lon="4.75378">
        <ele>234</ele>
        <time>2010-10-28T08:44:52Z</time>
      </trkpt>
      <trkpt lat="45.46071" lon="4.75385">
        <ele>233</ele>
        <time>2010-10-28T08:45:06Z</time>
      </trkpt>
      <trkpt lat="45.46066" lon="4.75397">
        <ele>233</ele>
        <time>2010-10-28T08:45:23Z</time>
      </trkpt>
      <trkpt lat="45.46059" lon="4.75406">
        <ele>232</ele>
        <time>2010-10-28T08:45:32Z</time>
      </trkpt>
      <trkpt lat="45.46055" lon="4.75419">
        <ele>229</ele>
        <time>2010-10-28T08:45:41Z</time>
      </trkpt>
      <trkpt lat="45.46052" lon="4.75433">
        <ele>228</ele>
        <time>2010-10-28T08:45:53Z</time>
      </trkpt>
      <trkpt lat="45.46048" lon="4.75446">
        <ele>228</ele>
        <time>2010-10-28T08:46:03Z</time>
      </trkpt>
      <trkpt lat="45.46044" lon="4.75459">
        <ele>227</ele>
        <time>2010-10-28T08:46:12Z</time>
      </trkpt>
      <trkpt lat="45.4604" lon="4.75472">
        <ele>227</ele>
        <time>2010-10-28T08:46:21Z</time>
      </trkpt>
      <trkpt lat="45.46037" lon="4.75485">
        <ele>226</ele>
        <time>2010-10-28T08:46:32Z</time>
      </trkpt>
      <trkpt lat="45.46035" lon="4.75498">
        <ele>226</ele>
        <time>2010-10-28T08:46:41Z</time>
      </trkpt>
      <trkpt lat="45.46034" lon="4.75512">
        <ele>225</ele>
        <time>2010-10-28T08:46:56Z</time>
      </trkpt>
      <trkpt lat="45.46033" lon="4.75526">
        <ele>224</ele>
        <time>2010-10-28T08:47:06Z</time>
      </trkpt>
      <trkpt lat="45.46031" lon="4.75539">
        <ele>224</ele>
        <time>2010-10-28T08:47:15Z</time>
      </trkpt>
      <trkpt lat="45.46025" lon="4.75549">
        <ele>225</ele>
        <time>2010-10-28T08:48:10Z</time>
      </trkpt>
      <trkpt lat="45.46034" lon="4.75551">
        <ele>224</ele>
        <time>2010-10-28T08:49:09Z</time>
      </trkpt>
      <trkpt lat="45.46028" lon="4.75562">
        <ele>225</ele>
        <time>2010-10-28T08:49:28Z</time>
      </trkpt>
      <trkpt lat="45.46029" lon="4.75575">
        <ele>225</ele>
        <time>2010-10-28T08:49:39Z</time>
      </trkpt>
      <trkpt lat="45.46028" lon="4.75589">
        <ele>221</ele>
        <time>2010-10-28T08:49:51Z</time>
      </trkpt>
      <trkpt lat="45.46031" lon="4.75602">
        <ele>219</ele>
        <time>2010-10-28T08:50:12Z</time>
      </trkpt>
      <trkpt lat="45.46028" lon="4.75616">
        <ele>218</ele>
        <time>2010-10-28T08:50:25Z</time>
      </trkpt>
      <trkpt lat="45.46027" lon="4.7563">
        <ele>217</ele>
        <time>2010-10-28T08:50:36Z</time>
      </trkpt>
      <trkpt lat="45.46026" lon="4.75644">
        <ele>216</ele>
        <time>2010-10-28T08:50:48Z</time>
      </trkpt>
      <trkpt lat="45.46027" lon="4.75658">
        <ele>216</ele>
        <time>2010-10-28T08:51:10Z</time>
      </trkpt>
      <trkpt lat="45.46025" lon="4.75672">
        <ele>208</ele>
        <time>2010-10-28T08:51:23Z</time>
      </trkpt>
      <trkpt lat="45.46028" lon="4.75685">
        <ele>206</ele>
        <time>2010-10-28T08:51:29Z</time>
      </trkpt>
      <trkpt lat="45.4603" lon="4.75699">
        <ele>205</ele>
        <time>2010-10-28T08:51:39Z</time>
      </trkpt>
      <trkpt lat="45.46036" lon="4.75709">
        <ele>203</ele>
        <time>2010-10-28T08:51:46Z</time>
      </trkpt>
      <trkpt lat="45.46038" lon="4.75724">
        <ele>202</ele>
        <time>2010-10-28T08:51:58Z</time>
      </trkpt>
      <trkpt lat="45.46042" lon="4.75741">
        <ele>201</ele>
        <time>2010-10-28T08:52:09Z</time>
      </trkpt>
      <trkpt lat="45.46051" lon="4.75748">
        <ele>199</ele>
        <time>2010-10-28T08:52:16Z</time>
      </trkpt>
      <trkpt lat="45.4606" lon="4.75752">
        <ele>189</ele>
        <time>2010-10-28T08:52:26Z</time>
      </trkpt>
      <trkpt lat="45.46055" lon="4.75765">
        <ele>188</ele>
        <time>2010-10-28T08:52:35Z</time>
      </trkpt>
      <trkpt lat="45.46064" lon="4.75761">
        <ele>189</ele>
        <time>2010-10-28T08:53:15Z</time>
      </trkpt>
      <trkpt lat="45.46067" lon="4.75749">
        <ele>196</ele>
        <time>2010-10-28T08:53:25Z</time>
      </trkpt>
      <trkpt lat="45.46065" lon="4.75735">
        <ele>198</ele>
        <time>2010-10-28T08:53:37Z</time>
      </trkpt>
      <trkpt lat="45.46061" lon="4.75722">
        <ele>200</ele>
        <time>2010-10-28T08:53:45Z</time>
      </trkpt>
      <trkpt lat="45.4606" lon="4.75706">
        <ele>202</ele>
        <time>2010-10-28T08:54:00Z</time>
      </trkpt>
      <trkpt lat="45.46057" lon="4.75692">
        <ele>203</ele>
        <time>2010-10-28T08:54:08Z</time>
      </trkpt>
      <trkpt lat="45.46062" lon="4.7568">
        <ele>203</ele>
        <time>2010-10-28T08:54:16Z</time>
      </trkpt>
      <trkpt lat="45.46064" lon="4.75667">
        <ele>204</ele>
        <time>2010-10-28T08:54:22Z</time>
      </trkpt>
      <trkpt lat="45.46056" lon="4.75674">
        <ele>204</ele>
        <time>2010-10-28T08:54:43Z</time>
      </trkpt>
      <trkpt lat="45.46054" lon="4.75688">
        <ele>204</ele>
        <time>2010-10-28T08:54:56Z</time>
      </trkpt>
      <trkpt lat="45.46059" lon="4.75699">
        <ele>202</ele>
        <time>2010-10-28T08:55:12Z</time>
      </trkpt>
      <trkpt lat="45.4606" lon="4.75713">
        <ele>201</ele>
        <time>2010-10-28T08:55:21Z</time>
      </trkpt>
      <trkpt lat="45.46064" lon="4.75725">
        <ele>199</ele>
        <time>2010-10-28T08:55:31Z</time>
      </trkpt>
      <trkpt lat="45.4607" lon="4.75735">
        <ele>197</ele>
        <time>2010-10-28T08:55:40Z</time>
      </trkpt>
      <trkpt lat="45.4608" lon="4.75743">
        <ele>193</ele>
        <time>2010-10-28T08:55:47Z</time>
      </trkpt>
      <trkpt lat="45.46088" lon="4.7575">
        <ele>192</ele>
        <time>2010-10-28T08:55:59Z</time>
      </trkpt>
      <trkpt lat="45.46094" lon="4.7576">
        <ele>191</ele>
        <time>2010-10-28T08:56:12Z</time>
      </trkpt>
      <trkpt lat="45.46091" lon="4.75774">
        <ele>191</ele>
        <time>2010-10-28T08:56:22Z</time>
      </trkpt>
      <trkpt lat="45.46085" lon="4.75785">
        <ele>190</ele>
        <time>2010-10-28T08:56:33Z</time>
      </trkpt>
      <trkpt lat="45.46085" lon="4.75798">
        <ele>188</ele>
        <time>2010-10-28T08:56:46Z</time>
      </trkpt>
      <trkpt lat="45.46087" lon="4.75811">
        <ele>186</ele>
        <time>2010-10-28T08:56:53Z</time>
      </trkpt>
      <trkpt lat="45.4608" lon="4.75821">
        <ele>181</ele>
        <time>2010-10-28T08:57:02Z</time>
      </trkpt>
      <trkpt lat="45.46083" lon="4.75835">
        <ele>176</ele>
        <time>2010-10-28T08:57:13Z</time>
      </trkpt>
      <trkpt lat="45.46092" lon="4.7583">
        <ele>182</ele>
        <time>2010-10-28T08:57:32Z</time>
      </trkpt>
      <trkpt lat="45.46083" lon="4.75842">
        <ele>174</ele>
        <time>2010-10-28T08:58:26Z</time>
      </trkpt>
      <trkpt lat="45.46084" lon="4.75857">
        <ele>179</ele>
        <time>2010-10-28T08:58:33Z</time>
      </trkpt>
      <trkpt lat="45.46087" lon="4.75872">
        <ele>179</ele>
        <time>2010-10-28T08:58:43Z</time>
      </trkpt>
      <trkpt lat="45.46083" lon="4.75883">
        <ele>168</ele>
        <time>2010-10-28T08:58:51Z</time>
      </trkpt>
      <trkpt lat="45.46082" lon="4.75898">
        <ele>166</ele>
        <time>2010-10-28T08:58:59Z</time>
      </trkpt>
      <trkpt lat="45.46073" lon="4.75897">
        <ele>166</ele>
        <time>2010-10-28T08:59:16Z</time>
      </trkpt>
      <trkpt lat="45.46065" lon="4.75905">
        <ele>166</ele>
        <time>2010-10-28T08:59:24Z</time>
      </trkpt>
      <trkpt lat="45.46056" lon="4.759">
        <ele>166</ele>
        <time>2010-10-28T08:59:32Z</time>
      </trkpt>
      <trkpt lat="45.46047" lon="4.75903">
        <ele>166</ele>
        <time>2010-10-28T08:59:40Z</time>
      </trkpt>
      <trkpt lat="45.46037" lon="4.75906">
        <ele>165</ele>
        <time>2010-10-28T08:59:49Z</time>
      </trkpt>
      <trkpt lat="45.46027" lon="4.75912">
        <ele>164</ele>
        <time>2010-10-28T08:59:59Z</time>
      </trkpt>
      <trkpt lat="45.46019" lon="4.75919">
        <ele>157</ele>
        <time>2010-10-28T09:00:05Z</time>
      </trkpt>
      <trkpt lat="45.46011" lon="4.75926">
        <ele>156</ele>
        <time>2010-10-28T09:00:11Z</time>
      </trkpt>
      <trkpt lat="45.46002" lon="4.75931">
        <ele>156</ele>
        <time>2010-10-28T09:00:24Z</time>
      </trkpt>
      <trkpt lat="45.45994" lon="4.75938">
        <ele>153</ele>
        <time>2010-10-28T09:00:30Z</time>
      </trkpt>
      <trkpt lat="45.45983" lon="4.75941">
        <ele>152</ele>
        <time>2010-10-28T09:00:40Z</time>
      </trkpt>
      <trkpt lat="45.45975" lon="4.75947">
        <ele>151</ele>
        <time>2010-10-28T09:00:48Z</time>
      </trkpt>
      <trkpt lat="45.45965" lon="4.75948">
        <ele>151</ele>
        <time>2010-10-28T09:01:01Z</time>
      </trkpt>
      <trkpt lat="45.45956" lon="4.7594">
        <ele>151</ele>
        <time>2010-10-28T09:01:07Z</time>
      </trkpt>
      <trkpt lat="45.45945" lon="4.75936">
        <ele>150</ele>
        <time>2010-10-28T09:01:15Z</time>
      </trkpt>
      <trkpt lat="45.4594" lon="4.75924">
        <ele>150</ele>
        <time>2010-10-28T09:01:33Z</time>
      </trkpt>
      <trkpt lat="45.45932" lon="4.75915">
        <ele>154</ele>
        <time>2010-10-28T09:01:45Z</time>
      </trkpt>
      <trkpt lat="45.45923" lon="4.7591">
        <ele>152</ele>
        <time>2010-10-28T09:02:07Z</time>
      </trkpt>
      <trkpt lat="45.45915" lon="4.75902">
        <ele>150</ele>
        <time>2010-10-28T09:02:17Z</time>
      </trkpt>
      <trkpt lat="45.45907" lon="4.75893">
        <ele>150</ele>
        <time>2010-10-28T09:02:29Z</time>
      </trkpt>
      <trkpt lat="45.45898" lon="4.75889">
        <ele>151</ele>
        <time>2010-10-28T09:02:40Z</time>
      </trkpt>
      <trkpt lat="45.45888" lon="4.75892">
        <ele>150</ele>
        <time>2010-10-28T09:02:48Z</time>
      </trkpt>
      <trkpt lat="45.45878" lon="4.75892">
        <ele>150</ele>
        <time>2010-10-28T09:02:56Z</time>
      </trkpt>
      <trkpt lat="45.45868" lon="4.75888">
        <ele>150</ele>
        <time>2010-10-28T09:03:01Z</time>
      </trkpt>
      <trkpt lat="45.4586" lon="4.75897">
        <ele>149</ele>
        <time>2010-10-28T09:03:05Z</time>
      </trkpt>
      <trkpt lat="45.45855" lon="4.75909">
        <ele>149</ele>
        <time>2010-10-28T09:03:12Z</time>
      </trkpt>
      <trkpt lat="45.45849" lon="4.75919">
        <ele>147</ele>
        <time>2010-10-28T09:03:20Z</time>
      </trkpt>
      <trkpt lat="45.45842" lon="4.7593">
        <ele>147</ele>
        <time>2010-10-28T09:03:26Z</time>
      </trkpt>
      <trkpt lat="45.45837" lon="4.75943">
        <ele>147</ele>
        <time>2010-10-28T09:03:37Z</time>
      </trkpt>
      <trkpt lat="45.45832" lon="4.75954">
        <ele>146</ele>
        <time>2010-10-28T09:03:44Z</time>
      </trkpt>
      <trkpt lat="45.45829" lon="4.75966">
        <ele>146</ele>
        <time>2010-10-28T09:03:51Z</time>
      </trkpt>
      <trkpt lat="45.45834" lon="4.7598">
        <ele>146</ele>
        <time>2010-10-28T09:04:01Z</time>
      </trkpt>
      <trkpt lat="45.45839" lon="4.75992">
        <ele>146</ele>
        <time>2010-10-28T09:04:08Z</time>
      </trkpt>
      <trkpt lat="45.45847" lon="4.76">
        <ele>146</ele>
        <time>2010-10-28T09:04:15Z</time>
      </trkpt>
      <trkpt lat="45.45847" lon="4.76014">
        <ele>146</ele>
        <time>2010-10-28T09:04:43Z</time>
      </trkpt>
      <trkpt lat="45.45847" lon="4.76027">
        <ele>146</ele>
        <time>2010-10-28T09:04:53Z</time>
      </trkpt>
      <trkpt lat="45.45853" lon="4.76038">
        <ele>146</ele>
        <time>2010-10-28T09:05:35Z</time>
      </trkpt>
      <trkpt lat="45.45849" lon="4.76025">
        <ele>146</ele>
        <time>2010-10-28T09:06:27Z</time>
      </trkpt>
      <trkpt lat="45.45845" lon="4.76013">
        <ele>146</ele>
        <time>2010-10-28T09:06:37Z</time>
      </trkpt>
      <trkpt lat="45.45839" lon="4.76003">
        <ele>146</ele>
        <time>2010-10-28T09:06:43Z</time>
      </trkpt>
      <trkpt lat="45.45835" lon="4.7599">
        <ele>146</ele>
        <time>2010-10-28T09:06:52Z</time>
      </trkpt>
      <trkpt lat="45.45829" lon="4.7598">
        <ele>146</ele>
        <time>2010-10-28T09:07:09Z</time>
      </trkpt>
      <trkpt lat="45.45823" lon="4.7599">
        <ele>146</ele>
        <time>2010-10-28T09:07:26Z</time>
      </trkpt>
      <trkpt lat="45.45811" lon="4.75998">
        <ele>146</ele>
        <time>2010-10-28T09:07:39Z</time>
      </trkpt>
      <trkpt lat="45.45801" lon="4.75994">
        <ele>146</ele>
        <time>2010-10-28T09:07:46Z</time>
      </trkpt>
      <trkpt lat="45.45791" lon="4.75991">
        <ele>145</ele>
        <time>2010-10-28T09:07:51Z</time>
      </trkpt>
      <trkpt lat="45.45781" lon="4.75992">
        <ele>145</ele>
        <time>2010-10-28T09:07:55Z</time>
      </trkpt>
      <trkpt lat="45.45772" lon="4.75992">
        <ele>145</ele>
        <time>2010-10-28T09:07:59Z</time>
      </trkpt>
      <trkpt lat="45.45762" lon="4.75991">
        <ele>145</ele>
        <time>2010-10-28T09:08:03Z</time>
      </trkpt>
      <trkpt lat="45.45753" lon="4.75987">
        <ele>145</ele>
        <time>2010-10-28T09:08:13Z</time>
      </trkpt>
      <trkpt lat="45.45748" lon="4.75974">
        <ele>144</ele>
        <time>2010-10-28T09:08:28Z</time>
      </trkpt>
      <trkpt lat="45.45739" lon="4.75971">
        <ele>144</ele>
        <time>2010-10-28T09:09:21Z</time>
      </trkpt>
      <trkpt lat="45.45731" lon="4.75963">
        <ele>144</ele>
        <time>2010-10-28T09:09:30Z</time>
      </trkpt>
      <trkpt lat="45.45721" lon="4.75962">
        <ele>144</ele>
        <time>2010-10-28T09:09:37Z</time>
      </trkpt>
      <trkpt lat="45.45715" lon="4.75951">
        <ele>144</ele>
        <time>2010-10-28T09:10:08Z</time>
      </trkpt>
      <trkpt lat="45.45717" lon="4.75938">
        <ele>144</ele>
        <time>2010-10-28T09:12:33Z</time>
      </trkpt>
      <trkpt lat="45.45713" lon="4.75926">
        <ele>144</ele>
        <time>2010-10-28T09:12:47Z</time>
      </trkpt>
      <trkpt lat="45.45715" lon="4.75911">
        <ele>144</ele>
        <time>2010-10-28T09:12:59Z</time>
      </trkpt>
      <trkpt lat="45.45717" lon="4.75899">
        <ele>144</ele>
        <time>2010-10-28T09:13:13Z</time>
      </trkpt>
      <trkpt lat="45.45713" lon="4.75886">
        <ele>144</ele>
        <time>2010-10-28T09:13:24Z</time>
      </trkpt>
      <trkpt lat="45.45711" lon="4.75874">
        <ele>145</ele>
        <time>2010-10-28T09:13:33Z</time>
      </trkpt>
      <trkpt lat="45.45707" lon="4.75861">
        <ele>145</ele>
        <time>2010-10-28T09:13:43Z</time>
      </trkpt>
      <trkpt lat="45.45704" lon="4.75848">
        <ele>145</ele>
        <time>2010-10-28T09:13:53Z</time>
      </trkpt>
      <trkpt lat="45.45703" lon="4.75833">
        <ele>146</ele>
        <time>2010-10-28T09:14:03Z</time>
      </trkpt>
      <trkpt lat="45.45701" lon="4.7582">
        <ele>146</ele>
        <time>2010-10-28T09:14:13Z</time>
      </trkpt>
      <trkpt lat="45.45697" lon="4.75808">
        <ele>146</ele>
        <time>2010-10-28T09:14:22Z</time>
      </trkpt>
      <trkpt lat="45.45694" lon="4.75795">
        <ele>146</ele>
        <time>2010-10-28T09:14:31Z</time>
      </trkpt>
      <trkpt lat="45.45689" lon="4.75783">
        <ele>146</ele>
        <time>2010-10-28T09:14:40Z</time>
      </trkpt>
      <trkpt lat="45.45686" lon="4.7577">
        <ele>146</ele>
        <time>2010-10-28T09:14:49Z</time>
      </trkpt>
      <trkpt lat="45.45683" lon="4.75757">
        <ele>146</ele>
        <time>2010-10-28T09:15:03Z</time>
      </trkpt>
      <trkpt lat="45.45679" lon="4.75745">
        <ele>146</ele>
        <time>2010-10-28T09:15:10Z</time>
      </trkpt>
      <trkpt lat="45.45674" lon="4.75733">
        <ele>147</ele>
        <time>2010-10-28T09:15:21Z</time>
      </trkpt>
      <trkpt lat="45.45669" lon="4.75721">
        <ele>147</ele>
        <time>2010-10-28T09:15:30Z</time>
      </trkpt>
      <trkpt lat="45.45662" lon="4.75711">
        <ele>145</ele>
        <time>2010-10-28T09:15:39Z</time>
      </trkpt>
      <trkpt lat="45.45657" lon="4.75699">
        <ele>145</ele>
        <time>2010-10-28T09:15:47Z</time>
      </trkpt>
      <trkpt lat="45.45653" lon="4.75688">
        <ele>145</ele>
        <time>2010-10-28T09:15:56Z</time>
      </trkpt>
      <trkpt lat="45.45648" lon="4.75676">
        <ele>145</ele>
        <time>2010-10-28T09:16:05Z</time>
      </trkpt>
      <trkpt lat="45.45645" lon="4.75662">
        <ele>145</ele>
        <time>2010-10-28T09:16:17Z</time>
      </trkpt>
      <trkpt lat="45.45641" lon="4.75651">
        <ele>145</ele>
        <time>2010-10-28T09:16:28Z</time>
      </trkpt>
      <trkpt lat="45.45636" lon="4.75638">
        <ele>145</ele>
        <time>2010-10-28T09:16:44Z</time>
      </trkpt>
      <trkpt lat="45.45631" lon="4.75627">
        <ele>145</ele>
        <time>2010-10-28T09:16:53Z</time>
      </trkpt>
      <trkpt lat="45.45626" lon="4.75616">
        <ele>145</ele>
        <time>2010-10-28T09:17:02Z</time>
      </trkpt>
      <trkpt lat="45.45625" lon="4.75601">
        <ele>144</ele>
        <time>2010-10-28T09:17:11Z</time>
      </trkpt>
      <trkpt lat="45.45617" lon="4.75593">
        <ele>144</ele>
        <time>2010-10-28T09:17:19Z</time>
      </trkpt>
      <trkpt lat="45.45613" lon="4.75581">
        <ele>145</ele>
        <time>2010-10-28T09:17:29Z</time>
      </trkpt>
      <trkpt lat="45.45607" lon="4.75571">
        <ele>145</ele>
        <time>2010-10-28T09:17:38Z</time>
      </trkpt>
      <trkpt lat="45.45603" lon="4.75557">
        <ele>145</ele>
        <time>2010-10-28T09:17:47Z</time>
      </trkpt>
      <trkpt lat="45.45598" lon="4.75545">
        <ele>146</ele>
        <time>2010-10-28T09:17:56Z</time>
      </trkpt>
      <trkpt lat="45.45592" lon="4.75533">
        <ele>146</ele>
        <time>2010-10-28T09:18:05Z</time>
      </trkpt>
      <trkpt lat="45.45587" lon="4.75521">
        <ele>147</ele>
        <time>2010-10-28T09:18:13Z</time>
      </trkpt>
      <trkpt lat="45.45581" lon="4.7551">
        <ele>146</ele>
        <time>2010-10-28T09:18:24Z</time>
      </trkpt>
      <trkpt lat="45.45573" lon="4.75501">
        <ele>146</ele>
        <time>2010-10-28T09:18:34Z</time>
      </trkpt>
      <trkpt lat="45.45565" lon="4.75494">
        <ele>147</ele>
        <time>2010-10-28T09:18:41Z</time>
      </trkpt>
      <trkpt lat="45.45557" lon="4.75486">
        <ele>147</ele>
        <time>2010-10-28T09:18:50Z</time>
      </trkpt>
      <trkpt lat="45.45549" lon="4.75477">
        <ele>146</ele>
        <time>2010-10-28T09:18:59Z</time>
      </trkpt>
      <trkpt lat="45.45542" lon="4.75467">
        <ele>146</ele>
        <time>2010-10-28T09:19:08Z</time>
      </trkpt>
      <trkpt lat="45.4554" lon="4.75453">
        <ele>146</ele>
        <time>2010-10-28T09:19:17Z</time>
      </trkpt>
      <trkpt lat="45.45538" lon="4.7544">
        <ele>146</ele>
        <time>2010-10-28T09:19:29Z</time>
      </trkpt>
      <trkpt lat="45.45538" lon="4.75425">
        <ele>146</ele>
        <time>2010-10-28T09:19:38Z</time>
      </trkpt>
      <trkpt lat="45.45535" lon="4.75413">
        <ele>149</ele>
        <time>2010-10-28T09:20:00Z</time>
      </trkpt>
      <trkpt lat="45.45533" lon="4.754">
        <ele>149</ele>
        <time>2010-10-28T09:20:13Z</time>
      </trkpt>
      <trkpt lat="45.45529" lon="4.75387">
        <ele>150</ele>
        <time>2010-10-28T09:20:24Z</time>
      </trkpt>
      <trkpt lat="45.45529" lon="4.75372">
        <ele>151</ele>
        <time>2010-10-28T09:20:36Z</time>
      </trkpt>
      <trkpt lat="45.45524" lon="4.75361">
        <ele>151</ele>
        <time>2010-10-28T09:20:44Z</time>
      </trkpt>
      <trkpt lat="45.45514" lon="4.75353">
        <ele>151</ele>
        <time>2010-10-28T09:21:01Z</time>
      </trkpt>
      <trkpt lat="45.45507" lon="4.75341">
        <ele>152</ele>
        <time>2010-10-28T09:21:07Z</time>
      </trkpt>
      <trkpt lat="45.455" lon="4.7533">
        <ele>153</ele>
        <time>2010-10-28T09:21:12Z</time>
      </trkpt>
      <trkpt lat="45.4549" lon="4.75324">
        <ele>154</ele>
        <time>2010-10-28T09:21:23Z</time>
      </trkpt>
      <trkpt lat="45.45479" lon="4.75322">
        <ele>155</ele>
        <time>2010-10-28T09:21:35Z</time>
      </trkpt>
      <trkpt lat="45.45469" lon="4.7532">
        <ele>155</ele>
        <time>2010-10-28T09:21:44Z</time>
      </trkpt>
      <trkpt lat="45.4546" lon="4.75314">
        <ele>156</ele>
        <time>2010-10-28T09:21:52Z</time>
      </trkpt>
      <trkpt lat="45.4545" lon="4.75318">
        <ele>155</ele>
        <time>2010-10-28T09:22:00Z</time>
      </trkpt>
      <trkpt lat="45.45441" lon="4.75313">
        <ele>155</ele>
        <time>2010-10-28T09:22:10Z</time>
      </trkpt>
      <trkpt lat="45.45432" lon="4.75321">
        <ele>153</ele>
        <time>2010-10-28T09:22:19Z</time>
      </trkpt>
      <trkpt lat="45.45422" lon="4.75321">
        <ele>151</ele>
        <time>2010-10-28T09:22:31Z</time>
      </trkpt>
      <trkpt lat="45.45408" lon="4.75323">
        <ele>150</ele>
        <time>2010-10-28T09:22:38Z</time>
      </trkpt>
      <trkpt lat="45.45409" lon="4.75336">
        <ele>147</ele>
        <time>2010-10-28T09:22:46Z</time>
      </trkpt>
      <trkpt lat="45.45397" lon="4.75338">
        <ele>147</ele>
        <time>2010-10-28T09:22:58Z</time>
      </trkpt>
      <trkpt lat="45.45388" lon="4.75335">
        <ele>147</ele>
        <time>2010-10-28T09:23:07Z</time>
      </trkpt>
      <trkpt lat="45.45378" lon="4.75341">
        <ele>147</ele>
        <time>2010-10-28T09:23:14Z</time>
      </trkpt>
      <trkpt lat="45.45369" lon="4.75336">
        <ele>148</ele>
        <time>2010-10-28T09:23:25Z</time>
      </trkpt>
      <trkpt lat="45.45361" lon="4.75328">
        <ele>153</ele>
        <time>2010-10-28T09:23:33Z</time>
      </trkpt>
      <trkpt lat="45.45357" lon="4.75316">
        <ele>154</ele>
        <time>2010-10-28T09:23:43Z</time>
      </trkpt>
      <trkpt lat="45.4535" lon="4.75306">
        <ele>154</ele>
        <time>2010-10-28T09:23:59Z</time>
      </trkpt>
      <trkpt lat="45.45342" lon="4.75297">
        <ele>155</ele>
        <time>2010-10-28T09:24:11Z</time>
      </trkpt>
      <trkpt lat="45.45349" lon="4.75307">
        <ele>154</ele>
        <time>2010-10-28T09:24:55Z</time>
      </trkpt>
      <trkpt lat="45.45358" lon="4.75308">
        <ele>154</ele>
        <time>2010-10-28T09:25:59Z</time>
      </trkpt>
      <trkpt lat="45.4535" lon="4.75295">
        <ele>155</ele>
        <time>2010-10-28T09:26:08Z</time>
      </trkpt>
      <trkpt lat="45.45345" lon="4.75283">
        <ele>156</ele>
        <time>2010-10-28T09:26:15Z</time>
      </trkpt>
      <trkpt lat="45.4534" lon="4.75271">
        <ele>157</ele>
        <time>2010-10-28T09:26:23Z</time>
      </trkpt>
      <trkpt lat="45.45343" lon="4.75256">
        <ele>158</ele>
        <time>2010-10-28T09:26:35Z</time>
      </trkpt>
      <trkpt lat="45.45336" lon="4.75247">
        <ele>160</ele>
        <time>2010-10-28T09:26:42Z</time>
      </trkpt>
      <trkpt lat="45.45328" lon="4.75239">
        <ele>166</ele>
        <time>2010-10-28T09:26:55Z</time>
      </trkpt>
      <trkpt lat="45.45323" lon="4.75229">
        <ele>170</ele>
        <time>2010-10-28T09:27:07Z</time>
      </trkpt>
      <trkpt lat="45.45322" lon="4.75215">
        <ele>172</ele>
        <time>2010-10-28T09:27:17Z</time>
      </trkpt>
      <trkpt lat="45.4532" lon="4.75203">
        <ele>174</ele>
        <time>2010-10-28T09:27:27Z</time>
      </trkpt>
      <trkpt lat="45.4531" lon="4.75201">
        <ele>175</ele>
        <time>2010-10-28T09:27:56Z</time>
      </trkpt>
      <trkpt lat="45.45307" lon="4.75213">
        <ele>174</ele>
        <time>2010-10-28T09:28:20Z</time>
      </trkpt>
      <trkpt lat="45.45298" lon="4.7522">
        <ele>175</ele>
        <time>2010-10-28T09:28:33Z</time>
      </trkpt>
      <trkpt lat="45.45291" lon="4.75229">
        <ele>175</ele>
        <time>2010-10-28T09:28:53Z</time>
      </trkpt>
      <trkpt lat="45.4528" lon="4.75232">
        <ele>176</ele>
        <time>2010-10-28T09:29:06Z</time>
      </trkpt>
      <trkpt lat="45.45271" lon="4.75231">
        <ele>177</ele>
        <time>2010-10-28T09:29:12Z</time>
      </trkpt>
      <trkpt lat="45.45268" lon="4.75219">
        <ele>179</ele>
        <time>2010-10-28T09:29:23Z</time>
      </trkpt>
      <trkpt lat="45.45266" lon="4.75205">
        <ele>180</ele>
        <time>2010-10-28T09:29:45Z</time>
      </trkpt>
      <trkpt lat="45.45272" lon="4.75194">
        <ele>181</ele>
        <time>2010-10-28T09:29:59Z</time>
      </trkpt>
      <trkpt lat="45.45274" lon="4.75181">
        <ele>183</ele>
        <time>2010-10-28T09:30:25Z</time>
      </trkpt>
      <trkpt lat="45.45284" lon="4.7518">
        <ele>181</ele>
        <time>2010-10-28T09:30:42Z</time>
      </trkpt>
      <trkpt lat="45.45275" lon="4.75174">
        <ele>184</ele>
        <time>2010-10-28T09:30:53Z</time>
      </trkpt>
      <trkpt lat="45.45266" lon="4.75169">
        <ele>187</ele>
        <time>2010-10-28T09:31:08Z</time>
      </trkpt>
      <trkpt lat="45.45257" lon="4.75163">
        <ele>196</ele>
        <time>2010-10-28T09:31:27Z</time>
      </trkpt>
      <trkpt lat="45.45249" lon="4.75157">
        <ele>203</ele>
        <time>2010-10-28T09:31:50Z</time>
      </trkpt>
      <trkpt lat="45.4524" lon="4.75151">
        <ele>207</ele>
        <time>2010-10-28T09:32:02Z</time>
      </trkpt>
      <trkpt lat="45.45231" lon="4.75156">
        <ele>208</ele>
        <time>2010-10-28T09:32:21Z</time>
      </trkpt>
      <trkpt lat="45.45224" lon="4.75165">
        <ele>209</ele>
        <time>2010-10-28T09:32:56Z</time>
      </trkpt>
      <trkpt lat="45.45215" lon="4.75166">
        <ele>212</ele>
        <time>2010-10-28T09:33:03Z</time>
      </trkpt>
      <trkpt lat="45.45219" lon="4.75177">
        <ele>199</ele>
        <time>2010-10-28T09:33:23Z</time>
      </trkpt>
      <trkpt lat="45.45228" lon="4.75181">
        <ele>198</ele>
        <time>2010-10-28T09:33:39Z</time>
      </trkpt>
      <trkpt lat="45.45217" lon="4.75186">
        <ele>199</ele>
        <time>2010-10-28T09:34:01Z</time>
      </trkpt>
      <trkpt lat="45.45205" lon="4.75192">
        <ele>200</ele>
        <time>2010-10-28T09:34:10Z</time>
      </trkpt>
      <trkpt lat="45.45196" lon="4.75195">
        <ele>200</ele>
        <time>2010-10-28T09:34:18Z</time>
      </trkpt>
      <trkpt lat="45.45186" lon="4.75198">
        <ele>201</ele>
        <time>2010-10-28T09:34:28Z</time>
      </trkpt>
      <trkpt lat="45.45177" lon="4.75202">
        <ele>202</ele>
        <time>2010-10-28T09:34:39Z</time>
      </trkpt>
      <trkpt lat="45.45167" lon="4.75198">
        <ele>203</ele>
        <time>2010-10-28T09:34:50Z</time>
      </trkpt>
      <trkpt lat="45.45157" lon="4.75198">
        <ele>205</ele>
        <time>2010-10-28T09:34:57Z</time>
      </trkpt>
      <trkpt lat="45.45148" lon="4.752">
        <ele>203</ele>
        <time>2010-10-28T09:35:09Z</time>
      </trkpt>
      <trkpt lat="45.45138" lon="4.75202">
        <ele>202</ele>
        <time>2010-10-28T09:35:38Z</time>
      </trkpt>
      <trkpt lat="45.45147" lon="4.75195">
        <ele>204</ele>
        <time>2010-10-28T09:36:25Z</time>
      </trkpt>
      <trkpt lat="45.45151" lon="4.75183">
        <ele>208</ele>
        <time>2010-10-28T09:36:55Z</time>
      </trkpt>
      <trkpt lat="45.45154" lon="4.7517">
        <ele>212</ele>
        <time>2010-10-28T09:37:08Z</time>
      </trkpt>
      <trkpt lat="45.45161" lon="4.7516">
        <ele>220</ele>
        <time>2010-10-28T09:37:14Z</time>
      </trkpt>
      <trkpt lat="45.4517" lon="4.75154">
        <ele>219</ele>
        <time>2010-10-28T09:37:19Z</time>
      </trkpt>
      <trkpt lat="45.4518" lon="4.75157">
        <ele>218</ele>
        <time>2010-10-28T09:37:26Z</time>
      </trkpt>
      <trkpt lat="45.45189" lon="4.75161">
        <ele>217</ele>
        <time>2010-10-28T09:37:39Z</time>
      </trkpt>
      <trkpt lat="45.45195" lon="4.7515">
        <ele>216</ele>
        <time>2010-10-28T09:38:10Z</time>
      </trkpt>
      <trkpt lat="45.45196" lon="4.75136">
        <ele>217</ele>
        <time>2010-10-28T09:38:24Z</time>
      </trkpt>
      <trkpt lat="45.4519" lon="4.75123">
        <ele>218</ele>
        <time>2010-10-28T09:38:31Z</time>
      </trkpt>
      <trkpt lat="45.45191" lon="4.7511">
        <ele>220</ele>
        <time>2010-10-28T09:38:44Z</time>
      </trkpt>
      <trkpt lat="45.45195" lon="4.75097">
        <ele>221</ele>
        <time>2010-10-28T09:38:59Z</time>
      </trkpt>
      <trkpt lat="45.45194" lon="4.75084">
        <ele>222</ele>
        <time>2010-10-28T09:39:24Z</time>
      </trkpt>
      <trkpt lat="45.45197" lon="4.75071">
        <ele>230</ele>
        <time>2010-10-28T09:39:38Z</time>
      </trkpt>
      <trkpt lat="45.45197" lon="4.75058">
        <ele>231</ele>
        <time>2010-10-28T09:39:57Z</time>
      </trkpt>
      <trkpt lat="45.45199" lon="4.75044">
        <ele>232</ele>
        <time>2010-10-28T09:40:18Z</time>
      </trkpt>
      <trkpt lat="45.45198" lon="4.75031">
        <ele>233</ele>
        <time>2010-10-28T09:40:32Z</time>
      </trkpt>
      <trkpt lat="45.45196" lon="4.75018">
        <ele>235</ele>
        <time>2010-10-28T09:40:44Z</time>
      </trkpt>
      <trkpt lat="45.45189" lon="4.75007">
        <ele>238</ele>
        <time>2010-10-28T09:40:51Z</time>
      </trkpt>
      <trkpt lat="45.45187" lon="4.74992">
        <ele>246</ele>
        <time>2010-10-28T09:41:00Z</time>
      </trkpt>
      <trkpt lat="45.45178" lon="4.74984">
        <ele>247</ele>
        <time>2010-10-28T09:41:08Z</time>
      </trkpt>
      <trkpt lat="45.45177" lon="4.74971">
        <ele>247</ele>
        <time>2010-10-28T09:41:31Z</time>
      </trkpt>
      <trkpt lat="45.45168" lon="4.74965">
        <ele>248</ele>
        <time>2010-10-28T09:41:38Z</time>
      </trkpt>
      <trkpt lat="45.4516" lon="4.74955">
        <ele>250</ele>
        <time>2010-10-28T09:42:11Z</time>
      </trkpt>
      <trkpt lat="45.45155" lon="4.74943">
        <ele>251</ele>
        <time>2010-10-28T09:42:18Z</time>
      </trkpt>
      <trkpt lat="45.45161" lon="4.74933">
        <ele>253</ele>
        <time>2010-10-28T09:42:49Z</time>
      </trkpt>
      <trkpt lat="45.45151" lon="4.74932">
        <ele>252</ele>
        <time>2010-10-28T09:43:18Z</time>
      </trkpt>
      <trkpt lat="45.45144" lon="4.74924">
        <ele>251</ele>
        <time>2010-10-28T09:43:34Z</time>
      </trkpt>
      <trkpt lat="45.45153" lon="4.74928">
        <ele>253</ele>
        <time>2010-10-28T09:44:03Z</time>
      </trkpt>
      <trkpt lat="45.45162" lon="4.74924">
        <ele>255</ele>
        <time>2010-10-28T09:44:17Z</time>
      </trkpt>
      <trkpt lat="45.4517" lon="4.74916">
        <ele>258</ele>
        <time>2010-10-28T09:44:28Z</time>
      </trkpt>
      <trkpt lat="45.45176" lon="4.74906">
        <ele>257</ele>
        <time>2010-10-28T09:44:57Z</time>
      </trkpt>
      <trkpt lat="45.45184" lon="4.74899">
        <ele>256</ele>
        <time>2010-10-28T09:45:06Z</time>
      </trkpt>
      <trkpt lat="45.45189" lon="4.74887">
        <ele>256</ele>
        <time>2010-10-28T09:45:21Z</time>
      </trkpt>
      <trkpt lat="45.45189" lon="4.74873">
        <ele>256</ele>
        <time>2010-10-28T09:45:33Z</time>
      </trkpt>
      <trkpt lat="45.4518" lon="4.74865">
        <ele>257</ele>
        <time>2010-10-28T09:45:37Z</time>
      </trkpt>
      <trkpt lat="45.4518" lon="4.7485">
        <ele>258</ele>
        <time>2010-10-28T09:45:49Z</time>
      </trkpt>
      <trkpt lat="45.45184" lon="4.74838">
        <ele>258</ele>
        <time>2010-10-28T09:46:00Z</time>
      </trkpt>
      <trkpt lat="45.45186" lon="4.74824">
        <ele>259</ele>
        <time>2010-10-28T09:46:08Z</time>
      </trkpt>
      <trkpt lat="45.45187" lon="4.74811">
        <ele>259</ele>
        <time>2010-10-28T09:46:17Z</time>
      </trkpt>
      <trkpt lat="45.45182" lon="4.74798">
        <ele>259</ele>
        <time>2010-10-28T09:46:28Z</time>
      </trkpt>
      <trkpt lat="45.4518" lon="4.74785">
        <ele>260</ele>
        <time>2010-10-28T09:46:39Z</time>
      </trkpt>
      <trkpt lat="45.45184" lon="4.74771">
        <ele>260</ele>
        <time>2010-10-28T09:46:53Z</time>
      </trkpt>
      <trkpt lat="45.45182" lon="4.74758">
        <ele>261</ele>
        <time>2010-10-28T09:47:00Z</time>
      </trkpt>
      <trkpt lat="45.45182" lon="4.74744">
        <ele>263</ele>
        <time>2010-10-28T09:47:09Z</time>
      </trkpt>
      <trkpt lat="45.45182" lon="4.7473">
        <ele>263</ele>
        <time>2010-10-28T09:47:17Z</time>
      </trkpt>
      <trkpt lat="45.45179" lon="4.74717">
        <ele>264</ele>
        <time>2010-10-28T09:47:27Z</time>
      </trkpt>
      <trkpt lat="45.45183" lon="4.74703">
        <ele>264</ele>
        <time>2010-10-28T09:47:41Z</time>
      </trkpt>
      <trkpt lat="45.45184" lon="4.74689">
        <ele>265</ele>
        <time>2010-10-28T09:47:53Z</time>
      </trkpt>
      <trkpt lat="45.45187" lon="4.74676">
        <ele>266</ele>
        <time>2010-10-28T09:48:04Z</time>
      </trkpt>
      <trkpt lat="45.45193" lon="4.74665">
        <ele>269</ele>
        <time>2010-10-28T09:48:12Z</time>
      </trkpt>
      <trkpt lat="45.45194" lon="4.74652">
        <ele>269</ele>
        <time>2010-10-28T09:48:21Z</time>
      </trkpt>
      <trkpt lat="45.45192" lon="4.74638">
        <ele>270</ele>
        <time>2010-10-28T09:48:33Z</time>
      </trkpt>
      <trkpt lat="45.45189" lon="4.74626">
        <ele>270</ele>
        <time>2010-10-28T09:48:43Z</time>
      </trkpt>
      <trkpt lat="45.45183" lon="4.74613">
        <ele>272</ele>
        <time>2010-10-28T09:48:50Z</time>
      </trkpt>
      <trkpt lat="45.45177" lon="4.74603">
        <ele>273</ele>
        <time>2010-10-28T09:48:57Z</time>
      </trkpt>
      <trkpt lat="45.45174" lon="4.74591">
        <ele>275</ele>
        <time>2010-10-28T09:49:06Z</time>
      </trkpt>
      <trkpt lat="45.45174" lon="4.74577">
        <ele>276</ele>
        <time>2010-10-28T09:49:19Z</time>
      </trkpt>
      <trkpt lat="45.45177" lon="4.74563">
        <ele>275</ele>
        <time>2010-10-28T09:49:29Z</time>
      </trkpt>
      <trkpt lat="45.45174" lon="4.74548">
        <ele>275</ele>
        <time>2010-10-28T09:49:38Z</time>
      </trkpt>
      <trkpt lat="45.45184" lon="4.74549">
        <ele>275</ele>
        <time>2010-10-28T09:49:52Z</time>
      </trkpt>
      <trkpt lat="45.4518" lon="4.74534">
        <ele>275</ele>
        <time>2010-10-28T09:50:27Z</time>
      </trkpt>
      <trkpt lat="45.45185" lon="4.74523">
        <ele>275</ele>
        <time>2010-10-28T09:50:40Z</time>
      </trkpt>
      <trkpt lat="45.45181" lon="4.74509">
        <ele>277</ele>
        <time>2010-10-28T09:50:51Z</time>
      </trkpt>
      <trkpt lat="45.45174" lon="4.74499">
        <ele>279</ele>
        <time>2010-10-28T09:50:59Z</time>
      </trkpt>
      <trkpt lat="45.45165" lon="4.74493">
        <ele>281</ele>
        <time>2010-10-28T09:51:08Z</time>
      </trkpt>
      <trkpt lat="45.45156" lon="4.74486">
        <ele>283</ele>
        <time>2010-10-28T09:51:18Z</time>
      </trkpt>
      <trkpt lat="45.4515" lon="4.74476">
        <ele>284</ele>
        <time>2010-10-28T09:51:28Z</time>
      </trkpt>
      <trkpt lat="45.45143" lon="4.74467">
        <ele>284</ele>
        <time>2010-10-28T09:51:34Z</time>
      </trkpt>
      <trkpt lat="45.45136" lon="4.74456">
        <ele>285</ele>
        <time>2010-10-28T09:51:44Z</time>
      </trkpt>
      <trkpt lat="45.45131" lon="4.74443">
        <ele>286</ele>
        <time>2010-10-28T09:51:54Z</time>
      </trkpt>
      <trkpt lat="45.45124" lon="4.74432">
        <ele>286</ele>
        <time>2010-10-28T09:52:03Z</time>
      </trkpt>
      <trkpt lat="45.45117" lon="4.74422">
        <ele>287</ele>
        <time>2010-10-28T09:52:12Z</time>
      </trkpt>
      <trkpt lat="45.45116" lon="4.74408">
        <ele>291</ele>
        <time>2010-10-28T09:52:23Z</time>
      </trkpt>
      <trkpt lat="45.45119" lon="4.74394">
        <ele>291</ele>
        <time>2010-10-28T09:52:32Z</time>
      </trkpt>
      <trkpt lat="45.4512" lon="4.74379">
        <ele>291</ele>
        <time>2010-10-28T09:52:42Z</time>
      </trkpt>
      <trkpt lat="45.45124" lon="4.74364">
        <ele>292</ele>
        <time>2010-10-28T09:52:51Z</time>
      </trkpt>
      <trkpt lat="45.4513" lon="4.74353">
        <ele>292</ele>
        <time>2010-10-28T09:53:03Z</time>
      </trkpt>
      <trkpt lat="45.45136" lon="4.74343">
        <ele>292</ele>
        <time>2010-10-28T09:53:10Z</time>
      </trkpt>
      <trkpt lat="45.45137" lon="4.74329">
        <ele>295</ele>
        <time>2010-10-28T09:53:21Z</time>
      </trkpt>
      <trkpt lat="45.45133" lon="4.74317">
        <ele>296</ele>
        <time>2010-10-28T09:53:36Z</time>
      </trkpt>
      <trkpt lat="45.45132" lon="4.74303">
        <ele>296</ele>
        <time>2010-10-28T09:53:45Z</time>
      </trkpt>
      <trkpt lat="45.45134" lon="4.74291">
        <ele>297</ele>
        <time>2010-10-28T09:53:56Z</time>
      </trkpt>
      <trkpt lat="45.45137" lon="4.74277">
        <ele>297</ele>
        <time>2010-10-28T09:54:04Z</time>
      </trkpt>
      <trkpt lat="45.45139" lon="4.74264">
        <ele>297</ele>
        <time>2010-10-28T09:54:20Z</time>
      </trkpt>
      <trkpt lat="45.45143" lon="4.74249">
        <ele>300</ele>
        <time>2010-10-28T09:54:34Z</time>
      </trkpt>
      <trkpt lat="45.45135" lon="4.74241">
        <ele>301</ele>
        <time>2010-10-28T09:55:05Z</time>
      </trkpt>
      <trkpt lat="45.45143" lon="4.74232">
        <ele>300</ele>
        <time>2010-10-28T09:55:58Z</time>
      </trkpt>
      <trkpt lat="45.45142" lon="4.74219">
        <ele>301</ele>
        <time>2010-10-28T09:56:19Z</time>
      </trkpt>
      <trkpt lat="45.45137" lon="4.74207">
        <ele>302</ele>
        <time>2010-10-28T09:56:34Z</time>
      </trkpt>
      <trkpt lat="45.45129" lon="4.74193">
        <ele>303</ele>
        <time>2010-10-28T09:56:44Z</time>
      </trkpt>
      <trkpt lat="45.4512" lon="4.74186">
        <ele>304</ele>
        <time>2010-10-28T09:56:57Z</time>
      </trkpt>
      <trkpt lat="45.45113" lon="4.74177">
        <ele>305</ele>
        <time>2010-10-28T09:57:53Z</time>
      </trkpt>
      <trkpt lat="45.45105" lon="4.74169">
        <ele>306</ele>
        <time>2010-10-28T09:58:07Z</time>
      </trkpt>
      <trkpt lat="45.45098" lon="4.74161">
        <ele>310</ele>
        <time>2010-10-28T09:58:23Z</time>
      </trkpt>
      <trkpt lat="45.45091" lon="4.7415">
        <ele>310</ele>
        <time>2010-10-28T09:58:39Z</time>
      </trkpt>
      <trkpt lat="45.45084" lon="4.74142">
        <ele>309</ele>
        <time>2010-10-28T09:58:49Z</time>
      </trkpt>
      <trkpt lat="45.45075" lon="4.74136">
        <ele>314</ele>
        <time>2010-10-28T09:59:08Z</time>
      </trkpt>
      <trkpt lat="45.45066" lon="4.74131">
        <ele>314</ele>
        <time>2010-10-28T09:59:20Z</time>
      </trkpt>
      <trkpt lat="45.45062" lon="4.74118">
        <ele>314</ele>
        <time>2010-10-28T09:59:28Z</time>
      </trkpt>
      <trkpt lat="45.4506" lon="4.74105">
        <ele>315</ele>
        <time>2010-10-28T09:59:36Z</time>
      </trkpt>
      <trkpt lat="45.4506" lon="4.7409">
        <ele>315</ele>
        <time>2010-10-28T09:59:46Z</time>
      </trkpt>
      <trkpt lat="45.45059" lon="4.74076">
        <ele>316</ele>
        <time>2010-10-28T09:59:54Z</time>
      </trkpt>
      <trkpt lat="45.45058" lon="4.74063">
        <ele>316</ele>
        <time>2010-10-28T10:00:04Z</time>
      </trkpt>
      <trkpt lat="45.45055" lon="4.74048">
        <ele>317</ele>
        <time>2010-10-28T10:01:03Z</time>
      </trkpt>
      <trkpt lat="45.45056" lon="4.74034">
        <ele>317</ele>
        <time>2010-10-28T10:01:12Z</time>
      </trkpt>
      <trkpt lat="45.45056" lon="4.7402">
        <ele>317</ele>
        <time>2010-10-28T10:01:19Z</time>
      </trkpt>
      <trkpt lat="45.45056" lon="4.74006">
        <ele>317</ele>
        <time>2010-10-28T10:01:28Z</time>
      </trkpt>
      <trkpt lat="45.45055" lon="4.73993">
        <ele>319</ele>
        <time>2010-10-28T10:01:37Z</time>
      </trkpt>
      <trkpt lat="45.45055" lon="4.73979">
        <ele>319</ele>
        <time>2010-10-28T10:01:46Z</time>
      </trkpt>
      <trkpt lat="45.45053" lon="4.73966">
        <ele>319</ele>
        <time>2010-10-28T10:01:56Z</time>
      </trkpt>
      <trkpt lat="45.45052" lon="4.73952">
        <ele>319</ele>
        <time>2010-10-28T10:02:03Z</time>
      </trkpt>
      <trkpt lat="45.45048" lon="4.73939">
        <ele>320</ele>
        <time>2010-10-28T10:02:14Z</time>
      </trkpt>
      <trkpt lat="45.45046" lon="4.73925">
        <ele>320</ele>
        <time>2010-10-28T10:02:22Z</time>
      </trkpt>
      <trkpt lat="45.4504" lon="4.73913">
        <ele>322</ele>
        <time>2010-10-28T10:02:32Z</time>
      </trkpt>
      <trkpt lat="45.45038" lon="4.739">
        <ele>322</ele>
        <time>2010-10-28T10:02:39Z</time>
      </trkpt>
      <trkpt lat="45.45038" lon="4.73885">
        <ele>322</ele>
        <time>2010-10-28T10:02:46Z</time>
      </trkpt>
      <trkpt lat="45.45038" lon="4.73869">
        <ele>322</ele>
        <time>2010-10-28T10:02:57Z</time>
      </trkpt>
      <trkpt lat="45.45038" lon="4.73856">
        <ele>323</ele>
        <time>2010-10-28T10:03:06Z</time>
      </trkpt>
      <trkpt lat="45.45034" lon="4.7384">
        <ele>323</ele>
        <time>2010-10-28T10:03:15Z</time>
      </trkpt>
      <trkpt lat="45.45037" lon="4.73825">
        <ele>324</ele>
        <time>2010-10-28T10:03:26Z</time>
      </trkpt>
      <trkpt lat="45.45036" lon="4.73812">
        <ele>324</ele>
        <time>2010-10-28T10:03:36Z</time>
      </trkpt>
      <trkpt lat="45.45034" lon="4.73798">
        <ele>325</ele>
        <time>2010-10-28T10:03:44Z</time>
      </trkpt>
      <trkpt lat="45.45034" lon="4.73783">
        <ele>325</ele>
        <time>2010-10-28T10:03:52Z</time>
      </trkpt>
      <trkpt lat="45.45033" lon="4.73769">
        <ele>325</ele>
        <time>2010-10-28T10:04:00Z</time>
      </trkpt>
      <trkpt lat="45.45025" lon="4.7376">
        <ele>325</ele>
        <time>2010-10-28T10:04:11Z</time>
      </trkpt>
      <trkpt lat="45.45017" lon="4.7375">
        <ele>326</ele>
        <time>2010-10-28T10:04:20Z</time>
      </trkpt>
      <trkpt lat="45.45012" lon="4.73739">
        <ele>326</ele>
        <time>2010-10-28T10:04:28Z</time>
      </trkpt>
      <trkpt lat="45.45005" lon="4.7373">
        <ele>326</ele>
        <time>2010-10-28T10:04:38Z</time>
      </trkpt>
      <trkpt lat="45.44998" lon="4.73719">
        <ele>325</ele>
        <time>2010-10-28T10:04:48Z</time>
      </trkpt>
      <trkpt lat="45.44993" lon="4.73708">
        <ele>325</ele>
        <time>2010-10-28T10:04:55Z</time>
      </trkpt>
      <trkpt lat="45.44986" lon="4.73697">
        <ele>325</ele>
        <time>2010-10-28T10:05:05Z</time>
      </trkpt>
      <trkpt lat="45.44979" lon="4.73687">
        <ele>325</ele>
        <time>2010-10-28T10:05:12Z</time>
      </trkpt>
      <trkpt lat="45.44973" lon="4.73675">
        <ele>325</ele>
        <time>2010-10-28T10:05:22Z</time>
      </trkpt>
      <trkpt lat="45.44966" lon="4.73666">
        <ele>325</ele>
        <time>2010-10-28T10:05:31Z</time>
      </trkpt>
      <trkpt lat="45.4496" lon="4.73654">
        <ele>325</ele>
        <time>2010-10-28T10:05:40Z</time>
      </trkpt>
      <trkpt lat="45.44955" lon="4.7364">
        <ele>325</ele>
        <time>2010-10-28T10:05:47Z</time>
      </trkpt>
      <trkpt lat="45.44953" lon="4.73625">
        <ele>325</ele>
        <time>2010-10-28T10:05:54Z</time>
      </trkpt>
      <trkpt lat="45.44947" lon="4.73615">
        <ele>325</ele>
        <time>2010-10-28T10:06:03Z</time>
      </trkpt>
      <trkpt lat="45.44942" lon="4.73603">
        <ele>325</ele>
        <time>2010-10-28T10:06:10Z</time>
      </trkpt>
      <trkpt lat="45.44934" lon="4.73594">
        <ele>324</ele>
        <time>2010-10-28T10:06:19Z</time>
      </trkpt>
      <trkpt lat="45.44929" lon="4.73577">
        <ele>324</ele>
        <time>2010-10-28T10:06:28Z</time>
      </trkpt>
      <trkpt lat="45.44921" lon="4.73574">
        <ele>324</ele>
        <time>2010-10-28T10:06:38Z</time>
      </trkpt>
      <trkpt lat="45.44917" lon="4.7356">
        <ele>324</ele>
        <time>2010-10-28T10:06:45Z</time>
      </trkpt>
      <trkpt lat="45.44912" lon="4.73545">
        <ele>324</ele>
        <time>2010-10-28T10:06:55Z</time>
      </trkpt>
      <trkpt lat="45.44907" lon="4.73531">
        <ele>324</ele>
        <time>2010-10-28T10:07:03Z</time>
      </trkpt>
      <trkpt lat="45.44902" lon="4.7352">
        <ele>324</ele>
        <time>2010-10-28T10:07:11Z</time>
      </trkpt>
      <trkpt lat="45.44897" lon="4.73507">
        <ele>324</ele>
        <time>2010-10-28T10:07:19Z</time>
      </trkpt>
      <trkpt lat="45.44892" lon="4.73495">
        <ele>324</ele>
        <time>2010-10-28T10:07:28Z</time>
      </trkpt>
      <trkpt lat="45.44888" lon="4.73482">
        <ele>324</ele>
        <time>2010-10-28T10:07:37Z</time>
      </trkpt>
      <trkpt lat="45.44888" lon="4.73468">
        <ele>324</ele>
        <time>2010-10-28T10:07:44Z</time>
      </trkpt>
      <trkpt lat="45.44885" lon="4.73454">
        <ele>325</ele>
        <time>2010-10-28T10:07:52Z</time>
      </trkpt>
      <trkpt lat="45.44882" lon="4.73438">
        <ele>325</ele>
        <time>2010-10-28T10:07:59Z</time>
      </trkpt>
      <trkpt lat="45.44878" lon="4.73426">
        <ele>325</ele>
        <time>2010-10-28T10:08:10Z</time>
      </trkpt>
      <trkpt lat="45.44873" lon="4.73414">
        <ele>326</ele>
        <time>2010-10-28T10:08:18Z</time>
      </trkpt>
      <trkpt lat="45.44869" lon="4.73401">
        <ele>326</ele>
        <time>2010-10-28T10:08:26Z</time>
      </trkpt>
      <trkpt lat="45.44868" lon="4.73387">
        <ele>326</ele>
        <time>2010-10-28T10:08:32Z</time>
      </trkpt>
      <trkpt lat="45.44866" lon="4.73374">
        <ele>326</ele>
        <time>2010-10-28T10:08:41Z</time>
      </trkpt>
      <trkpt lat="45.44862" lon="4.7336">
        <ele>326</ele>
        <time>2010-10-28T10:08:52Z</time>
      </trkpt>
      <trkpt lat="45.44862" lon="4.73347">
        <ele>327</ele>
        <time>2010-10-28T10:09:00Z</time>
      </trkpt>
      <trkpt lat="45.44862" lon="4.73331">
        <ele>328</ele>
        <time>2010-10-28T10:09:05Z</time>
      </trkpt>
      <trkpt lat="45.44862" lon="4.73318">
        <ele>328</ele>
        <time>2010-10-28T10:09:14Z</time>
      </trkpt>
      <trkpt lat="45.44859" lon="4.73304">
        <ele>328</ele>
        <time>2010-10-28T10:09:27Z</time>
      </trkpt>
      <trkpt lat="45.4486" lon="4.73291">
        <ele>328</ele>
        <time>2010-10-28T10:09:33Z</time>
      </trkpt>
      <trkpt lat="45.44861" lon="4.73277">
        <ele>328</ele>
        <time>2010-10-28T10:09:41Z</time>
      </trkpt>
      <trkpt lat="45.44857" lon="4.73266">
        <ele>329</ele>
        <time>2010-10-28T10:09:53Z</time>
      </trkpt>
      <trkpt lat="45.44854" lon="4.73253">
        <ele>329</ele>
        <time>2010-10-28T10:10:05Z</time>
      </trkpt>
      <trkpt lat="45.44855" lon="4.73237">
        <ele>329</ele>
        <time>2010-10-28T10:10:14Z</time>
      </trkpt>
      <trkpt lat="45.44855" lon="4.73224">
        <ele>329</ele>
        <time>2010-10-28T10:10:21Z</time>
      </trkpt>
      <trkpt lat="45.44857" lon="4.73209">
        <ele>329</ele>
        <time>2010-10-28T10:10:31Z</time>
      </trkpt>
      <trkpt lat="45.4486" lon="4.73197">
        <ele>328</ele>
        <time>2010-10-28T10:10:41Z</time>
      </trkpt>
      <trkpt lat="45.44862" lon="4.73182">
        <ele>328</ele>
        <time>2010-10-28T10:10:50Z</time>
      </trkpt>
      <trkpt lat="45.44861" lon="4.73167">
        <ele>328</ele>
        <time>2010-10-28T10:11:01Z</time>
      </trkpt>
      <trkpt lat="45.44862" lon="4.73153">
        <ele>328</ele>
        <time>2010-10-28T10:11:09Z</time>
      </trkpt>
      <trkpt lat="45.44865" lon="4.73141">
        <ele>328</ele>
        <time>2010-10-28T10:11:18Z</time>
      </trkpt>
      <trkpt lat="45.44868" lon="4.73127">
        <ele>328</ele>
        <time>2010-10-28T10:11:26Z</time>
      </trkpt>
      <trkpt lat="45.4487" lon="4.73113">
        <ele>328</ele>
        <time>2010-10-28T10:11:34Z</time>
      </trkpt>
      <trkpt lat="45.44878" lon="4.73107">
        <ele>328</ele>
        <time>2010-10-28T10:11:41Z</time>
      </trkpt>
      <trkpt lat="45.44889" lon="4.73105">
        <ele>327</ele>
        <time>2010-10-28T10:11:51Z</time>
      </trkpt>
      <trkpt lat="45.44899" lon="4.731">
        <ele>327</ele>
        <time>2010-10-28T10:12:00Z</time>
      </trkpt>
      <trkpt lat="45.44909" lon="4.731">
        <ele>326</ele>
        <time>2010-10-28T10:12:08Z</time>
      </trkpt>
      <trkpt lat="45.44919" lon="4.73098">
        <ele>325</ele>
        <time>2010-10-28T10:12:20Z</time>
      </trkpt>
      <trkpt lat="45.44929" lon="4.73086">
        <ele>325</ele>
        <time>2010-10-28T10:12:29Z</time>
      </trkpt>
      <trkpt lat="45.44935" lon="4.73074">
        <ele>326</ele>
        <time>2010-10-28T10:12:40Z</time>
      </trkpt>
      <trkpt lat="45.44941" lon="4.73061">
        <ele>326</ele>
        <time>2010-10-28T10:12:51Z</time>
      </trkpt>
      <trkpt lat="45.44945" lon="4.73047">
        <ele>326</ele>
        <time>2010-10-28T10:13:07Z</time>
      </trkpt>
      <trkpt lat="45.44954" lon="4.73042">
        <ele>327</ele>
        <time>2010-10-28T10:13:15Z</time>
      </trkpt>
      <trkpt lat="45.44964" lon="4.73033">
        <ele>327</ele>
        <time>2010-10-28T10:13:29Z</time>
      </trkpt>
      <trkpt lat="45.44975" lon="4.73032">
        <ele>327</ele>
        <time>2010-10-28T10:13:36Z</time>
      </trkpt>
      <trkpt lat="45.44983" lon="4.73024">
        <ele>327</ele>
        <time>2010-10-28T10:13:48Z</time>
      </trkpt>
      <trkpt lat="45.44992" lon="4.73021">
        <ele>327</ele>
        <time>2010-10-28T10:14:01Z</time>
      </trkpt>
      <trkpt lat="45.45" lon="4.73028">
        <ele>326</ele>
        <time>2010-10-28T10:14:10Z</time>
      </trkpt>
      <trkpt lat="45.4501" lon="4.73029">
        <ele>326</ele>
        <time>2010-10-28T10:14:16Z</time>
      </trkpt>
      <trkpt lat="45.45017" lon="4.73021">
        <ele>326</ele>
        <time>2010-10-28T10:14:36Z</time>
      </trkpt>
      <trkpt lat="45.45024" lon="4.73031">
        <ele>326</ele>
        <time>2010-10-28T10:14:54Z</time>
      </trkpt>
      <trkpt lat="45.45028" lon="4.73043">
        <ele>326</ele>
        <time>2010-10-28T10:15:02Z</time>
      </trkpt>
      <trkpt lat="45.45036" lon="4.73051">
        <ele>325</ele>
        <time>2010-10-28T10:15:20Z</time>
      </trkpt>
      <trkpt lat="45.45045" lon="4.73056">
        <ele>325</ele>
        <time>2010-10-28T10:16:05Z</time>
      </trkpt>
      <trkpt lat="45.45054" lon="4.73057">
        <ele>325</ele>
        <time>2010-10-28T10:16:26Z</time>
      </trkpt>
      <trkpt lat="45.45044" lon="4.73054">
        <ele>325</ele>
        <time>2010-10-28T10:16:56Z</time>
      </trkpt>
      <trkpt lat="45.45038" lon="4.73064">
        <ele>325</ele>
        <time>2010-10-28T10:17:55Z</time>
      </trkpt>
      <trkpt lat="45.45046" lon="4.73056">
        <ele>325</ele>
        <time>2010-10-28T10:18:24Z</time>
      </trkpt>
      <trkpt lat="45.45056" lon="4.73059">
        <ele>325</ele>
        <time>2010-10-28T10:19:38Z</time>
      </trkpt>
      <trkpt lat="45.45046" lon="4.73056">
        <ele>325</ele>
        <time>2010-10-28T10:20:14Z</time>
      </trkpt>
      <trkpt lat="45.45038" lon="4.73065">
        <ele>325</ele>
        <time>2010-10-28T10:20:26Z</time>
      </trkpt>
      <trkpt lat="45.45041" lon="4.73053">
        <ele>325</ele>
        <time>2010-10-28T10:22:41Z</time>
      </trkpt>
      <trkpt lat="45.45034" lon="4.73061">
        <ele>325</ele>
        <time>2010-10-28T10:23:20Z</time>
      </trkpt>
      <trkpt lat="45.45043" lon="4.73056">
        <ele>325</ele>
        <time>2010-10-28T10:24:45Z</time>
      </trkpt>
      <trkpt lat="45.45029" lon="4.73047">
        <ele>325</ele>
        <time>2010-10-28T10:25:35Z</time>
      </trkpt>
      <trkpt lat="45.45038" lon="4.73047">
        <ele>325</ele>
        <time>2010-10-28T10:25:37Z</time>
      </trkpt>
      <trkpt lat="45.45035" lon="4.7306">
        <ele>325</ele>
        <time>2010-10-28T10:26:17Z</time>
      </trkpt>
      <trkpt lat="45.45042" lon="4.73049">
        <ele>325</ele>
        <time>2010-10-28T10:27:18Z</time>
      </trkpt>
      <trkpt lat="45.45038" lon="4.73062">
        <ele>325</ele>
        <time>2010-10-28T10:27:52Z</time>
      </trkpt>
      <trkpt lat="45.45048" lon="4.73056">
        <ele>325</ele>
        <time>2010-10-28T10:28:58Z</time>
      </trkpt>
      <trkpt lat="45.45067" lon="4.73057">
        <ele>325</ele>
        <time>2010-10-28T10:29:00Z</time>
      </trkpt>
      <trkpt lat="45.45056" lon="4.73056">
        <ele>325</ele>
        <time>2010-10-28T10:29:06Z</time>
      </trkpt>
      <trkpt lat="45.45043" lon="4.73055">
        <ele>325</ele>
        <time>2010-10-28T10:29:07Z</time>
      </trkpt>
      <trkpt lat="45.45032" lon="4.73059">
        <ele>325</ele>
        <time>2010-10-28T10:29:11Z</time>
      </trkpt>
      <trkpt lat="45.45041" lon="4.73064">
        <ele>325</ele>
        <time>2010-10-28T10:29:28Z</time>
      </trkpt>
      <trkpt lat="45.45048" lon="4.73055">
        <ele>325</ele>
        <time>2010-10-28T10:30:26Z</time>
      </trkpt>
      <trkpt lat="45.45038" lon="4.73058">
        <ele>325</ele>
        <time>2010-10-28T10:31:28Z</time>
      </trkpt>
      <trkpt lat="45.45045" lon="4.73046">
        <ele>325</ele>
        <time>2010-10-28T10:32:52Z</time>
      </trkpt>
      <trkpt lat="45.45041" lon="4.73058">
        <ele>325</ele>
        <time>2010-10-28T10:32:58Z</time>
      </trkpt>
      <trkpt lat="45.45044" lon="4.73045">
        <ele>325</ele>
        <time>2010-10-28T10:33:50Z</time>
      </trkpt>
      <trkpt lat="45.45036" lon="4.73053">
        <ele>325</ele>
        <time>2010-10-28T10:34:05Z</time>
      </trkpt>
      <trkpt lat="45.45046" lon="4.73053">
        <ele>325</ele>
        <time>2010-10-28T10:34:32Z</time>
      </trkpt>
      <trkpt lat="45.45036" lon="4.73055">
        <ele>325</ele>
        <time>2010-10-28T10:36:21Z</time>
      </trkpt>
      <trkpt lat="45.45045" lon="4.7306">
        <ele>325</ele>
        <time>2010-10-28T10:36:59Z</time>
      </trkpt>
      <trkpt lat="45.45055" lon="4.73059">
        <ele>325</ele>
        <time>2010-10-28T10:39:55Z</time>
      </trkpt>
      <trkpt lat="45.45046" lon="4.73054">
        <ele>325</ele>
        <time>2010-10-28T10:40:38Z</time>
      </trkpt>
      <trkpt lat="45.45036" lon="4.73054">
        <ele>325</ele>
        <time>2010-10-28T10:42:13Z</time>
      </trkpt>
      <trkpt lat="45.45046" lon="4.73053">
        <ele>325</ele>
        <time>2010-10-28T10:43:42Z</time>
      </trkpt>
      <trkpt lat="45.45038" lon="4.73059">
        <ele>325</ele>
        <time>2010-10-28T10:47:44Z</time>
      </trkpt>
      <trkpt lat="45.45046" lon="4.73064">
        <ele>325</ele>
        <time>2010-10-28T10:49:51Z</time>
      </trkpt>
      <trkpt lat="45.45037" lon="4.73065">
        <ele>325</ele>
        <time>2010-10-28T10:53:43Z</time>
      </trkpt>
      <trkpt lat="45.45031" lon="4.73054">
        <ele>325</ele>
        <time>2010-10-28T10:55:34Z</time>
      </trkpt>
      <trkpt lat="45.45038" lon="4.73062">
        <ele>325</ele>
        <time>2010-10-28T10:56:41Z</time>
      </trkpt>
      <trkpt lat="45.45048" lon="4.73061">
        <ele>325</ele>
        <time>2010-10-28T11:08:29Z</time>
      </trkpt>
      <trkpt lat="45.45039" lon="4.73059">
        <ele>325</ele>
        <time>2010-10-28T11:09:11Z</time>
      </trkpt>
      <trkpt lat="45.45048" lon="4.73064">
        <ele>325</ele>
        <time>2010-10-28T11:10:33Z</time>
      </trkpt>
      <trkpt lat="45.45039" lon="4.7306">
        <ele>325</ele>
        <time>2010-10-28T11:12:14Z</time>
      </trkpt>
      <trkpt lat="45.45038" lon="4.73047">
        <ele>325</ele>
        <time>2010-10-28T11:40:32Z</time>
      </trkpt>
      <trkpt lat="45.45041" lon="4.73059">
        <ele>325</ele>
        <time>2010-10-28T11:42:31Z</time>
      </trkpt>
      <trkpt lat="45.45036" lon="4.73047">
        <ele>325</ele>
        <time>2010-10-28T11:48:53Z</time>
      </trkpt>
      <trkpt lat="45.45029" lon="4.73039">
        <ele>326</ele>
        <time>2010-10-28T11:50:49Z</time>
      </trkpt>
      <trkpt lat="45.45025" lon="4.73027">
        <ele>326</ele>
        <time>2010-10-28T11:51:00Z</time>
      </trkpt>
      <trkpt lat="45.45019" lon="4.73015">
        <ele>326</ele>
        <time>2010-10-28T11:51:08Z</time>
      </trkpt>
      <trkpt lat="45.45007" lon="4.73011">
        <ele>327</ele>
        <time>2010-10-28T11:51:20Z</time>
      </trkpt>
      <trkpt lat="45.44998" lon="4.73005">
        <ele>328</ele>
        <time>2010-10-28T11:51:31Z</time>
      </trkpt>
      <trkpt lat="45.4499" lon="4.72997">
        <ele>329</ele>
        <time>2010-10-28T11:51:40Z</time>
      </trkpt>
      <trkpt lat="45.44979" lon="4.72996">
        <ele>330</ele>
        <time>2010-10-28T11:51:46Z</time>
      </trkpt>
      <trkpt lat="45.4497" lon="4.72992">
        <ele>331</ele>
        <time>2010-10-28T11:51:57Z</time>
      </trkpt>
      <trkpt lat="45.44959" lon="4.72986">
        <ele>331</ele>
        <time>2010-10-28T11:52:08Z</time>
      </trkpt>
      <trkpt lat="45.44966" lon="4.72975">
        <ele>331</ele>
        <time>2010-10-28T11:52:15Z</time>
      </trkpt>
      <trkpt lat="45.44968" lon="4.72962">
        <ele>332</ele>
        <time>2010-10-28T11:52:24Z</time>
      </trkpt>
      <trkpt lat="45.44976" lon="4.72952">
        <ele>332</ele>
        <time>2010-10-28T11:52:46Z</time>
      </trkpt>
      <trkpt lat="45.44981" lon="4.72938">
        <ele>333</ele>
        <time>2010-10-28T11:52:56Z</time>
      </trkpt>
      <trkpt lat="45.44974" lon="4.72926">
        <ele>333</ele>
        <time>2010-10-28T11:53:05Z</time>
      </trkpt>
      <trkpt lat="45.44972" lon="4.72911">
        <ele>337</ele>
        <time>2010-10-28T11:53:19Z</time>
      </trkpt>
      <trkpt lat="45.44965" lon="4.72902">
        <ele>337</ele>
        <time>2010-10-28T11:53:26Z</time>
      </trkpt>
      <trkpt lat="45.44956" lon="4.72891">
        <ele>338</ele>
        <time>2010-10-28T11:53:38Z</time>
      </trkpt>
      <trkpt lat="45.44955" lon="4.72878">
        <ele>339</ele>
        <time>2010-10-28T11:53:44Z</time>
      </trkpt>
      <trkpt lat="45.44953" lon="4.72864">
        <ele>339</ele>
        <time>2010-10-28T11:53:55Z</time>
      </trkpt>
      <trkpt lat="45.44953" lon="4.72851">
        <ele>340</ele>
        <time>2010-10-28T11:54:07Z</time>
      </trkpt>
      <trkpt lat="45.44952" lon="4.72837">
        <ele>340</ele>
        <time>2010-10-28T11:54:17Z</time>
      </trkpt>
      <trkpt lat="45.44946" lon="4.72827">
        <ele>343</ele>
        <time>2010-10-28T11:54:26Z</time>
      </trkpt>
      <trkpt lat="45.44941" lon="4.72815">
        <ele>344</ele>
        <time>2010-10-28T11:54:38Z</time>
      </trkpt>
      <trkpt lat="45.44938" lon="4.72802">
        <ele>344</ele>
        <time>2010-10-28T11:54:48Z</time>
      </trkpt>
      <trkpt lat="45.4494" lon="4.72789">
        <ele>344</ele>
        <time>2010-10-28T11:54:59Z</time>
      </trkpt>
      <trkpt lat="45.44933" lon="4.72778">
        <ele>345</ele>
        <time>2010-10-28T11:55:14Z</time>
      </trkpt>
      <trkpt lat="45.44929" lon="4.72765">
        <ele>345</ele>
        <time>2010-10-28T11:55:24Z</time>
      </trkpt>
      <trkpt lat="45.44924" lon="4.72754">
        <ele>347</ele>
        <time>2010-10-28T11:55:34Z</time>
      </trkpt>
      <trkpt lat="45.44918" lon="4.72743">
        <ele>348</ele>
        <time>2010-10-28T11:55:47Z</time>
      </trkpt>
      <trkpt lat="45.44911" lon="4.72735">
        <ele>349</ele>
        <time>2010-10-28T11:55:56Z</time>
      </trkpt>
      <trkpt lat="45.44905" lon="4.72722">
        <ele>350</ele>
        <time>2010-10-28T11:56:06Z</time>
      </trkpt>
      <trkpt lat="45.44897" lon="4.72715">
        <ele>350</ele>
        <time>2010-10-28T11:56:15Z</time>
      </trkpt>
      <trkpt lat="45.44889" lon="4.727">
        <ele>351</ele>
        <time>2010-10-28T11:56:27Z</time>
      </trkpt>
      <trkpt lat="45.44885" lon="4.72687">
        <ele>351</ele>
        <time>2010-10-28T11:56:36Z</time>
      </trkpt>
      <trkpt lat="45.44878" lon="4.72679">
        <ele>351</ele>
        <time>2010-10-28T11:56:42Z</time>
      </trkpt>
      <trkpt lat="45.44871" lon="4.7267">
        <ele>351</ele>
        <time>2010-10-28T11:56:51Z</time>
      </trkpt>
      <trkpt lat="45.44864" lon="4.72659">
        <ele>354</ele>
        <time>2010-10-28T11:57:00Z</time>
      </trkpt>
      <trkpt lat="45.44859" lon="4.72648">
        <ele>354</ele>
        <time>2010-10-28T11:57:09Z</time>
      </trkpt>
      <trkpt lat="45.44855" lon="4.72635">
        <ele>354</ele>
        <time>2010-10-28T11:57:22Z</time>
      </trkpt>
      <trkpt lat="45.4485" lon="4.72623">
        <ele>354</ele>
        <time>2010-10-28T11:57:37Z</time>
      </trkpt>
      <trkpt lat="45.44845" lon="4.7261">
        <ele>355</ele>
        <time>2010-10-28T11:57:44Z</time>
      </trkpt>
      <trkpt lat="45.44837" lon="4.72601">
        <ele>355</ele>
        <time>2010-10-28T11:57:52Z</time>
      </trkpt>
      <trkpt lat="45.44835" lon="4.72588">
        <ele>356</ele>
        <time>2010-10-28T11:58:02Z</time>
      </trkpt>
      <trkpt lat="45.44834" lon="4.72574">
        <ele>357</ele>
        <time>2010-10-28T11:58:10Z</time>
      </trkpt>
      <trkpt lat="45.44831" lon="4.7256">
        <ele>358</ele>
        <time>2010-10-28T11:58:22Z</time>
      </trkpt>
      <trkpt lat="45.44826" lon="4.72548">
        <ele>358</ele>
        <time>2010-10-28T11:58:29Z</time>
      </trkpt>
      <trkpt lat="45.44817" lon="4.72548">
        <ele>358</ele>
        <time>2010-10-28T11:58:42Z</time>
      </trkpt>
      <trkpt lat="45.44811" lon="4.72558">
        <ele>358</ele>
        <time>2010-10-28T11:58:50Z</time>
      </trkpt>
      <trkpt lat="45.44801" lon="4.72559">
        <ele>358</ele>
        <time>2010-10-28T11:59:03Z</time>
      </trkpt>
      <trkpt lat="45.44791" lon="4.72563">
        <ele>357</ele>
        <time>2010-10-28T11:59:11Z</time>
      </trkpt>
      <trkpt lat="45.44782" lon="4.72562">
        <ele>357</ele>
        <time>2010-10-28T11:59:21Z</time>
      </trkpt>
      <trkpt lat="45.44772" lon="4.7256">
        <ele>357</ele>
        <time>2010-10-28T11:59:27Z</time>
      </trkpt>
      <trkpt lat="45.44762" lon="4.72556">
        <ele>357</ele>
        <time>2010-10-28T11:59:35Z</time>
      </trkpt>
      <trkpt lat="45.44758" lon="4.72544">
        <ele>357</ele>
        <time>2010-10-28T11:59:44Z</time>
      </trkpt>
      <trkpt lat="45.44753" lon="4.72532">
        <ele>358</ele>
        <time>2010-10-28T11:59:52Z</time>
      </trkpt>
      <trkpt lat="45.4475" lon="4.72519">
        <ele>358</ele>
        <time>2010-10-28T12:00:12Z</time>
      </trkpt>
      <trkpt lat="45.44747" lon="4.72507">
        <ele>358</ele>
        <time>2010-10-28T12:00:21Z</time>
      </trkpt>
      <trkpt lat="45.4474" lon="4.72498">
        <ele>359</ele>
        <time>2010-10-28T12:00:31Z</time>
      </trkpt>
      <trkpt lat="45.44733" lon="4.72487">
        <ele>360</ele>
        <time>2010-10-28T12:00:41Z</time>
      </trkpt>
      <trkpt lat="45.44728" lon="4.72476">
        <ele>360</ele>
        <time>2010-10-28T12:00:49Z</time>
      </trkpt>
      <trkpt lat="45.44723" lon="4.72464">
        <ele>360</ele>
        <time>2010-10-28T12:00:58Z</time>
      </trkpt>
      <trkpt lat="45.44717" lon="4.72453">
        <ele>361</ele>
        <time>2010-10-28T12:01:07Z</time>
      </trkpt>
      <trkpt lat="45.44712" lon="4.7244">
        <ele>361</ele>
        <time>2010-10-28T12:01:17Z</time>
      </trkpt>
      <trkpt lat="45.44704" lon="4.72431">
        <ele>361</ele>
        <time>2010-10-28T12:01:27Z</time>
      </trkpt>
      <trkpt lat="45.44697" lon="4.72421">
        <ele>361</ele>
        <time>2010-10-28T12:01:35Z</time>
      </trkpt>
      <trkpt lat="45.4469" lon="4.72411">
        <ele>364</ele>
        <time>2010-10-28T12:01:44Z</time>
      </trkpt>
      <trkpt lat="45.44684" lon="4.72402">
        <ele>364</ele>
        <time>2010-10-28T12:01:53Z</time>
      </trkpt>
      <trkpt lat="45.44676" lon="4.72393">
        <ele>364</ele>
        <time>2010-10-28T12:02:01Z</time>
      </trkpt>
      <trkpt lat="45.44667" lon="4.72381">
        <ele>365</ele>
        <time>2010-10-28T12:02:13Z</time>
      </trkpt>
      <trkpt lat="45.44671" lon="4.72368">
        <ele>365</ele>
        <time>2010-10-28T12:03:04Z</time>
      </trkpt>
      <trkpt lat="45.44675" lon="4.72356">
        <ele>366</ele>
        <time>2010-10-28T12:03:19Z</time>
      </trkpt>
      <trkpt lat="45.4468" lon="4.72344">
        <ele>366</ele>
        <time>2010-10-28T12:03:31Z</time>
      </trkpt>
      <trkpt lat="45.44684" lon="4.72332">
        <ele>368</ele>
        <time>2010-10-28T12:03:43Z</time>
      </trkpt>
      <trkpt lat="45.44689" lon="4.72319">
        <ele>368</ele>
        <time>2010-10-28T12:03:55Z</time>
      </trkpt>
      <trkpt lat="45.44692" lon="4.72306">
        <ele>369</ele>
        <time>2010-10-28T12:04:04Z</time>
      </trkpt>
      <trkpt lat="45.44692" lon="4.72293">
        <ele>369</ele>
        <time>2010-10-28T12:04:21Z</time>
      </trkpt>
      <trkpt lat="45.44685" lon="4.72282">
        <ele>369</ele>
        <time>2010-10-28T12:04:31Z</time>
      </trkpt>
      <trkpt lat="45.44677" lon="4.72275">
        <ele>370</ele>
        <time>2010-10-28T12:04:40Z</time>
      </trkpt>
      <trkpt lat="45.44668" lon="4.72267">
        <ele>370</ele>
        <time>2010-10-28T12:04:50Z</time>
      </trkpt>
      <trkpt lat="45.44662" lon="4.72257">
        <ele>371</ele>
        <time>2010-10-28T12:04:58Z</time>
      </trkpt>
      <trkpt lat="45.44654" lon="4.72249">
        <ele>373</ele>
        <time>2010-10-28T12:05:07Z</time>
      </trkpt>
      <trkpt lat="45.44646" lon="4.72243">
        <ele>373</ele>
        <time>2010-10-28T12:05:15Z</time>
      </trkpt>
      <trkpt lat="45.44639" lon="4.72233">
        <ele>373</ele>
        <time>2010-10-28T12:05:24Z</time>
      </trkpt>
      <trkpt lat="45.44633" lon="4.72223">
        <ele>374</ele>
        <time>2010-10-28T12:05:32Z</time>
      </trkpt>
      <trkpt lat="45.44628" lon="4.72211">
        <ele>374</ele>
        <time>2010-10-28T12:05:41Z</time>
      </trkpt>
      <trkpt lat="45.44622" lon="4.722">
        <ele>374</ele>
        <time>2010-10-28T12:05:49Z</time>
      </trkpt>
      <trkpt lat="45.44616" lon="4.72188">
        <ele>375</ele>
        <time>2010-10-28T12:05:59Z</time>
      </trkpt>
      <trkpt lat="45.44612" lon="4.72176">
        <ele>375</ele>
        <time>2010-10-28T12:06:11Z</time>
      </trkpt>
      <trkpt lat="45.44608" lon="4.72164">
        <ele>377</ele>
        <time>2010-10-28T12:06:19Z</time>
      </trkpt>
      <trkpt lat="45.44606" lon="4.72151">
        <ele>378</ele>
        <time>2010-10-28T12:06:33Z</time>
      </trkpt>
      <trkpt lat="45.44603" lon="4.72137">
        <ele>378</ele>
        <time>2010-10-28T12:06:41Z</time>
      </trkpt>
      <trkpt lat="45.44599" lon="4.72125">
        <ele>379</ele>
        <time>2010-10-28T12:06:49Z</time>
      </trkpt>
      <trkpt lat="45.44599" lon="4.72109">
        <ele>379</ele>
        <time>2010-10-28T12:06:59Z</time>
      </trkpt>
      <trkpt lat="45.44599" lon="4.72093">
        <ele>380</ele>
        <time>2010-10-28T12:07:05Z</time>
      </trkpt>
      <trkpt lat="45.44596" lon="4.7208">
        <ele>382</ele>
        <time>2010-10-28T12:07:13Z</time>
      </trkpt>
      <trkpt lat="45.44594" lon="4.72066">
        <ele>382</ele>
        <time>2010-10-28T12:07:22Z</time>
      </trkpt>
      <trkpt lat="45.44591" lon="4.72053">
        <ele>382</ele>
        <time>2010-10-28T12:07:45Z</time>
      </trkpt>
      <trkpt lat="45.44591" lon="4.72039">
        <ele>383</ele>
        <time>2010-10-28T12:08:49Z</time>
      </trkpt>
      <trkpt lat="45.44589" lon="4.72024">
        <ele>384</ele>
        <time>2010-10-28T12:08:58Z</time>
      </trkpt>
      <trkpt lat="45.44585" lon="4.72012">
        <ele>385</ele>
        <time>2010-10-28T12:09:07Z</time>
      </trkpt>
      <trkpt lat="45.44579" lon="4.71999">
        <ele>387</ele>
        <time>2010-10-28T12:09:24Z</time>
      </trkpt>
      <trkpt lat="45.44577" lon="4.71986">
        <ele>388</ele>
        <time>2010-10-28T12:09:34Z</time>
      </trkpt>
      <trkpt lat="45.44571" lon="4.71974">
        <ele>389</ele>
        <time>2010-10-28T12:09:47Z</time>
      </trkpt>
      <trkpt lat="45.44565" lon="4.71963">
        <ele>390</ele>
        <time>2010-10-28T12:09:56Z</time>
      </trkpt>
      <trkpt lat="45.44561" lon="4.71951">
        <ele>391</ele>
        <time>2010-10-28T12:10:11Z</time>
      </trkpt>
      <trkpt lat="45.44558" lon="4.71937">
        <ele>392</ele>
        <time>2010-10-28T12:10:22Z</time>
      </trkpt>
      <trkpt lat="45.44554" lon="4.71925">
        <ele>392</ele>
        <time>2010-10-28T12:10:34Z</time>
      </trkpt>
      <trkpt lat="45.44549" lon="4.71914">
        <ele>397</ele>
        <time>2010-10-28T12:10:42Z</time>
      </trkpt>
      <trkpt lat="45.44543" lon="4.71901">
        <ele>397</ele>
        <time>2010-10-28T12:10:51Z</time>
      </trkpt>
      <trkpt lat="45.44537" lon="4.7189">
        <ele>398</ele>
        <time>2010-10-28T12:11:00Z</time>
      </trkpt>
      <trkpt lat="45.44531" lon="4.71878">
        <ele>398</ele>
        <time>2010-10-28T12:11:13Z</time>
      </trkpt>
      <trkpt lat="45.44527" lon="4.71866">
        <ele>399</ele>
        <time>2010-10-28T12:11:19Z</time>
      </trkpt>
      <trkpt lat="45.44521" lon="4.71854">
        <ele>400</ele>
        <time>2010-10-28T12:11:34Z</time>
      </trkpt>
      <trkpt lat="45.44519" lon="4.71838">
        <ele>401</ele>
        <time>2010-10-28T12:11:40Z</time>
      </trkpt>
      <trkpt lat="45.44522" lon="4.71825">
        <ele>403</ele>
        <time>2010-10-28T12:11:53Z</time>
      </trkpt>
      <trkpt lat="45.44515" lon="4.71814">
        <ele>403</ele>
        <time>2010-10-28T12:12:03Z</time>
      </trkpt>
      <trkpt lat="45.4451" lon="4.71801">
        <ele>403</ele>
        <time>2010-10-28T12:12:11Z</time>
      </trkpt>
      <trkpt lat="45.44503" lon="4.71791">
        <ele>403</ele>
        <time>2010-10-28T12:12:20Z</time>
      </trkpt>
      <trkpt lat="45.44499" lon="4.71779">
        <ele>405</ele>
        <time>2010-10-28T12:12:29Z</time>
      </trkpt>
      <trkpt lat="45.44493" lon="4.71766">
        <ele>405</ele>
        <time>2010-10-28T12:12:39Z</time>
      </trkpt>
      <trkpt lat="45.44482" lon="4.71763">
        <ele>405</ele>
        <time>2010-10-28T12:12:49Z</time>
      </trkpt>
      <trkpt lat="45.44474" lon="4.71759">
        <ele>405</ele>
        <time>2010-10-28T12:12:57Z</time>
      </trkpt>
      <trkpt lat="45.44465" lon="4.71753">
        <ele>404</ele>
        <time>2010-10-28T12:13:05Z</time>
      </trkpt>
      <trkpt lat="45.44457" lon="4.71746">
        <ele>407</ele>
        <time>2010-10-28T12:13:21Z</time>
      </trkpt>
      <trkpt lat="45.44451" lon="4.71736">
        <ele>407</ele>
        <time>2010-10-28T12:13:51Z</time>
      </trkpt>
      <trkpt lat="45.44442" lon="4.71729">
        <ele>407</ele>
        <time>2010-10-28T12:13:58Z</time>
      </trkpt>
      <trkpt lat="45.44432" lon="4.71723">
        <ele>407</ele>
        <time>2010-10-28T12:14:07Z</time>
      </trkpt>
      <trkpt lat="45.44424" lon="4.71713">
        <ele>407</ele>
        <time>2010-10-28T12:14:16Z</time>
      </trkpt>
      <trkpt lat="45.44417" lon="4.71703">
        <ele>407</ele>
        <time>2010-10-28T12:14:28Z</time>
      </trkpt>
      <trkpt lat="45.44412" lon="4.7169">
        <ele>407</ele>
        <time>2010-10-28T12:14:40Z</time>
      </trkpt>
      <trkpt lat="45.4441" lon="4.71676">
        <ele>409</ele>
        <time>2010-10-28T12:14:49Z</time>
      </trkpt>
      <trkpt lat="45.44401" lon="4.71665">
        <ele>410</ele>
        <time>2010-10-28T12:15:00Z</time>
      </trkpt>
      <trkpt lat="45.44395" lon="4.71655">
        <ele>410</ele>
        <time>2010-10-28T12:15:10Z</time>
      </trkpt>
      <trkpt lat="45.44387" lon="4.71646">
        <ele>410</ele>
        <time>2010-10-28T12:15:18Z</time>
      </trkpt>
      <trkpt lat="45.44381" lon="4.71636">
        <ele>410</ele>
        <time>2010-10-28T12:16:00Z</time>
      </trkpt>
      <trkpt lat="45.44373" lon="4.71628">
        <ele>410</ele>
        <time>2010-10-28T12:16:09Z</time>
      </trkpt>
      <trkpt lat="45.44366" lon="4.71618">
        <ele>411</ele>
        <time>2010-10-28T12:16:20Z</time>
      </trkpt>
      <trkpt lat="45.44359" lon="4.71608">
        <ele>411</ele>
        <time>2010-10-28T12:16:30Z</time>
      </trkpt>
      <trkpt lat="45.44353" lon="4.71598">
        <ele>411</ele>
        <time>2010-10-28T12:16:42Z</time>
      </trkpt>
      <trkpt lat="45.44346" lon="4.71587">
        <ele>412</ele>
        <time>2010-10-28T12:16:52Z</time>
      </trkpt>
      <trkpt lat="45.44348" lon="4.71573">
        <ele>414</ele>
        <time>2010-10-28T12:17:04Z</time>
      </trkpt>
      <trkpt lat="45.44352" lon="4.71562">
        <ele>414</ele>
        <time>2010-10-28T12:17:15Z</time>
      </trkpt>
      <trkpt lat="45.44353" lon="4.71547">
        <ele>415</ele>
        <time>2010-10-28T12:17:25Z</time>
      </trkpt>
      <trkpt lat="45.4435" lon="4.71532">
        <ele>415</ele>
        <time>2010-10-28T12:17:34Z</time>
      </trkpt>
      <trkpt lat="45.44352" lon="4.71519">
        <ele>416</ele>
        <time>2010-10-28T12:17:41Z</time>
      </trkpt>
      <trkpt lat="45.44357" lon="4.71507">
        <ele>416</ele>
        <time>2010-10-28T12:17:49Z</time>
      </trkpt>
      <trkpt lat="45.44359" lon="4.71492">
        <ele>418</ele>
        <time>2010-10-28T12:17:58Z</time>
      </trkpt>
      <trkpt lat="45.4436" lon="4.71478">
        <ele>419</ele>
        <time>2010-10-28T12:18:13Z</time>
      </trkpt>
      <trkpt lat="45.44365" lon="4.71467">
        <ele>419</ele>
        <time>2010-10-28T12:18:22Z</time>
      </trkpt>
      <trkpt lat="45.44363" lon="4.71454">
        <ele>419</ele>
        <time>2010-10-28T12:18:30Z</time>
      </trkpt>
      <trkpt lat="45.4436" lon="4.71441">
        <ele>420</ele>
        <time>2010-10-28T12:18:39Z</time>
      </trkpt>
      <trkpt lat="45.4436" lon="4.71428">
        <ele>420</ele>
        <time>2010-10-28T12:18:47Z</time>
      </trkpt>
      <trkpt lat="45.44359" lon="4.71414">
        <ele>422</ele>
        <time>2010-10-28T12:18:57Z</time>
      </trkpt>
      <trkpt lat="45.4436" lon="4.714">
        <ele>423</ele>
        <time>2010-10-28T12:19:06Z</time>
      </trkpt>
      <trkpt lat="45.4436" lon="4.71387">
        <ele>423</ele>
        <time>2010-10-28T12:19:20Z</time>
      </trkpt>
      <trkpt lat="45.44359" lon="4.71372">
        <ele>424</ele>
        <time>2010-10-28T12:19:30Z</time>
      </trkpt>
      <trkpt lat="45.4436" lon="4.71359">
        <ele>424</ele>
        <time>2010-10-28T12:19:39Z</time>
      </trkpt>
      <trkpt lat="45.44353" lon="4.7135">
        <ele>424</ele>
        <time>2010-10-28T12:19:47Z</time>
      </trkpt>
      <trkpt lat="45.44346" lon="4.71336">
        <ele>425</ele>
        <time>2010-10-28T12:19:57Z</time>
      </trkpt>
      <trkpt lat="45.44344" lon="4.71322">
        <ele>427</ele>
        <time>2010-10-28T12:20:10Z</time>
      </trkpt>
      <trkpt lat="45.44342" lon="4.71308">
        <ele>427</ele>
        <time>2010-10-28T12:20:19Z</time>
      </trkpt>
      <trkpt lat="45.44338" lon="4.71295">
        <ele>428</ele>
        <time>2010-10-28T12:20:26Z</time>
      </trkpt>
      <trkpt lat="45.44335" lon="4.71281">
        <ele>428</ele>
        <time>2010-10-28T12:20:37Z</time>
      </trkpt>
      <trkpt lat="45.44333" lon="4.71267">
        <ele>429</ele>
        <time>2010-10-28T12:20:45Z</time>
      </trkpt>
      <trkpt lat="45.44331" lon="4.71253">
        <ele>431</ele>
        <time>2010-10-28T12:20:55Z</time>
      </trkpt>
      <trkpt lat="45.44328" lon="4.71239">
        <ele>431</ele>
        <time>2010-10-28T12:21:06Z</time>
      </trkpt>
      <trkpt lat="45.44326" lon="4.71226">
        <ele>432</ele>
        <time>2010-10-28T12:21:14Z</time>
      </trkpt>
      <trkpt lat="45.44324" lon="4.71211">
        <ele>432</ele>
        <time>2010-10-28T12:21:23Z</time>
      </trkpt>
      <trkpt lat="45.44322" lon="4.71199">
        <ele>432</ele>
        <time>2010-10-28T12:21:31Z</time>
      </trkpt>
      <trkpt lat="45.44318" lon="4.71185">
        <ele>433</ele>
        <time>2010-10-28T12:21:40Z</time>
      </trkpt>
      <trkpt lat="45.4432" lon="4.71172">
        <ele>433</ele>
        <time>2010-10-28T12:22:19Z</time>
      </trkpt>
      <trkpt lat="45.44321" lon="4.71158">
        <ele>435</ele>
        <time>2010-10-28T12:22:31Z</time>
      </trkpt>
      <trkpt lat="45.44321" lon="4.71145">
        <ele>435</ele>
        <time>2010-10-28T12:22:39Z</time>
      </trkpt>
      <trkpt lat="45.44315" lon="4.7113">
        <ele>436</ele>
        <time>2010-10-28T12:22:52Z</time>
      </trkpt>
      <trkpt lat="45.44314" lon="4.71116">
        <ele>436</ele>
        <time>2010-10-28T12:23:06Z</time>
      </trkpt>
      <trkpt lat="45.44313" lon="4.71103">
        <ele>437</ele>
        <time>2010-10-28T12:23:26Z</time>
      </trkpt>
      <trkpt lat="45.4431" lon="4.7109">
        <ele>437</ele>
        <time>2010-10-28T12:23:34Z</time>
      </trkpt>
      <trkpt lat="45.44307" lon="4.71077">
        <ele>439</ele>
        <time>2010-10-28T12:23:51Z</time>
      </trkpt>
      <trkpt lat="45.44305" lon="4.71064">
        <ele>439</ele>
        <time>2010-10-28T12:24:00Z</time>
      </trkpt>
      <trkpt lat="45.44302" lon="4.7105">
        <ele>439</ele>
        <time>2010-10-28T12:24:14Z</time>
      </trkpt>
      <trkpt lat="45.44297" lon="4.71033">
        <ele>440</ele>
        <time>2010-10-28T12:24:28Z</time>
      </trkpt>
      <trkpt lat="45.44288" lon="4.71026">
        <ele>440</ele>
        <time>2010-10-28T12:24:41Z</time>
      </trkpt>
      <trkpt lat="45.44282" lon="4.71015">
        <ele>441</ele>
        <time>2010-10-28T12:24:48Z</time>
      </trkpt>
      <trkpt lat="45.44278" lon="4.71003">
        <ele>441</ele>
        <time>2010-10-28T12:25:04Z</time>
      </trkpt>
      <trkpt lat="45.44273" lon="4.70991">
        <ele>441</ele>
        <time>2010-10-28T12:25:15Z</time>
      </trkpt>
      <trkpt lat="45.44269" lon="4.70979">
        <ele>441</ele>
        <time>2010-10-28T12:25:23Z</time>
      </trkpt>
      <trkpt lat="45.44266" lon="4.70966">
        <ele>441</ele>
        <time>2010-10-28T12:25:35Z</time>
      </trkpt>
      <trkpt lat="45.44258" lon="4.70958">
        <ele>441</ele>
        <time>2010-10-28T12:25:47Z</time>
      </trkpt>
      <trkpt lat="45.44255" lon="4.70945">
        <ele>441</ele>
        <time>2010-10-28T12:25:56Z</time>
      </trkpt>
      <trkpt lat="45.4425" lon="4.70932">
        <ele>446</ele>
        <time>2010-10-28T12:26:06Z</time>
      </trkpt>
      <trkpt lat="45.44241" lon="4.70918">
        <ele>446</ele>
        <time>2010-10-28T12:26:20Z</time>
      </trkpt>
      <trkpt lat="45.44239" lon="4.70906">
        <ele>446</ele>
        <time>2010-10-28T12:26:28Z</time>
      </trkpt>
      <trkpt lat="45.44232" lon="4.70897">
        <ele>446</ele>
        <time>2010-10-28T12:26:36Z</time>
      </trkpt>
      <trkpt lat="45.44225" lon="4.70886">
        <ele>446</ele>
        <time>2010-10-28T12:26:43Z</time>
      </trkpt>
      <trkpt lat="45.44219" lon="4.70874">
        <ele>446</ele>
        <time>2010-10-28T12:26:50Z</time>
      </trkpt>
      <trkpt lat="45.44218" lon="4.70856">
        <ele>446</ele>
        <time>2010-10-28T12:26:59Z</time>
      </trkpt>
      <trkpt lat="45.44217" lon="4.70842">
        <ele>446</ele>
        <time>2010-10-28T12:27:07Z</time>
      </trkpt>
      <trkpt lat="45.44211" lon="4.70833">
        <ele>445</ele>
        <time>2010-10-28T12:27:14Z</time>
      </trkpt>
      <trkpt lat="45.44206" lon="4.70819">
        <ele>445</ele>
        <time>2010-10-28T12:27:21Z</time>
      </trkpt>
      <trkpt lat="45.44203" lon="4.70805">
        <ele>445</ele>
        <time>2010-10-28T12:27:28Z</time>
      </trkpt>
      <trkpt lat="45.442" lon="4.70793">
        <ele>445</ele>
        <time>2010-10-28T12:27:38Z</time>
      </trkpt>
      <trkpt lat="45.44195" lon="4.7078">
        <ele>445</ele>
        <time>2010-10-28T12:27:46Z</time>
      </trkpt>
      <trkpt lat="45.44194" lon="4.70767">
        <ele>445</ele>
        <time>2010-10-28T12:27:55Z</time>
      </trkpt>
      <trkpt lat="45.44193" lon="4.70753">
        <ele>445</ele>
        <time>2010-10-28T12:28:02Z</time>
      </trkpt>
      <trkpt lat="45.4419" lon="4.70741">
        <ele>444</ele>
        <time>2010-10-28T12:28:10Z</time>
      </trkpt>
      <trkpt lat="45.44189" lon="4.70727">
        <ele>443</ele>
        <time>2010-10-28T12:28:23Z</time>
      </trkpt>
      <trkpt lat="45.44186" lon="4.70715">
        <ele>443</ele>
        <time>2010-10-28T12:28:34Z</time>
      </trkpt>
      <trkpt lat="45.44183" lon="4.707">
        <ele>443</ele>
        <time>2010-10-28T12:28:49Z</time>
      </trkpt>
      <trkpt lat="45.44184" lon="4.70687">
        <ele>443</ele>
        <time>2010-10-28T12:29:14Z</time>
      </trkpt>
      <trkpt lat="45.44183" lon="4.70673">
        <ele>444</ele>
        <time>2010-10-28T12:29:39Z</time>
      </trkpt>
      <trkpt lat="45.44173" lon="4.7067">
        <ele>445</ele>
        <time>2010-10-28T12:29:55Z</time>
      </trkpt>
      <trkpt lat="45.44181" lon="4.70662">
        <ele>442</ele>
        <time>2010-10-28T12:29:58Z</time>
      </trkpt>
      <trkpt lat="45.44176" lon="4.70649">
        <ele>442</ele>
        <time>2010-10-28T12:30:12Z</time>
      </trkpt>
      <trkpt lat="45.4417" lon="4.70636">
        <ele>441</ele>
        <time>2010-10-28T12:30:20Z</time>
      </trkpt>
      <trkpt lat="45.44162" lon="4.70627">
        <ele>445</ele>
        <time>2010-10-28T12:30:25Z</time>
      </trkpt>
      <trkpt lat="45.4416" lon="4.70613">
        <ele>444</ele>
        <time>2010-10-28T12:30:37Z</time>
      </trkpt>
      <trkpt lat="45.44162" lon="4.70595">
        <ele>443</ele>
        <time>2010-10-28T12:30:50Z</time>
      </trkpt>
      <trkpt lat="45.44163" lon="4.70582">
        <ele>442</ele>
        <time>2010-10-28T12:31:04Z</time>
      </trkpt>
      <trkpt lat="45.44155" lon="4.70573">
        <ele>442</ele>
        <time>2010-10-28T12:31:11Z</time>
      </trkpt>
      <trkpt lat="45.44147" lon="4.70564">
        <ele>442</ele>
        <time>2010-10-28T12:31:16Z</time>
      </trkpt>
      <trkpt lat="45.44141" lon="4.70553">
        <ele>442</ele>
        <time>2010-10-28T12:31:22Z</time>
      </trkpt>
      <trkpt lat="45.44138" lon="4.7054">
        <ele>442</ele>
        <time>2010-10-28T12:31:31Z</time>
      </trkpt>
      <trkpt lat="45.44133" lon="4.70529">
        <ele>442</ele>
        <time>2010-10-28T12:31:39Z</time>
      </trkpt>
      <trkpt lat="45.44127" lon="4.70519">
        <ele>442</ele>
        <time>2010-10-28T12:31:44Z</time>
      </trkpt>
      <trkpt lat="45.44125" lon="4.70506">
        <ele>441</ele>
        <time>2010-10-28T12:31:53Z</time>
      </trkpt>
      <trkpt lat="45.44118" lon="4.70496">
        <ele>440</ele>
        <time>2010-10-28T12:32:02Z</time>
      </trkpt>
      <trkpt lat="45.44114" lon="4.70484">
        <ele>440</ele>
        <time>2010-10-28T12:32:14Z</time>
      </trkpt>
      <trkpt lat="45.4411" lon="4.7047">
        <ele>440</ele>
        <time>2010-10-28T12:32:23Z</time>
      </trkpt>
      <trkpt lat="45.44106" lon="4.70458">
        <ele>439</ele>
        <time>2010-10-28T12:32:31Z</time>
      </trkpt>
      <trkpt lat="45.44104" lon="4.70444">
        <ele>439</ele>
        <time>2010-10-28T12:32:40Z</time>
      </trkpt>
      <trkpt lat="45.441" lon="4.70431">
        <ele>440</ele>
        <time>2010-10-28T12:32:49Z</time>
      </trkpt>
      <trkpt lat="45.44098" lon="4.70416">
        <ele>439</ele>
        <time>2010-10-28T12:33:00Z</time>
      </trkpt>
      <trkpt lat="45.44092" lon="4.70397">
        <ele>438</ele>
        <time>2010-10-28T12:33:11Z</time>
      </trkpt>
      <trkpt lat="45.44085" lon="4.70386">
        <ele>437</ele>
        <time>2010-10-28T12:33:26Z</time>
      </trkpt>
      <trkpt lat="45.44079" lon="4.70376">
        <ele>440</ele>
        <time>2010-10-28T12:33:32Z</time>
      </trkpt>
      <trkpt lat="45.44074" lon="4.70363">
        <ele>440</ele>
        <time>2010-10-28T12:33:40Z</time>
      </trkpt>
      <trkpt lat="45.44069" lon="4.70352">
        <ele>440</ele>
        <time>2010-10-28T12:33:48Z</time>
      </trkpt>
      <trkpt lat="45.44059" lon="4.70338">
        <ele>440</ele>
        <time>2010-10-28T12:33:58Z</time>
      </trkpt>
      <trkpt lat="45.44061" lon="4.70325">
        <ele>440</ele>
        <time>2010-10-28T12:34:07Z</time>
      </trkpt>
      <trkpt lat="45.44058" lon="4.70311">
        <ele>440</ele>
        <time>2010-10-28T12:34:16Z</time>
      </trkpt>
      <trkpt lat="45.44055" lon="4.70296">
        <ele>440</ele>
        <time>2010-10-28T12:34:30Z</time>
      </trkpt>
      <trkpt lat="45.44051" lon="4.70282">
        <ele>441</ele>
        <time>2010-10-28T12:34:39Z</time>
      </trkpt>
      <trkpt lat="45.44045" lon="4.70271">
        <ele>441</ele>
        <time>2010-10-28T12:34:46Z</time>
      </trkpt>
      <trkpt lat="45.44038" lon="4.70261">
        <ele>441</ele>
        <time>2010-10-28T12:34:55Z</time>
      </trkpt>
      <trkpt lat="45.44033" lon="4.70248">
        <ele>442</ele>
        <time>2010-10-28T12:35:04Z</time>
      </trkpt>
      <trkpt lat="45.44029" lon="4.70236">
        <ele>442</ele>
        <time>2010-10-28T12:35:11Z</time>
      </trkpt>
      <trkpt lat="45.44026" lon="4.70223">
        <ele>442</ele>
        <time>2010-10-28T12:35:20Z</time>
      </trkpt>
      <trkpt lat="45.4402" lon="4.70212">
        <ele>442</ele>
        <time>2010-10-28T12:35:31Z</time>
      </trkpt>
      <trkpt lat="45.44015" lon="4.70201">
        <ele>442</ele>
        <time>2010-10-28T12:35:43Z</time>
      </trkpt>
      <trkpt lat="45.44014" lon="4.70187">
        <ele>443</ele>
        <time>2010-10-28T12:36:07Z</time>
      </trkpt>
      <trkpt lat="45.44013" lon="4.70174">
        <ele>443</ele>
        <time>2010-10-28T12:36:22Z</time>
      </trkpt>
      <trkpt lat="45.44012" lon="4.70159">
        <ele>444</ele>
        <time>2010-10-28T12:36:31Z</time>
      </trkpt>
      <trkpt lat="45.44009" lon="4.70145">
        <ele>443</ele>
        <time>2010-10-28T12:36:40Z</time>
      </trkpt>
      <trkpt lat="45.44006" lon="4.70132">
        <ele>443</ele>
        <time>2010-10-28T12:36:53Z</time>
      </trkpt>
      <trkpt lat="45.44004" lon="4.70117">
        <ele>443</ele>
        <time>2010-10-28T12:37:02Z</time>
      </trkpt>
      <trkpt lat="45.44001" lon="4.70105">
        <ele>444</ele>
        <time>2010-10-28T12:37:12Z</time>
      </trkpt>
      <trkpt lat="45.43996" lon="4.70091">
        <ele>446</ele>
        <time>2010-10-28T12:37:21Z</time>
      </trkpt>
      <trkpt lat="45.43994" lon="4.70078">
        <ele>447</ele>
        <time>2010-10-28T12:37:32Z</time>
      </trkpt>
      <trkpt lat="45.4399" lon="4.70065">
        <ele>448</ele>
        <time>2010-10-28T12:37:40Z</time>
      </trkpt>
      <trkpt lat="45.43986" lon="4.70053">
        <ele>448</ele>
        <time>2010-10-28T12:37:51Z</time>
      </trkpt>
      <trkpt lat="45.43983" lon="4.7004">
        <ele>448</ele>
        <time>2010-10-28T12:37:59Z</time>
      </trkpt>
      <trkpt lat="45.43976" lon="4.7003">
        <ele>448</ele>
        <time>2010-10-28T12:38:08Z</time>
      </trkpt>
      <trkpt lat="45.43971" lon="4.70017">
        <ele>449</ele>
        <time>2010-10-28T12:38:19Z</time>
      </trkpt>
      <trkpt lat="45.4398" lon="4.7001">
        <ele>448</ele>
        <time>2010-10-28T12:38:40Z</time>
      </trkpt>
      <trkpt lat="45.4399" lon="4.7001">
        <ele>447</ele>
        <time>2010-10-28T12:38:57Z</time>
      </trkpt>
      <trkpt lat="45.43998" lon="4.70003">
        <ele>446</ele>
        <time>2010-10-28T12:39:19Z</time>
      </trkpt>
      <trkpt lat="45.44007" lon="4.7">
        <ele>444</ele>
        <time>2010-10-28T12:39:27Z</time>
      </trkpt>
      <trkpt lat="45.44016" lon="4.69996">
        <ele>442</ele>
        <time>2010-10-28T12:39:40Z</time>
      </trkpt>
      <trkpt lat="45.44025" lon="4.69992">
        <ele>441</ele>
        <time>2010-10-28T12:39:46Z</time>
      </trkpt>
      <trkpt lat="45.44036" lon="4.69988">
        <ele>440</ele>
        <time>2010-10-28T12:39:57Z</time>
      </trkpt>
      <trkpt lat="45.44045" lon="4.69982">
        <ele>439</ele>
        <time>2010-10-28T12:40:13Z</time>
      </trkpt>
      <trkpt lat="45.44054" lon="4.69977">
        <ele>438</ele>
        <time>2010-10-28T12:40:26Z</time>
      </trkpt>
      <trkpt lat="45.44064" lon="4.69979">
        <ele>437</ele>
        <time>2010-10-28T12:40:35Z</time>
      </trkpt>
      <trkpt lat="45.44073" lon="4.69971">
        <ele>437</ele>
        <time>2010-10-28T12:40:53Z</time>
      </trkpt>
      <trkpt lat="45.44083" lon="4.69965">
        <ele>436</ele>
        <time>2010-10-28T12:41:02Z</time>
      </trkpt>
      <trkpt lat="45.44094" lon="4.69964">
        <ele>431</ele>
        <time>2010-10-28T12:41:12Z</time>
      </trkpt>
      <trkpt lat="45.44085" lon="4.69957">
        <ele>431</ele>
        <time>2010-10-28T12:41:18Z</time>
      </trkpt>
      <trkpt lat="45.44094" lon="4.69951">
        <ele>430</ele>
        <time>2010-10-28T12:41:27Z</time>
      </trkpt>
      <trkpt lat="45.44103" lon="4.69949">
        <ele>430</ele>
        <time>2010-10-28T12:41:39Z</time>
      </trkpt>
      <trkpt lat="45.44112" lon="4.6995">
        <ele>430</ele>
        <time>2010-10-28T12:41:44Z</time>
      </trkpt>
      <trkpt lat="45.44123" lon="4.69954">
        <ele>430</ele>
        <time>2010-10-28T12:41:53Z</time>
      </trkpt>
      <trkpt lat="45.44133" lon="4.69954">
        <ele>429</ele>
        <time>2010-10-28T12:42:01Z</time>
      </trkpt>
      <trkpt lat="45.44143" lon="4.69955">
        <ele>429</ele>
        <time>2010-10-28T12:42:09Z</time>
      </trkpt>
      <trkpt lat="45.44152" lon="4.69951">
        <ele>429</ele>
        <time>2010-10-28T12:42:18Z</time>
      </trkpt>
      <trkpt lat="45.44161" lon="4.69946">
        <ele>429</ele>
        <time>2010-10-28T12:42:27Z</time>
      </trkpt>
      <trkpt lat="45.44169" lon="4.6994">
        <ele>427</ele>
        <time>2010-10-28T12:42:39Z</time>
      </trkpt>
      <trkpt lat="45.44178" lon="4.69936">
        <ele>427</ele>
        <time>2010-10-28T12:42:46Z</time>
      </trkpt>
      <trkpt lat="45.44188" lon="4.69932">
        <ele>427</ele>
        <time>2010-10-28T12:42:52Z</time>
      </trkpt>
      <trkpt lat="45.44197" lon="4.69927">
        <ele>427</ele>
        <time>2010-10-28T12:43:07Z</time>
      </trkpt>
      <trkpt lat="45.44205" lon="4.6992">
        <ele>427</ele>
        <time>2010-10-28T12:43:15Z</time>
      </trkpt>
      <trkpt lat="45.44214" lon="4.69911">
        <ele>430</ele>
        <time>2010-10-28T12:43:24Z</time>
      </trkpt>
      <trkpt lat="45.44224" lon="4.69911">
        <ele>429</ele>
        <time>2010-10-28T12:43:33Z</time>
      </trkpt>
      <trkpt lat="45.44233" lon="4.69905">
        <ele>429</ele>
        <time>2010-10-28T12:43:41Z</time>
      </trkpt>
      <trkpt lat="45.44238" lon="4.69893">
        <ele>430</ele>
        <time>2010-10-28T12:43:51Z</time>
      </trkpt>
      <trkpt lat="45.44245" lon="4.69884">
        <ele>430</ele>
        <time>2010-10-28T12:44:00Z</time>
      </trkpt>
      <trkpt lat="45.44256" lon="4.69883">
        <ele>431</ele>
        <time>2010-10-28T12:44:08Z</time>
      </trkpt>
      <trkpt lat="45.44264" lon="4.69876">
        <ele>432</ele>
        <time>2010-10-28T12:44:21Z</time>
      </trkpt>
      <trkpt lat="45.44273" lon="4.69872">
        <ele>432</ele>
        <time>2010-10-28T12:44:29Z</time>
      </trkpt>
      <trkpt lat="45.44283" lon="4.69865">
        <ele>433</ele>
        <time>2010-10-28T12:44:40Z</time>
      </trkpt>
      <trkpt lat="45.44292" lon="4.69867">
        <ele>433</ele>
        <time>2010-10-28T12:44:47Z</time>
      </trkpt>
      <trkpt lat="45.443" lon="4.69859">
        <ele>433</ele>
        <time>2010-10-28T12:44:59Z</time>
      </trkpt>
      <trkpt lat="45.4431" lon="4.69855">
        <ele>434</ele>
        <time>2010-10-28T12:45:09Z</time>
      </trkpt>
      <trkpt lat="45.44319" lon="4.69846">
        <ele>435</ele>
        <time>2010-10-28T12:45:25Z</time>
      </trkpt>
      <trkpt lat="45.44329" lon="4.69843">
        <ele>436</ele>
        <time>2010-10-28T12:45:34Z</time>
      </trkpt>
      <trkpt lat="45.44336" lon="4.69853">
        <ele>437</ele>
        <time>2010-10-28T12:45:43Z</time>
      </trkpt>
      <trkpt lat="45.44341" lon="4.69866">
        <ele>436</ele>
        <time>2010-10-28T12:45:54Z</time>
      </trkpt>
      <trkpt lat="45.44344" lon="4.69879">
        <ele>436</ele>
        <time>2010-10-28T12:46:04Z</time>
      </trkpt>
      <trkpt lat="45.44353" lon="4.69887">
        <ele>436</ele>
        <time>2010-10-28T12:46:10Z</time>
      </trkpt>
      <trkpt lat="45.44354" lon="4.69901">
        <ele>436</ele>
        <time>2010-10-28T12:46:21Z</time>
      </trkpt>
      <trkpt lat="45.44363" lon="4.69911">
        <ele>435</ele>
        <time>2010-10-28T12:46:30Z</time>
      </trkpt>
      <trkpt lat="45.44369" lon="4.69921">
        <ele>432</ele>
        <time>2010-10-28T12:46:40Z</time>
      </trkpt>
      <trkpt lat="45.44377" lon="4.69927">
        <ele>432</ele>
        <time>2010-10-28T12:46:52Z</time>
      </trkpt>
      <trkpt lat="45.44386" lon="4.6992">
        <ele>432</ele>
        <time>2010-10-28T12:47:02Z</time>
      </trkpt>
      <trkpt lat="45.44393" lon="4.69911">
        <ele>435</ele>
        <time>2010-10-28T12:47:11Z</time>
      </trkpt>
      <trkpt lat="45.44401" lon="4.699">
        <ele>436</ele>
        <time>2010-10-28T12:47:20Z</time>
      </trkpt>
      <trkpt lat="45.44409" lon="4.69891">
        <ele>436</ele>
        <time>2010-10-28T12:47:29Z</time>
      </trkpt>
      <trkpt lat="45.44416" lon="4.6988">
        <ele>437</ele>
        <time>2010-10-28T12:47:40Z</time>
      </trkpt>
      <trkpt lat="45.44426" lon="4.69877">
        <ele>440</ele>
        <time>2010-10-28T12:47:49Z</time>
      </trkpt>
      <trkpt lat="45.44435" lon="4.69882">
        <ele>440</ele>
        <time>2010-10-28T12:47:56Z</time>
      </trkpt>
      <trkpt lat="45.44443" lon="4.6989">
        <ele>440</ele>
        <time>2010-10-28T12:48:09Z</time>
      </trkpt>
      <trkpt lat="45.44451" lon="4.69897">
        <ele>440</ele>
        <time>2010-10-28T12:48:24Z</time>
      </trkpt>
      <trkpt lat="45.44462" lon="4.699">
        <ele>441</ele>
        <time>2010-10-28T12:48:30Z</time>
      </trkpt>
      <trkpt lat="45.44472" lon="4.69908">
        <ele>441</ele>
        <time>2010-10-28T12:48:46Z</time>
      </trkpt>
      <trkpt lat="45.44481" lon="4.69914">
        <ele>442</ele>
        <time>2010-10-28T12:48:54Z</time>
      </trkpt>
      <trkpt lat="45.4449" lon="4.69915">
        <ele>442</ele>
        <time>2010-10-28T12:49:16Z</time>
      </trkpt>
      <trkpt lat="45.44501" lon="4.69916">
        <ele>442</ele>
        <time>2010-10-28T12:50:41Z</time>
      </trkpt>
      <trkpt lat="45.4451" lon="4.69921">
        <ele>443</ele>
        <time>2010-10-28T12:50:54Z</time>
      </trkpt>
      <trkpt lat="45.4452" lon="4.69924">
        <ele>443</ele>
        <time>2010-10-28T12:51:09Z</time>
      </trkpt>
      <trkpt lat="45.44529" lon="4.69931">
        <ele>444</ele>
        <time>2010-10-28T12:51:18Z</time>
      </trkpt>
      <trkpt lat="45.44539" lon="4.69937">
        <ele>445</ele>
        <time>2010-10-28T12:51:24Z</time>
      </trkpt>
      <trkpt lat="45.44546" lon="4.69945">
        <ele>445</ele>
        <time>2010-10-28T12:51:36Z</time>
      </trkpt>
      <trkpt lat="45.44555" lon="4.6995">
        <ele>445</ele>
        <time>2010-10-28T12:52:12Z</time>
      </trkpt>
      <trkpt lat="45.44563" lon="4.69956">
        <ele>445</ele>
        <time>2010-10-28T12:52:24Z</time>
      </trkpt>
      <trkpt lat="45.44572" lon="4.69964">
        <ele>445</ele>
        <time>2010-10-28T12:52:31Z</time>
      </trkpt>
      <trkpt lat="45.4458" lon="4.69971">
        <ele>445</ele>
        <time>2010-10-28T12:52:39Z</time>
      </trkpt>
      <trkpt lat="45.4459" lon="4.69982">
        <ele>450</ele>
        <time>2010-10-28T12:52:51Z</time>
      </trkpt>
      <trkpt lat="45.44598" lon="4.6999">
        <ele>450</ele>
        <time>2010-10-28T12:53:06Z</time>
      </trkpt>
      <trkpt lat="45.44606" lon="4.69999">
        <ele>451</ele>
        <time>2010-10-28T12:53:17Z</time>
      </trkpt>
      <trkpt lat="45.44616" lon="4.70006">
        <ele>450</ele>
        <time>2010-10-28T12:53:26Z</time>
      </trkpt>
      <trkpt lat="45.44622" lon="4.70016">
        <ele>450</ele>
        <time>2010-10-28T12:53:35Z</time>
      </trkpt>
      <trkpt lat="45.4463" lon="4.70025">
        <ele>451</ele>
        <time>2010-10-28T12:53:44Z</time>
      </trkpt>
      <trkpt lat="45.44639" lon="4.70028">
        <ele>451</ele>
        <time>2010-10-28T12:53:58Z</time>
      </trkpt>
      <trkpt lat="45.44646" lon="4.70037">
        <ele>452</ele>
        <time>2010-10-28T12:54:05Z</time>
      </trkpt>
      <trkpt lat="45.44658" lon="4.70041">
        <ele>452</ele>
        <time>2010-10-28T12:54:16Z</time>
      </trkpt>
      <trkpt lat="45.44667" lon="4.70052">
        <ele>459</ele>
        <time>2010-10-28T12:54:32Z</time>
      </trkpt>
      <trkpt lat="45.44675" lon="4.70058">
        <ele>459</ele>
        <time>2010-10-28T12:54:45Z</time>
      </trkpt>
      <trkpt lat="45.44682" lon="4.70069">
        <ele>459</ele>
        <time>2010-10-28T12:54:54Z</time>
      </trkpt>
      <trkpt lat="45.44691" lon="4.70073">
        <ele>459</ele>
        <time>2010-10-28T12:55:01Z</time>
      </trkpt>
      <trkpt lat="45.44702" lon="4.70078">
        <ele>460</ele>
        <time>2010-10-28T12:55:04Z</time>
      </trkpt>
      <trkpt lat="45.44713" lon="4.70082">
        <ele>461</ele>
        <time>2010-10-28T12:55:07Z</time>
      </trkpt>
      <trkpt lat="45.44716" lon="4.70096">
        <ele>460</ele>
        <time>2010-10-28T12:55:32Z</time>
      </trkpt>
      <trkpt lat="45.44725" lon="4.701">
        <ele>460</ele>
        <time>2010-10-28T12:55:40Z</time>
      </trkpt>
      <trkpt lat="45.44735" lon="4.70101">
        <ele>461</ele>
        <time>2010-10-28T12:55:51Z</time>
      </trkpt>
      <trkpt lat="45.44745" lon="4.70099">
        <ele>462</ele>
        <time>2010-10-28T12:55:58Z</time>
      </trkpt>
      <trkpt lat="45.44757" lon="4.70103">
        <ele>463</ele>
        <time>2010-10-28T12:56:02Z</time>
      </trkpt>
      <trkpt lat="45.44768" lon="4.701">
        <ele>463</ele>
        <time>2010-10-28T12:56:11Z</time>
      </trkpt>
      <trkpt lat="45.44773" lon="4.70089">
        <ele>463</ele>
        <time>2010-10-28T12:56:22Z</time>
      </trkpt>
      <trkpt lat="45.44786" lon="4.70094">
        <ele>463</ele>
        <time>2010-10-28T12:56:26Z</time>
      </trkpt>
      <trkpt lat="45.44797" lon="4.70098">
        <ele>463</ele>
        <time>2010-10-28T12:56:29Z</time>
      </trkpt>
      <trkpt lat="45.44792" lon="4.70086">
        <ele>463</ele>
        <time>2010-10-28T12:56:36Z</time>
      </trkpt>
      <trkpt lat="45.44799" lon="4.70077">
        <ele>465</ele>
        <time>2010-10-28T12:56:42Z</time>
      </trkpt>
      <trkpt lat="45.44808" lon="4.70076">
        <ele>465</ele>
        <time>2010-10-28T12:56:45Z</time>
      </trkpt>
      <trkpt lat="45.44804" lon="4.70064">
        <ele>465</ele>
        <time>2010-10-28T12:56:51Z</time>
      </trkpt>
      <trkpt lat="45.44804" lon="4.70051">
        <ele>465</ele>
        <time>2010-10-28T12:57:02Z</time>
      </trkpt>
      <trkpt lat="45.44815" lon="4.70055">
        <ele>465</ele>
        <time>2010-10-28T12:57:12Z</time>
      </trkpt>
      <trkpt lat="45.44806" lon="4.70052">
        <ele>465</ele>
        <time>2010-10-28T12:57:17Z</time>
      </trkpt>
      <trkpt lat="45.44818" lon="4.70051">
        <ele>465</ele>
        <time>2010-10-28T12:57:33Z</time>
      </trkpt>
      <trkpt lat="45.44813" lon="4.70035">
        <ele>466</ele>
        <time>2010-10-28T12:57:41Z</time>
      </trkpt>
      <trkpt lat="45.44814" lon="4.70021">
        <ele>466</ele>
        <time>2010-10-28T12:57:49Z</time>
      </trkpt>
      <trkpt lat="45.44821" lon="4.7001">
        <ele>467</ele>
        <time>2010-10-28T12:58:00Z</time>
      </trkpt>
      <trkpt lat="45.44829" lon="4.7">
        <ele>468</ele>
        <time>2010-10-28T12:58:09Z</time>
      </trkpt>
      <trkpt lat="45.44835" lon="4.69988">
        <ele>471</ele>
        <time>2010-10-28T12:58:19Z</time>
      </trkpt>
      <trkpt lat="45.44839" lon="4.69975">
        <ele>472</ele>
        <time>2010-10-28T12:58:28Z</time>
      </trkpt>
      <trkpt lat="45.44849" lon="4.69969">
        <ele>473</ele>
        <time>2010-10-28T12:58:39Z</time>
      </trkpt>
      <trkpt lat="45.44856" lon="4.69961">
        <ele>474</ele>
        <time>2010-10-28T12:58:49Z</time>
      </trkpt>
      <trkpt lat="45.44863" lon="4.69951">
        <ele>474</ele>
        <time>2010-10-28T12:59:00Z</time>
      </trkpt>
      <trkpt lat="45.44871" lon="4.69945">
        <ele>475</ele>
        <time>2010-10-28T12:59:09Z</time>
      </trkpt>
      <trkpt lat="45.44881" lon="4.69941">
        <ele>475</ele>
        <time>2010-10-28T12:59:17Z</time>
      </trkpt>
      <trkpt lat="45.44887" lon="4.69931">
        <ele>476</ele>
        <time>2010-10-28T12:59:28Z</time>
      </trkpt>
      <trkpt lat="45.44892" lon="4.6992">
        <ele>476</ele>
        <time>2010-10-28T12:59:39Z</time>
      </trkpt>
      <trkpt lat="45.449" lon="4.69911">
        <ele>481</ele>
        <time>2010-10-28T12:59:49Z</time>
      </trkpt>
      <trkpt lat="45.44911" lon="4.69909">
        <ele>481</ele>
        <time>2010-10-28T12:59:56Z</time>
      </trkpt>
      <trkpt lat="45.4492" lon="4.69902">
        <ele>482</ele>
        <time>2010-10-28T13:00:06Z</time>
      </trkpt>
      <trkpt lat="45.44929" lon="4.69905">
        <ele>482</ele>
        <time>2010-10-28T13:00:09Z</time>
      </trkpt>
      <trkpt lat="45.44932" lon="4.69892">
        <ele>483</ele>
        <time>2010-10-28T13:00:20Z</time>
      </trkpt>
      <trkpt lat="45.44931" lon="4.69878">
        <ele>484</ele>
        <time>2010-10-28T13:00:32Z</time>
      </trkpt>
      <trkpt lat="45.44928" lon="4.69866">
        <ele>485</ele>
        <time>2010-10-28T13:00:39Z</time>
      </trkpt>
      <trkpt lat="45.44939" lon="4.69866">
        <ele>485</ele>
        <time>2010-10-28T13:00:44Z</time>
      </trkpt>
      <trkpt lat="45.44949" lon="4.69867">
        <ele>485</ele>
        <time>2010-10-28T13:01:05Z</time>
      </trkpt>
      <trkpt lat="45.44957" lon="4.69858">
        <ele>485</ele>
        <time>2010-10-28T13:01:23Z</time>
      </trkpt>
      <trkpt lat="45.44967" lon="4.69853">
        <ele>485</ele>
        <time>2010-10-28T13:01:29Z</time>
      </trkpt>
      <trkpt lat="45.44963" lon="4.69839">
        <ele>486</ele>
        <time>2010-10-28T13:02:02Z</time>
      </trkpt>
      <trkpt lat="45.4497" lon="4.69826">
        <ele>491</ele>
        <time>2010-10-28T13:02:09Z</time>
      </trkpt>
      <trkpt lat="45.44979" lon="4.69819">
        <ele>490</ele>
        <time>2010-10-28T13:02:17Z</time>
      </trkpt>
      <trkpt lat="45.44989" lon="4.69815">
        <ele>490</ele>
        <time>2010-10-28T13:02:23Z</time>
      </trkpt>
      <trkpt lat="45.45" lon="4.69814">
        <ele>490</ele>
        <time>2010-10-28T13:02:28Z</time>
      </trkpt>
      <trkpt lat="45.45011" lon="4.69816">
        <ele>489</ele>
        <time>2010-10-28T13:02:34Z</time>
      </trkpt>
      <trkpt lat="45.45021" lon="4.69811">
        <ele>490</ele>
        <time>2010-10-28T13:02:44Z</time>
      </trkpt>
      <trkpt lat="45.45031" lon="4.69806">
        <ele>490</ele>
        <time>2010-10-28T13:02:55Z</time>
      </trkpt>
      <trkpt lat="45.4504" lon="4.69801">
        <ele>490</ele>
        <time>2010-10-28T13:03:05Z</time>
      </trkpt>
      <trkpt lat="45.45049" lon="4.69796">
        <ele>491</ele>
        <time>2010-10-28T13:03:19Z</time>
      </trkpt>
      <trkpt lat="45.45056" lon="4.69788">
        <ele>491</ele>
        <time>2010-10-28T13:03:31Z</time>
      </trkpt>
      <trkpt lat="45.45059" lon="4.69773">
        <ele>491</ele>
        <time>2010-10-28T13:03:39Z</time>
      </trkpt>
      <trkpt lat="45.4505" lon="4.69763">
        <ele>492</ele>
        <time>2010-10-28T13:03:48Z</time>
      </trkpt>
      <trkpt lat="45.45058" lon="4.69756">
        <ele>492</ele>
        <time>2010-10-28T13:04:05Z</time>
      </trkpt>
      <trkpt lat="45.45067" lon="4.69747">
        <ele>494</ele>
        <time>2010-10-28T13:04:31Z</time>
      </trkpt>
      <trkpt lat="45.45073" lon="4.69737">
        <ele>494</ele>
        <time>2010-10-28T13:05:02Z</time>
      </trkpt>
      <trkpt lat="45.45081" lon="4.69729">
        <ele>494</ele>
        <time>2010-10-28T13:05:15Z</time>
      </trkpt>
      <trkpt lat="45.45091" lon="4.69727">
        <ele>492</ele>
        <time>2010-10-28T13:05:19Z</time>
      </trkpt>
      <trkpt lat="45.451" lon="4.69727">
        <ele>492</ele>
        <time>2010-10-28T13:05:24Z</time>
      </trkpt>
      <trkpt lat="45.4511" lon="4.69727">
        <ele>492</ele>
        <time>2010-10-28T13:05:29Z</time>
      </trkpt>
      <trkpt lat="45.45112" lon="4.69714">
        <ele>492</ele>
        <time>2010-10-28T13:05:41Z</time>
      </trkpt>
      <trkpt lat="45.45122" lon="4.69713">
        <ele>492</ele>
        <time>2010-10-28T13:05:47Z</time>
      </trkpt>
      <trkpt lat="45.45131" lon="4.69711">
        <ele>491</ele>
        <time>2010-10-28T13:05:57Z</time>
      </trkpt>
      <trkpt lat="45.45131" lon="4.69698">
        <ele>491</ele>
        <time>2010-10-28T13:06:16Z</time>
      </trkpt>
      <trkpt lat="45.45141" lon="4.69693">
        <ele>491</ele>
        <time>2010-10-28T13:06:26Z</time>
      </trkpt>
      <trkpt lat="45.4515" lon="4.69692">
        <ele>491</ele>
        <time>2010-10-28T13:06:33Z</time>
      </trkpt>
      <trkpt lat="45.45158" lon="4.69684">
        <ele>491</ele>
        <time>2010-10-28T13:06:51Z</time>
      </trkpt>
      <trkpt lat="45.45167" lon="4.69678">
        <ele>491</ele>
        <time>2010-10-28T13:07:02Z</time>
      </trkpt>
      <trkpt lat="45.45177" lon="4.69676">
        <ele>487</ele>
        <time>2010-10-28T13:07:12Z</time>
      </trkpt>
      <trkpt lat="45.45187" lon="4.69678">
        <ele>486</ele>
        <time>2010-10-28T13:07:16Z</time>
      </trkpt>
      <trkpt lat="45.45196" lon="4.69674">
        <ele>485</ele>
        <time>2010-10-28T13:07:22Z</time>
      </trkpt>
      <trkpt lat="45.45201" lon="4.69662">
        <ele>485</ele>
        <time>2010-10-28T13:07:37Z</time>
      </trkpt>
      <trkpt lat="45.45211" lon="4.69662">
        <ele>484</ele>
        <time>2010-10-28T13:07:50Z</time>
      </trkpt>
      <trkpt lat="45.45218" lon="4.69651">
        <ele>483</ele>
        <time>2010-10-28T13:08:28Z</time>
      </trkpt>
      <trkpt lat="45.45229" lon="4.69652">
        <ele>482</ele>
        <time>2010-10-28T13:08:35Z</time>
      </trkpt>
      <trkpt lat="45.45232" lon="4.69639">
        <ele>482</ele>
        <time>2010-10-28T13:08:50Z</time>
      </trkpt>
      <trkpt lat="45.45237" lon="4.69629">
        <ele>482</ele>
        <time>2010-10-28T13:09:01Z</time>
      </trkpt>
      <trkpt lat="45.45234" lon="4.69615">
        <ele>482</ele>
        <time>2010-10-28T13:09:10Z</time>
      </trkpt>
      <trkpt lat="45.45243" lon="4.69609">
        <ele>481</ele>
        <time>2010-10-28T13:09:20Z</time>
      </trkpt>
      <trkpt lat="45.45251" lon="4.696">
        <ele>474</ele>
        <time>2010-10-28T13:09:28Z</time>
      </trkpt>
      <trkpt lat="45.4525" lon="4.69586">
        <ele>477</ele>
        <time>2010-10-28T13:09:39Z</time>
      </trkpt>
      <trkpt lat="45.45261" lon="4.69586">
        <ele>475</ele>
        <time>2010-10-28T13:09:53Z</time>
      </trkpt>
      <trkpt lat="45.45268" lon="4.69596">
        <ele>473</ele>
        <time>2010-10-28T13:09:58Z</time>
      </trkpt>
      <trkpt lat="45.45271" lon="4.6961">
        <ele>472</ele>
        <time>2010-10-28T13:10:09Z</time>
      </trkpt>
      <trkpt lat="45.45277" lon="4.69622">
        <ele>471</ele>
        <time>2010-10-28T13:10:15Z</time>
      </trkpt>
      <trkpt lat="45.45284" lon="4.69631">
        <ele>470</ele>
        <time>2010-10-28T13:10:35Z</time>
      </trkpt>
      <trkpt lat="45.45288" lon="4.69644">
        <ele>470</ele>
        <time>2010-10-28T13:10:45Z</time>
      </trkpt>
      <trkpt lat="45.45292" lon="4.69656">
        <ele>470</ele>
        <time>2010-10-28T13:11:05Z</time>
      </trkpt>
      <trkpt lat="45.45297" lon="4.69668">
        <ele>468</ele>
        <time>2010-10-28T13:11:17Z</time>
      </trkpt>
      <trkpt lat="45.45303" lon="4.6968">
        <ele>467</ele>
        <time>2010-10-28T13:11:26Z</time>
      </trkpt>
      <trkpt lat="45.45309" lon="4.69692">
        <ele>466</ele>
        <time>2010-10-28T13:11:36Z</time>
      </trkpt>
      <trkpt lat="45.45304" lon="4.69705">
        <ele>466</ele>
        <time>2010-10-28T13:11:48Z</time>
      </trkpt>
      <trkpt lat="45.45313" lon="4.69707">
        <ele>465</ele>
        <time>2010-10-28T13:12:02Z</time>
      </trkpt>
      <trkpt lat="45.45323" lon="4.69702">
        <ele>465</ele>
        <time>2010-10-28T13:12:17Z</time>
      </trkpt>
      <trkpt lat="45.45333" lon="4.69704">
        <ele>455</ele>
        <time>2010-10-28T13:12:29Z</time>
      </trkpt>
      <trkpt lat="45.45338" lon="4.69692">
        <ele>456</ele>
        <time>2010-10-28T13:12:40Z</time>
      </trkpt>
      <trkpt lat="45.45337" lon="4.69679">
        <ele>458</ele>
        <time>2010-10-28T13:12:47Z</time>
      </trkpt>
      <trkpt lat="45.45345" lon="4.6967">
        <ele>458</ele>
        <time>2010-10-28T13:12:54Z</time>
      </trkpt>
      <trkpt lat="45.45354" lon="4.69662">
        <ele>456</ele>
        <time>2010-10-28T13:13:03Z</time>
      </trkpt>
      <trkpt lat="45.45348" lon="4.69651">
        <ele>456</ele>
        <time>2010-10-28T13:13:08Z</time>
      </trkpt>
      <trkpt lat="45.45355" lon="4.6964">
        <ele>455</ele>
        <time>2010-10-28T13:13:20Z</time>
      </trkpt>
      <trkpt lat="45.45364" lon="4.69631">
        <ele>453</ele>
        <time>2010-10-28T13:13:29Z</time>
      </trkpt>
      <trkpt lat="45.45372" lon="4.69623">
        <ele>453</ele>
        <time>2010-10-28T13:13:36Z</time>
      </trkpt>
      <trkpt lat="45.45371" lon="4.69608">
        <ele>452</ele>
        <time>2010-10-28T13:13:50Z</time>
      </trkpt>
      <trkpt lat="45.45373" lon="4.69593">
        <ele>452</ele>
        <time>2010-10-28T13:14:01Z</time>
      </trkpt>
      <trkpt lat="45.45371" lon="4.6958">
        <ele>450</ele>
        <time>2010-10-28T13:14:08Z</time>
      </trkpt>
      <trkpt lat="45.45368" lon="4.69565">
        <ele>451</ele>
        <time>2010-10-28T13:14:18Z</time>
      </trkpt>
      <trkpt lat="45.4537" lon="4.69548">
        <ele>450</ele>
        <time>2010-10-28T13:14:34Z</time>
      </trkpt>
      <trkpt lat="45.4537" lon="4.69532">
        <ele>450</ele>
        <time>2010-10-28T13:14:40Z</time>
      </trkpt>
      <trkpt lat="45.45369" lon="4.69517">
        <ele>450</ele>
        <time>2010-10-28T13:14:53Z</time>
      </trkpt>
      <trkpt lat="45.45368" lon="4.69501">
        <ele>450</ele>
        <time>2010-10-28T13:15:04Z</time>
      </trkpt>
      <trkpt lat="45.4537" lon="4.69487">
        <ele>448</ele>
        <time>2010-10-28T13:15:13Z</time>
      </trkpt>
      <trkpt lat="45.45377" lon="4.69477">
        <ele>447</ele>
        <time>2010-10-28T13:15:22Z</time>
      </trkpt>
      <trkpt lat="45.45385" lon="4.6947">
        <ele>447</ele>
        <time>2010-10-28T13:15:30Z</time>
      </trkpt>
      <trkpt lat="45.45396" lon="4.69463">
        <ele>446</ele>
        <time>2010-10-28T13:15:40Z</time>
      </trkpt>
      <trkpt lat="45.45409" lon="4.69465">
        <ele>445</ele>
        <time>2010-10-28T13:15:47Z</time>
      </trkpt>
      <trkpt lat="45.45411" lon="4.69452">
        <ele>446</ele>
        <time>2010-10-28T13:15:54Z</time>
      </trkpt>
      <trkpt lat="45.45418" lon="4.69443">
        <ele>442</ele>
        <time>2010-10-28T13:16:01Z</time>
      </trkpt>
      <trkpt lat="45.45421" lon="4.69429">
        <ele>443</ele>
        <time>2010-10-28T13:16:10Z</time>
      </trkpt>
      <trkpt lat="45.4542" lon="4.69416">
        <ele>444</ele>
        <time>2010-10-28T13:16:18Z</time>
      </trkpt>
      <trkpt lat="45.4543" lon="4.69415">
        <ele>445</ele>
        <time>2010-10-28T13:16:25Z</time>
      </trkpt>
      <trkpt lat="45.45438" lon="4.69408">
        <ele>446</ele>
        <time>2010-10-28T13:16:36Z</time>
      </trkpt>
      <trkpt lat="45.45448" lon="4.69406">
        <ele>446</ele>
        <time>2010-10-28T13:16:44Z</time>
      </trkpt>
      <trkpt lat="45.4545" lon="4.69391">
        <ele>447</ele>
        <time>2010-10-28T13:16:56Z</time>
      </trkpt>
      <trkpt lat="45.45459" lon="4.6939">
        <ele>447</ele>
        <time>2010-10-28T13:17:00Z</time>
      </trkpt>
      <trkpt lat="45.45461" lon="4.69377">
        <ele>447</ele>
        <time>2010-10-28T13:17:15Z</time>
      </trkpt>
      <trkpt lat="45.45471" lon="4.69374">
        <ele>447</ele>
        <time>2010-10-28T13:17:21Z</time>
      </trkpt>
      <trkpt lat="45.45481" lon="4.69372">
        <ele>447</ele>
        <time>2010-10-28T13:17:27Z</time>
      </trkpt>
      <trkpt lat="45.45489" lon="4.69365">
        <ele>448</ele>
        <time>2010-10-28T13:17:36Z</time>
      </trkpt>
      <trkpt lat="45.45499" lon="4.6936">
        <ele>448</ele>
        <time>2010-10-28T13:17:47Z</time>
      </trkpt>
      <trkpt lat="45.45506" lon="4.69352">
        <ele>450</ele>
        <time>2010-10-28T13:18:01Z</time>
      </trkpt>
      <trkpt lat="45.45512" lon="4.69339">
        <ele>450</ele>
        <time>2010-10-28T13:18:11Z</time>
      </trkpt>
      <trkpt lat="45.45514" lon="4.69324">
        <ele>454</ele>
        <time>2010-10-28T13:18:21Z</time>
      </trkpt>
      <trkpt lat="45.45511" lon="4.69311">
        <ele>455</ele>
        <time>2010-10-28T13:18:28Z</time>
      </trkpt>
      <trkpt lat="45.45519" lon="4.69307">
        <ele>455</ele>
        <time>2010-10-28T13:18:33Z</time>
      </trkpt>
      <trkpt lat="45.45519" lon="4.69293">
        <ele>456</ele>
        <time>2010-10-28T13:18:42Z</time>
      </trkpt>
      <trkpt lat="45.45529" lon="4.69289">
        <ele>457</ele>
        <time>2010-10-28T13:18:55Z</time>
      </trkpt>
      <trkpt lat="45.4554" lon="4.69288">
        <ele>457</ele>
        <time>2010-10-28T13:18:58Z</time>
      </trkpt>
      <trkpt lat="45.45551" lon="4.69287">
        <ele>458</ele>
        <time>2010-10-28T13:19:10Z</time>
      </trkpt>
      <trkpt lat="45.45559" lon="4.69293">
        <ele>457</ele>
        <time>2010-10-28T13:19:27Z</time>
      </trkpt>
      <trkpt lat="45.45569" lon="4.69295">
        <ele>457</ele>
        <time>2010-10-28T13:19:35Z</time>
      </trkpt>
      <trkpt lat="45.45578" lon="4.69301">
        <ele>457</ele>
        <time>2010-10-28T13:19:41Z</time>
      </trkpt>
      <trkpt lat="45.45588" lon="4.69307">
        <ele>459</ele>
        <time>2010-10-28T13:19:51Z</time>
      </trkpt>
      <trkpt lat="45.45597" lon="4.69312">
        <ele>459</ele>
        <time>2010-10-28T13:19:58Z</time>
      </trkpt>
      <trkpt lat="45.45603" lon="4.69322">
        <ele>459</ele>
        <time>2010-10-28T13:20:09Z</time>
      </trkpt>
      <trkpt lat="45.45612" lon="4.69326">
        <ele>460</ele>
        <time>2010-10-28T13:20:18Z</time>
      </trkpt>
      <trkpt lat="45.45624" lon="4.69331">
        <ele>460</ele>
        <time>2010-10-28T13:20:38Z</time>
      </trkpt>
      <trkpt lat="45.45634" lon="4.69337">
        <ele>456</ele>
        <time>2010-10-28T13:20:49Z</time>
      </trkpt>
      <trkpt lat="45.45643" lon="4.69337">
        <ele>457</ele>
        <time>2010-10-28T13:21:11Z</time>
      </trkpt>
      <trkpt lat="45.45653" lon="4.69342">
        <ele>458</ele>
        <time>2010-10-28T13:21:17Z</time>
      </trkpt>
      <trkpt lat="45.45662" lon="4.69341">
        <ele>459</ele>
        <time>2010-10-28T13:21:29Z</time>
      </trkpt>
      <trkpt lat="45.4567" lon="4.6935">
        <ele>459</ele>
        <time>2010-10-28T13:21:37Z</time>
      </trkpt>
      <trkpt lat="45.45661" lon="4.69348">
        <ele>458</ele>
        <time>2010-10-28T13:21:55Z</time>
      </trkpt>
      <trkpt lat="45.45652" lon="4.69343">
        <ele>457</ele>
        <time>2010-10-28T13:22:00Z</time>
      </trkpt>
      <trkpt lat="45.45658" lon="4.69355">
        <ele>457</ele>
        <time>2010-10-28T13:22:09Z</time>
      </trkpt>
      <trkpt lat="45.45667" lon="4.69363">
        <ele>456</ele>
        <time>2010-10-28T13:22:13Z</time>
      </trkpt>
      <trkpt lat="45.45676" lon="4.6937">
        <ele>458</ele>
        <time>2010-10-28T13:22:16Z</time>
      </trkpt>
      <trkpt lat="45.45671" lon="4.69358">
        <ele>459</ele>
        <time>2010-10-28T13:22:28Z</time>
      </trkpt>
      <trkpt lat="45.45662" lon="4.69355">
        <ele>457</ele>
        <time>2010-10-28T13:22:42Z</time>
      </trkpt>
      <trkpt lat="45.4567" lon="4.69364">
        <ele>458</ele>
        <time>2010-10-28T13:22:57Z</time>
      </trkpt>
      <trkpt lat="45.45676" lon="4.69378">
        <ele>457</ele>
        <time>2010-10-28T13:23:02Z</time>
      </trkpt>
      <trkpt lat="45.45669" lon="4.69368">
        <ele>458</ele>
        <time>2010-10-28T13:23:04Z</time>
      </trkpt>
      <trkpt lat="45.45667" lon="4.69355">
        <ele>459</ele>
        <time>2010-10-28T13:23:07Z</time>
      </trkpt>
      <trkpt lat="45.45676" lon="4.69363">
        <ele>458</ele>
        <time>2010-10-28T13:23:28Z</time>
      </trkpt>
      <trkpt lat="45.45684" lon="4.69373">
        <ele>458</ele>
        <time>2010-10-28T13:23:36Z</time>
      </trkpt>
      <trkpt lat="45.45693" lon="4.69378">
        <ele>457</ele>
        <time>2010-10-28T13:23:46Z</time>
      </trkpt>
      <trkpt lat="45.45701" lon="4.6939">
        <ele>457</ele>
        <time>2010-10-28T13:23:56Z</time>
      </trkpt>
      <trkpt lat="45.45712" lon="4.69395">
        <ele>457</ele>
        <time>2010-10-28T13:24:10Z</time>
      </trkpt>
      <trkpt lat="45.4572" lon="4.694">
        <ele>456</ele>
        <time>2010-10-28T13:24:24Z</time>
      </trkpt>
      <trkpt lat="45.45729" lon="4.69407">
        <ele>456</ele>
        <time>2010-10-28T13:24:29Z</time>
      </trkpt>
      <trkpt lat="45.45741" lon="4.69411">
        <ele>455</ele>
        <time>2010-10-28T13:24:46Z</time>
      </trkpt>
      <trkpt lat="45.4575" lon="4.69419">
        <ele>454</ele>
        <time>2010-10-28T13:24:52Z</time>
      </trkpt>
      <trkpt lat="45.45757" lon="4.69432">
        <ele>452</ele>
        <time>2010-10-28T13:25:03Z</time>
      </trkpt>
      <trkpt lat="45.45767" lon="4.69434">
        <ele>451</ele>
        <time>2010-10-28T13:25:21Z</time>
      </trkpt>
      <trkpt lat="45.45776" lon="4.69439">
        <ele>450</ele>
        <time>2010-10-28T13:25:31Z</time>
      </trkpt>
      <trkpt lat="45.45785" lon="4.69443">
        <ele>450</ele>
        <time>2010-10-28T13:25:39Z</time>
      </trkpt>
      <trkpt lat="45.45793" lon="4.69449">
        <ele>449</ele>
        <time>2010-10-28T13:25:44Z</time>
      </trkpt>
      <trkpt lat="45.45801" lon="4.69456">
        <ele>449</ele>
        <time>2010-10-28T13:25:52Z</time>
      </trkpt>
      <trkpt lat="45.45809" lon="4.69467">
        <ele>448</ele>
        <time>2010-10-28T13:26:04Z</time>
      </trkpt>
      <trkpt lat="45.45815" lon="4.69477">
        <ele>448</ele>
        <time>2010-10-28T13:26:14Z</time>
      </trkpt>
      <trkpt lat="45.45824" lon="4.69481">
        <ele>447</ele>
        <time>2010-10-28T13:26:22Z</time>
      </trkpt>
      <trkpt lat="45.45834" lon="4.69484">
        <ele>447</ele>
        <time>2010-10-28T13:26:33Z</time>
      </trkpt>
      <trkpt lat="45.45844" lon="4.69489">
        <ele>447</ele>
        <time>2010-10-28T13:26:42Z</time>
      </trkpt>
      <trkpt lat="45.45854" lon="4.6949">
        <ele>448</ele>
        <time>2010-10-28T13:27:01Z</time>
      </trkpt>
      <trkpt lat="45.45862" lon="4.69499">
        <ele>448</ele>
        <time>2010-10-28T13:27:07Z</time>
      </trkpt>
    </trkseg>
  </trk>
</gpx>